<?xml version="1.0" encoding="UTF-8" standalone="no" ?>
<gpx xmlns="http://www.topografix.com/GPX/1/1" xmlns:xsi="http://www.w3.org/2001/XMLSchema-instance" xsi:schemaLocation="http://www.topografix.com/GPX/1/1 http://www.topografix.com/GPX/1/1/gpx.xsd" version="1.1" creator="VisuGPX - https://www.visugpx.com">
  <metadata>
    <name>Ste Eulalie -  pt 2 les coux ouest 24/03/2022</name>
    <desc><![CDATA[variante Ste_Eulalie_-__pt_2_Les_Coux_ouest_24_03_2022_684]]></desc>
  </metadata>
  <trk>
    <name><![CDATA[Ste Eulalie -  pt 2 les coux ouest 24/03/2022]]></name>
    <trkseg>
      <trkpt lat="44.80521" lon="4.18735">
        <ele>1194</ele>
        <time>2022-03-24T07:16:47Z</time>
      </trkpt>
      <trkpt lat="44.80519" lon="4.18734">
        <ele>1193</ele>
        <time>2022-03-24T07:16:49Z</time>
      </trkpt>
      <trkpt lat="44.80517" lon="4.18733">
        <ele>1193</ele>
        <time>2022-03-24T07:16:51Z</time>
      </trkpt>
      <trkpt lat="44.80514" lon="4.18731">
        <ele>1193</ele>
        <time>2022-03-24T07:16:54Z</time>
      </trkpt>
      <trkpt lat="44.80511" lon="4.18729">
        <ele>1193</ele>
        <time>2022-03-24T07:16:57Z</time>
      </trkpt>
      <trkpt lat="44.80507" lon="4.18727">
        <ele>1192</ele>
        <time>2022-03-24T07:17:00Z</time>
      </trkpt>
      <trkpt lat="44.80504" lon="4.18725">
        <ele>1192</ele>
        <time>2022-03-24T07:17:02Z</time>
      </trkpt>
      <trkpt lat="44.80501" lon="4.18723">
        <ele>1192</ele>
        <time>2022-03-24T07:17:04Z</time>
      </trkpt>
      <trkpt lat="44.80498" lon="4.18721">
        <ele>1192</ele>
        <time>2022-03-24T07:17:06Z</time>
      </trkpt>
      <trkpt lat="44.80495" lon="4.18719">
        <ele>1192</ele>
        <time>2022-03-24T07:17:08Z</time>
      </trkpt>
      <trkpt lat="44.80492" lon="4.18717">
        <ele>1192</ele>
        <time>2022-03-24T07:17:10Z</time>
      </trkpt>
      <trkpt lat="44.80489" lon="4.18716">
        <ele>1191</ele>
        <time>2022-03-24T07:17:12Z</time>
      </trkpt>
      <trkpt lat="44.80486" lon="4.18714">
        <ele>1191</ele>
        <time>2022-03-24T07:17:14Z</time>
      </trkpt>
      <trkpt lat="44.80483" lon="4.18712">
        <ele>1191</ele>
        <time>2022-03-24T07:17:16Z</time>
      </trkpt>
      <trkpt lat="44.8048" lon="4.1871">
        <ele>1191</ele>
        <time>2022-03-24T07:17:18Z</time>
      </trkpt>
      <trkpt lat="44.80477" lon="4.18707">
        <ele>1191</ele>
        <time>2022-03-24T07:17:20Z</time>
      </trkpt>
      <trkpt lat="44.80474" lon="4.18706">
        <ele>1190</ele>
        <time>2022-03-24T07:17:22Z</time>
      </trkpt>
      <trkpt lat="44.80471" lon="4.18704">
        <ele>1190</ele>
        <time>2022-03-24T07:17:24Z</time>
      </trkpt>
      <trkpt lat="44.80468" lon="4.18703">
        <ele>1189</ele>
        <time>2022-03-24T07:17:26Z</time>
      </trkpt>
      <trkpt lat="44.80465" lon="4.18702">
        <ele>1189</ele>
        <time>2022-03-24T07:17:28Z</time>
      </trkpt>
      <trkpt lat="44.80462" lon="4.187">
        <ele>1189</ele>
        <time>2022-03-24T07:17:30Z</time>
      </trkpt>
      <trkpt lat="44.80459" lon="4.18698">
        <ele>1190</ele>
        <time>2022-03-24T07:17:32Z</time>
      </trkpt>
      <trkpt lat="44.80456" lon="4.18696">
        <ele>1189</ele>
        <time>2022-03-24T07:17:34Z</time>
      </trkpt>
      <trkpt lat="44.80454" lon="4.18694">
        <ele>1189</ele>
        <time>2022-03-24T07:17:36Z</time>
      </trkpt>
      <trkpt lat="44.80451" lon="4.18693">
        <ele>1189</ele>
        <time>2022-03-24T07:17:38Z</time>
      </trkpt>
      <trkpt lat="44.80447" lon="4.1869">
        <ele>1189</ele>
        <time>2022-03-24T07:17:41Z</time>
      </trkpt>
      <trkpt lat="44.80444" lon="4.18688">
        <ele>1189</ele>
        <time>2022-03-24T07:17:43Z</time>
      </trkpt>
      <trkpt lat="44.80441" lon="4.18686">
        <ele>1189</ele>
        <time>2022-03-24T07:17:45Z</time>
      </trkpt>
      <trkpt lat="44.80438" lon="4.18684">
        <ele>1189</ele>
        <time>2022-03-24T07:17:47Z</time>
      </trkpt>
      <trkpt lat="44.80435" lon="4.18682">
        <ele>1189</ele>
        <time>2022-03-24T07:17:49Z</time>
      </trkpt>
      <trkpt lat="44.80432" lon="4.18681">
        <ele>1189</ele>
        <time>2022-03-24T07:17:51Z</time>
      </trkpt>
      <trkpt lat="44.80429" lon="4.18679">
        <ele>1189</ele>
        <time>2022-03-24T07:17:53Z</time>
      </trkpt>
      <trkpt lat="44.80426" lon="4.18677">
        <ele>1188</ele>
        <time>2022-03-24T07:17:55Z</time>
      </trkpt>
      <trkpt lat="44.80422" lon="4.18675">
        <ele>1189</ele>
        <time>2022-03-24T07:17:57Z</time>
      </trkpt>
      <trkpt lat="44.80419" lon="4.18673">
        <ele>1189</ele>
        <time>2022-03-24T07:17:59Z</time>
      </trkpt>
      <trkpt lat="44.80416" lon="4.18671">
        <ele>1189</ele>
        <time>2022-03-24T07:18:01Z</time>
      </trkpt>
      <trkpt lat="44.80413" lon="4.18669">
        <ele>1189</ele>
        <time>2022-03-24T07:18:03Z</time>
      </trkpt>
      <trkpt lat="44.8041" lon="4.18667">
        <ele>1189</ele>
        <time>2022-03-24T07:18:05Z</time>
      </trkpt>
      <trkpt lat="44.80406" lon="4.18665">
        <ele>1189</ele>
        <time>2022-03-24T07:18:07Z</time>
      </trkpt>
      <trkpt lat="44.80404" lon="4.18663">
        <ele>1189</ele>
        <time>2022-03-24T07:18:09Z</time>
      </trkpt>
      <trkpt lat="44.80401" lon="4.18662">
        <ele>1189</ele>
        <time>2022-03-24T07:18:11Z</time>
      </trkpt>
      <trkpt lat="44.80398" lon="4.1866">
        <ele>1189</ele>
        <time>2022-03-24T07:18:13Z</time>
      </trkpt>
      <trkpt lat="44.80395" lon="4.18658">
        <ele>1189</ele>
        <time>2022-03-24T07:18:15Z</time>
      </trkpt>
      <trkpt lat="44.80392" lon="4.18656">
        <ele>1189</ele>
        <time>2022-03-24T07:18:17Z</time>
      </trkpt>
      <trkpt lat="44.80389" lon="4.18655">
        <ele>1189</ele>
        <time>2022-03-24T07:18:19Z</time>
      </trkpt>
      <trkpt lat="44.80386" lon="4.18653">
        <ele>1189</ele>
        <time>2022-03-24T07:18:21Z</time>
      </trkpt>
      <trkpt lat="44.80382" lon="4.18651">
        <ele>1189</ele>
        <time>2022-03-24T07:18:23Z</time>
      </trkpt>
      <trkpt lat="44.80379" lon="4.18649">
        <ele>1189</ele>
        <time>2022-03-24T07:18:25Z</time>
      </trkpt>
      <trkpt lat="44.80376" lon="4.18647">
        <ele>1189</ele>
        <time>2022-03-24T07:18:27Z</time>
      </trkpt>
      <trkpt lat="44.80373" lon="4.18645">
        <ele>1189</ele>
        <time>2022-03-24T07:18:29Z</time>
      </trkpt>
      <trkpt lat="44.8037" lon="4.18644">
        <ele>1189</ele>
        <time>2022-03-24T07:18:31Z</time>
      </trkpt>
      <trkpt lat="44.80367" lon="4.18642">
        <ele>1189</ele>
        <time>2022-03-24T07:18:33Z</time>
      </trkpt>
      <trkpt lat="44.80364" lon="4.18641">
        <ele>1189</ele>
        <time>2022-03-24T07:18:35Z</time>
      </trkpt>
      <trkpt lat="44.80362" lon="4.18639">
        <ele>1189</ele>
        <time>2022-03-24T07:18:37Z</time>
      </trkpt>
      <trkpt lat="44.80359" lon="4.18638">
        <ele>1189</ele>
        <time>2022-03-24T07:18:40Z</time>
      </trkpt>
      <trkpt lat="44.80355" lon="4.18636">
        <ele>1189</ele>
        <time>2022-03-24T07:18:43Z</time>
      </trkpt>
      <trkpt lat="44.80351" lon="4.18634">
        <ele>1189</ele>
        <time>2022-03-24T07:18:45Z</time>
      </trkpt>
      <trkpt lat="44.80348" lon="4.18632">
        <ele>1189</ele>
        <time>2022-03-24T07:18:47Z</time>
      </trkpt>
      <trkpt lat="44.80345" lon="4.1863">
        <ele>1189</ele>
        <time>2022-03-24T07:18:49Z</time>
      </trkpt>
      <trkpt lat="44.80342" lon="4.18628">
        <ele>1189</ele>
        <time>2022-03-24T07:18:51Z</time>
      </trkpt>
      <trkpt lat="44.80339" lon="4.18626">
        <ele>1189</ele>
        <time>2022-03-24T07:18:53Z</time>
      </trkpt>
      <trkpt lat="44.80336" lon="4.18624">
        <ele>1189</ele>
        <time>2022-03-24T07:18:55Z</time>
      </trkpt>
      <trkpt lat="44.80333" lon="4.18621">
        <ele>1189</ele>
        <time>2022-03-24T07:18:58Z</time>
      </trkpt>
      <trkpt lat="44.8033" lon="4.18619">
        <ele>1189</ele>
        <time>2022-03-24T07:19:00Z</time>
      </trkpt>
      <trkpt lat="44.80328" lon="4.18617">
        <ele>1189</ele>
        <time>2022-03-24T07:19:02Z</time>
      </trkpt>
      <trkpt lat="44.80325" lon="4.18616">
        <ele>1189</ele>
        <time>2022-03-24T07:19:04Z</time>
      </trkpt>
      <trkpt lat="44.80322" lon="4.18614">
        <ele>1189</ele>
        <time>2022-03-24T07:19:06Z</time>
      </trkpt>
      <trkpt lat="44.8032" lon="4.18612">
        <ele>1189</ele>
        <time>2022-03-24T07:19:08Z</time>
      </trkpt>
      <trkpt lat="44.80317" lon="4.18609">
        <ele>1190</ele>
        <time>2022-03-24T07:19:12Z</time>
      </trkpt>
      <trkpt lat="44.80314" lon="4.18607">
        <ele>1190</ele>
        <time>2022-03-24T07:19:16Z</time>
      </trkpt>
      <trkpt lat="44.8031" lon="4.18605">
        <ele>1190</ele>
        <time>2022-03-24T07:19:19Z</time>
      </trkpt>
      <trkpt lat="44.80308" lon="4.18603">
        <ele>1190</ele>
        <time>2022-03-24T07:19:21Z</time>
      </trkpt>
      <trkpt lat="44.80305" lon="4.18601">
        <ele>1191</ele>
        <time>2022-03-24T07:19:23Z</time>
      </trkpt>
      <trkpt lat="44.80302" lon="4.18599">
        <ele>1191</ele>
        <time>2022-03-24T07:19:25Z</time>
      </trkpt>
      <trkpt lat="44.80299" lon="4.18597">
        <ele>1191</ele>
        <time>2022-03-24T07:19:27Z</time>
      </trkpt>
      <trkpt lat="44.80296" lon="4.18595">
        <ele>1192</ele>
        <time>2022-03-24T07:19:29Z</time>
      </trkpt>
      <trkpt lat="44.80293" lon="4.18593">
        <ele>1192</ele>
        <time>2022-03-24T07:19:32Z</time>
      </trkpt>
      <trkpt lat="44.8029" lon="4.18592">
        <ele>1192</ele>
        <time>2022-03-24T07:19:34Z</time>
      </trkpt>
      <trkpt lat="44.80287" lon="4.1859">
        <ele>1192</ele>
        <time>2022-03-24T07:19:36Z</time>
      </trkpt>
      <trkpt lat="44.80284" lon="4.18588">
        <ele>1192</ele>
        <time>2022-03-24T07:19:38Z</time>
      </trkpt>
      <trkpt lat="44.80282" lon="4.18587">
        <ele>1193</ele>
        <time>2022-03-24T07:19:40Z</time>
      </trkpt>
      <trkpt lat="44.80279" lon="4.18585">
        <ele>1193</ele>
        <time>2022-03-24T07:19:42Z</time>
      </trkpt>
      <trkpt lat="44.80275" lon="4.18583">
        <ele>1193</ele>
        <time>2022-03-24T07:19:45Z</time>
      </trkpt>
      <trkpt lat="44.80272" lon="4.18582">
        <ele>1193</ele>
        <time>2022-03-24T07:19:47Z</time>
      </trkpt>
      <trkpt lat="44.80269" lon="4.18581">
        <ele>1193</ele>
        <time>2022-03-24T07:19:49Z</time>
      </trkpt>
      <trkpt lat="44.80266" lon="4.18581">
        <ele>1193</ele>
        <time>2022-03-24T07:19:51Z</time>
      </trkpt>
      <trkpt lat="44.80263" lon="4.1858">
        <ele>1194</ele>
        <time>2022-03-24T07:19:53Z</time>
      </trkpt>
      <trkpt lat="44.8026" lon="4.18578">
        <ele>1194</ele>
        <time>2022-03-24T07:19:55Z</time>
      </trkpt>
      <trkpt lat="44.80257" lon="4.18577">
        <ele>1194</ele>
        <time>2022-03-24T07:19:57Z</time>
      </trkpt>
      <trkpt lat="44.80254" lon="4.18576">
        <ele>1194</ele>
        <time>2022-03-24T07:19:59Z</time>
      </trkpt>
      <trkpt lat="44.80251" lon="4.18576">
        <ele>1195</ele>
        <time>2022-03-24T07:20:01Z</time>
      </trkpt>
      <trkpt lat="44.80248" lon="4.18575">
        <ele>1195</ele>
        <time>2022-03-24T07:20:03Z</time>
      </trkpt>
      <trkpt lat="44.80245" lon="4.18574">
        <ele>1195</ele>
        <time>2022-03-24T07:20:05Z</time>
      </trkpt>
      <trkpt lat="44.80241" lon="4.18573">
        <ele>1195</ele>
        <time>2022-03-24T07:20:07Z</time>
      </trkpt>
      <trkpt lat="44.80238" lon="4.18573">
        <ele>1195</ele>
        <time>2022-03-24T07:20:09Z</time>
      </trkpt>
      <trkpt lat="44.80235" lon="4.18572">
        <ele>1196</ele>
        <time>2022-03-24T07:20:11Z</time>
      </trkpt>
      <trkpt lat="44.80232" lon="4.18572">
        <ele>1196</ele>
        <time>2022-03-24T07:20:13Z</time>
      </trkpt>
      <trkpt lat="44.80229" lon="4.18572">
        <ele>1196</ele>
        <time>2022-03-24T07:20:15Z</time>
      </trkpt>
      <trkpt lat="44.80226" lon="4.18572">
        <ele>1196</ele>
        <time>2022-03-24T07:20:17Z</time>
      </trkpt>
      <trkpt lat="44.80222" lon="4.18572">
        <ele>1197</ele>
        <time>2022-03-24T07:20:19Z</time>
      </trkpt>
      <trkpt lat="44.80219" lon="4.18572">
        <ele>1197</ele>
        <time>2022-03-24T07:20:21Z</time>
      </trkpt>
      <trkpt lat="44.80216" lon="4.18572">
        <ele>1197</ele>
        <time>2022-03-24T07:20:23Z</time>
      </trkpt>
      <trkpt lat="44.80213" lon="4.18572">
        <ele>1197</ele>
        <time>2022-03-24T07:20:25Z</time>
      </trkpt>
      <trkpt lat="44.80209" lon="4.18572">
        <ele>1197</ele>
        <time>2022-03-24T07:20:28Z</time>
      </trkpt>
      <trkpt lat="44.80205" lon="4.18572">
        <ele>1198</ele>
        <time>2022-03-24T07:20:31Z</time>
      </trkpt>
      <trkpt lat="44.80202" lon="4.18573">
        <ele>1198</ele>
        <time>2022-03-24T07:20:34Z</time>
      </trkpt>
      <trkpt lat="44.80198" lon="4.18573">
        <ele>1198</ele>
        <time>2022-03-24T07:20:36Z</time>
      </trkpt>
      <trkpt lat="44.80195" lon="4.18574">
        <ele>1199</ele>
        <time>2022-03-24T07:20:38Z</time>
      </trkpt>
      <trkpt lat="44.80192" lon="4.18575">
        <ele>1199</ele>
        <time>2022-03-24T07:20:40Z</time>
      </trkpt>
      <trkpt lat="44.80189" lon="4.18577">
        <ele>1199</ele>
        <time>2022-03-24T07:20:42Z</time>
      </trkpt>
      <trkpt lat="44.80185" lon="4.18577">
        <ele>1199</ele>
        <time>2022-03-24T07:20:44Z</time>
      </trkpt>
      <trkpt lat="44.80183" lon="4.18578">
        <ele>1200</ele>
        <time>2022-03-24T07:20:46Z</time>
      </trkpt>
      <trkpt lat="44.8018" lon="4.18579">
        <ele>1200</ele>
        <time>2022-03-24T07:20:48Z</time>
      </trkpt>
      <trkpt lat="44.80177" lon="4.18581">
        <ele>1200</ele>
        <time>2022-03-24T07:20:50Z</time>
      </trkpt>
      <trkpt lat="44.80174" lon="4.18583">
        <ele>1201</ele>
        <time>2022-03-24T07:20:52Z</time>
      </trkpt>
      <trkpt lat="44.80171" lon="4.18586">
        <ele>1201</ele>
        <time>2022-03-24T07:20:54Z</time>
      </trkpt>
      <trkpt lat="44.80169" lon="4.18588">
        <ele>1201</ele>
        <time>2022-03-24T07:20:56Z</time>
      </trkpt>
      <trkpt lat="44.80166" lon="4.1859">
        <ele>1202</ele>
        <time>2022-03-24T07:20:58Z</time>
      </trkpt>
      <trkpt lat="44.80163" lon="4.18593">
        <ele>1202</ele>
        <time>2022-03-24T07:21:01Z</time>
      </trkpt>
      <trkpt lat="44.8016" lon="4.18597">
        <ele>1203</ele>
        <time>2022-03-24T07:21:04Z</time>
      </trkpt>
      <trkpt lat="44.80157" lon="4.186">
        <ele>1203</ele>
        <time>2022-03-24T07:21:06Z</time>
      </trkpt>
      <trkpt lat="44.80154" lon="4.18603">
        <ele>1203</ele>
        <time>2022-03-24T07:21:09Z</time>
      </trkpt>
      <trkpt lat="44.80152" lon="4.18606">
        <ele>1204</ele>
        <time>2022-03-24T07:21:11Z</time>
      </trkpt>
      <trkpt lat="44.80149" lon="4.18609">
        <ele>1204</ele>
        <time>2022-03-24T07:21:13Z</time>
      </trkpt>
      <trkpt lat="44.80147" lon="4.18612">
        <ele>1204</ele>
        <time>2022-03-24T07:21:15Z</time>
      </trkpt>
      <trkpt lat="44.80144" lon="4.18615">
        <ele>1204</ele>
        <time>2022-03-24T07:21:17Z</time>
      </trkpt>
      <trkpt lat="44.80141" lon="4.18618">
        <ele>1205</ele>
        <time>2022-03-24T07:21:20Z</time>
      </trkpt>
      <trkpt lat="44.80138" lon="4.18621">
        <ele>1205</ele>
        <time>2022-03-24T07:21:22Z</time>
      </trkpt>
      <trkpt lat="44.80136" lon="4.18624">
        <ele>1205</ele>
        <time>2022-03-24T07:21:24Z</time>
      </trkpt>
      <trkpt lat="44.80134" lon="4.18626">
        <ele>1205</ele>
        <time>2022-03-24T07:21:26Z</time>
      </trkpt>
      <trkpt lat="44.80131" lon="4.18629">
        <ele>1205</ele>
        <time>2022-03-24T07:21:28Z</time>
      </trkpt>
      <trkpt lat="44.80129" lon="4.18631">
        <ele>1205</ele>
        <time>2022-03-24T07:21:30Z</time>
      </trkpt>
      <trkpt lat="44.80126" lon="4.18634">
        <ele>1205</ele>
        <time>2022-03-24T07:21:32Z</time>
      </trkpt>
      <trkpt lat="44.80123" lon="4.18637">
        <ele>1206</ele>
        <time>2022-03-24T07:21:34Z</time>
      </trkpt>
      <trkpt lat="44.80121" lon="4.1864">
        <ele>1206</ele>
        <time>2022-03-24T07:21:36Z</time>
      </trkpt>
      <trkpt lat="44.80118" lon="4.18642">
        <ele>1206</ele>
        <time>2022-03-24T07:21:38Z</time>
      </trkpt>
      <trkpt lat="44.80115" lon="4.18645">
        <ele>1206</ele>
        <time>2022-03-24T07:21:40Z</time>
      </trkpt>
      <trkpt lat="44.80112" lon="4.18648">
        <ele>1206</ele>
        <time>2022-03-24T07:21:42Z</time>
      </trkpt>
      <trkpt lat="44.8011" lon="4.18651">
        <ele>1206</ele>
        <time>2022-03-24T07:21:44Z</time>
      </trkpt>
      <trkpt lat="44.80107" lon="4.18654">
        <ele>1206</ele>
        <time>2022-03-24T07:21:47Z</time>
      </trkpt>
      <trkpt lat="44.80104" lon="4.18657">
        <ele>1206</ele>
        <time>2022-03-24T07:21:49Z</time>
      </trkpt>
      <trkpt lat="44.80102" lon="4.1866">
        <ele>1207</ele>
        <time>2022-03-24T07:21:51Z</time>
      </trkpt>
      <trkpt lat="44.80098" lon="4.18664">
        <ele>1207</ele>
        <time>2022-03-24T07:21:54Z</time>
      </trkpt>
      <trkpt lat="44.80095" lon="4.18667">
        <ele>1207</ele>
        <time>2022-03-24T07:21:57Z</time>
      </trkpt>
      <trkpt lat="44.80092" lon="4.1867">
        <ele>1207</ele>
        <time>2022-03-24T07:21:59Z</time>
      </trkpt>
      <trkpt lat="44.8009" lon="4.18673">
        <ele>1207</ele>
        <time>2022-03-24T07:22:01Z</time>
      </trkpt>
      <trkpt lat="44.80088" lon="4.18675">
        <ele>1207</ele>
        <time>2022-03-24T07:22:03Z</time>
      </trkpt>
      <trkpt lat="44.80085" lon="4.18678">
        <ele>1207</ele>
        <time>2022-03-24T07:22:05Z</time>
      </trkpt>
      <trkpt lat="44.80082" lon="4.18681">
        <ele>1207</ele>
        <time>2022-03-24T07:22:07Z</time>
      </trkpt>
      <trkpt lat="44.8008" lon="4.18684">
        <ele>1207</ele>
        <time>2022-03-24T07:22:09Z</time>
      </trkpt>
      <trkpt lat="44.80078" lon="4.18687">
        <ele>1208</ele>
        <time>2022-03-24T07:22:11Z</time>
      </trkpt>
      <trkpt lat="44.80076" lon="4.1869">
        <ele>1208</ele>
        <time>2022-03-24T07:22:13Z</time>
      </trkpt>
      <trkpt lat="44.80074" lon="4.18694">
        <ele>1208</ele>
        <time>2022-03-24T07:22:15Z</time>
      </trkpt>
      <trkpt lat="44.80071" lon="4.18697">
        <ele>1208</ele>
        <time>2022-03-24T07:22:17Z</time>
      </trkpt>
      <trkpt lat="44.80069" lon="4.18701">
        <ele>1208</ele>
        <time>2022-03-24T07:22:19Z</time>
      </trkpt>
      <trkpt lat="44.80067" lon="4.18704">
        <ele>1208</ele>
        <time>2022-03-24T07:22:21Z</time>
      </trkpt>
      <trkpt lat="44.80064" lon="4.18708">
        <ele>1208</ele>
        <time>2022-03-24T07:22:24Z</time>
      </trkpt>
      <trkpt lat="44.80062" lon="4.18711">
        <ele>1209</ele>
        <time>2022-03-24T07:22:26Z</time>
      </trkpt>
      <trkpt lat="44.80059" lon="4.18714">
        <ele>1208</ele>
        <time>2022-03-24T07:22:28Z</time>
      </trkpt>
      <trkpt lat="44.80057" lon="4.18718">
        <ele>1208</ele>
        <time>2022-03-24T07:22:30Z</time>
      </trkpt>
      <trkpt lat="44.80055" lon="4.18721">
        <ele>1209</ele>
        <time>2022-03-24T07:22:32Z</time>
      </trkpt>
      <trkpt lat="44.80053" lon="4.18725">
        <ele>1209</ele>
        <time>2022-03-24T07:22:35Z</time>
      </trkpt>
      <trkpt lat="44.80051" lon="4.18728">
        <ele>1209</ele>
        <time>2022-03-24T07:22:37Z</time>
      </trkpt>
      <trkpt lat="44.80049" lon="4.18731">
        <ele>1208</ele>
        <time>2022-03-24T07:22:39Z</time>
      </trkpt>
      <trkpt lat="44.80047" lon="4.18735">
        <ele>1208</ele>
        <time>2022-03-24T07:22:41Z</time>
      </trkpt>
      <trkpt lat="44.80045" lon="4.18739">
        <ele>1209</ele>
        <time>2022-03-24T07:22:43Z</time>
      </trkpt>
      <trkpt lat="44.80043" lon="4.18743">
        <ele>1209</ele>
        <time>2022-03-24T07:22:45Z</time>
      </trkpt>
      <trkpt lat="44.80041" lon="4.18747">
        <ele>1209</ele>
        <time>2022-03-24T07:22:47Z</time>
      </trkpt>
      <trkpt lat="44.80039" lon="4.18751">
        <ele>1209</ele>
        <time>2022-03-24T07:22:49Z</time>
      </trkpt>
      <trkpt lat="44.80037" lon="4.18755">
        <ele>1209</ele>
        <time>2022-03-24T07:22:51Z</time>
      </trkpt>
      <trkpt lat="44.80035" lon="4.18758">
        <ele>1209</ele>
        <time>2022-03-24T07:22:53Z</time>
      </trkpt>
      <trkpt lat="44.80034" lon="4.18762">
        <ele>1209</ele>
        <time>2022-03-24T07:22:55Z</time>
      </trkpt>
      <trkpt lat="44.80032" lon="4.18766">
        <ele>1209</ele>
        <time>2022-03-24T07:22:57Z</time>
      </trkpt>
      <trkpt lat="44.8003" lon="4.18771">
        <ele>1209</ele>
        <time>2022-03-24T07:22:59Z</time>
      </trkpt>
      <trkpt lat="44.80029" lon="4.18776">
        <ele>1209</ele>
        <time>2022-03-24T07:23:01Z</time>
      </trkpt>
      <trkpt lat="44.80027" lon="4.18781">
        <ele>1209</ele>
        <time>2022-03-24T07:23:03Z</time>
      </trkpt>
      <trkpt lat="44.80025" lon="4.18786">
        <ele>1209</ele>
        <time>2022-03-24T07:23:05Z</time>
      </trkpt>
      <trkpt lat="44.80024" lon="4.18791">
        <ele>1209</ele>
        <time>2022-03-24T07:23:07Z</time>
      </trkpt>
      <trkpt lat="44.80023" lon="4.18796">
        <ele>1209</ele>
        <time>2022-03-24T07:23:09Z</time>
      </trkpt>
      <trkpt lat="44.80021" lon="4.18801">
        <ele>1209</ele>
        <time>2022-03-24T07:23:11Z</time>
      </trkpt>
      <trkpt lat="44.80019" lon="4.18806">
        <ele>1209</ele>
        <time>2022-03-24T07:23:14Z</time>
      </trkpt>
      <trkpt lat="44.80017" lon="4.1881">
        <ele>1209</ele>
        <time>2022-03-24T07:23:16Z</time>
      </trkpt>
      <trkpt lat="44.80016" lon="4.18814">
        <ele>1209</ele>
        <time>2022-03-24T07:23:20Z</time>
      </trkpt>
      <trkpt lat="44.80017" lon="4.18818">
        <ele>1209</ele>
        <time>2022-03-24T07:23:23Z</time>
      </trkpt>
      <trkpt lat="44.80018" lon="4.18822">
        <ele>1209</ele>
        <time>2022-03-24T07:23:32Z</time>
      </trkpt>
      <trkpt lat="44.80019" lon="4.18826">
        <ele>1209</ele>
        <time>2022-03-24T07:23:35Z</time>
      </trkpt>
      <trkpt lat="44.8002" lon="4.18831">
        <ele>1210</ele>
        <time>2022-03-24T07:23:41Z</time>
      </trkpt>
      <trkpt lat="44.80021" lon="4.18835">
        <ele>1210</ele>
        <time>2022-03-24T07:23:43Z</time>
      </trkpt>
      <trkpt lat="44.80021" lon="4.18839">
        <ele>1210</ele>
        <time>2022-03-24T07:23:45Z</time>
      </trkpt>
      <trkpt lat="44.80022" lon="4.18843">
        <ele>1210</ele>
        <time>2022-03-24T07:23:47Z</time>
      </trkpt>
      <trkpt lat="44.80023" lon="4.18848">
        <ele>1211</ele>
        <time>2022-03-24T07:23:49Z</time>
      </trkpt>
      <trkpt lat="44.80024" lon="4.18853">
        <ele>1211</ele>
        <time>2022-03-24T07:23:51Z</time>
      </trkpt>
      <trkpt lat="44.80025" lon="4.18857">
        <ele>1210</ele>
        <time>2022-03-24T07:23:53Z</time>
      </trkpt>
      <trkpt lat="44.80026" lon="4.18862">
        <ele>1211</ele>
        <time>2022-03-24T07:23:55Z</time>
      </trkpt>
      <trkpt lat="44.80027" lon="4.18866">
        <ele>1211</ele>
        <time>2022-03-24T07:23:57Z</time>
      </trkpt>
      <trkpt lat="44.80028" lon="4.18871">
        <ele>1211</ele>
        <time>2022-03-24T07:24:00Z</time>
      </trkpt>
      <trkpt lat="44.8003" lon="4.18876">
        <ele>1211</ele>
        <time>2022-03-24T07:24:02Z</time>
      </trkpt>
      <trkpt lat="44.80032" lon="4.1888">
        <ele>1211</ele>
        <time>2022-03-24T07:24:04Z</time>
      </trkpt>
      <trkpt lat="44.80034" lon="4.18884">
        <ele>1211</ele>
        <time>2022-03-24T07:24:07Z</time>
      </trkpt>
      <trkpt lat="44.80037" lon="4.18887">
        <ele>1211</ele>
        <time>2022-03-24T07:24:09Z</time>
      </trkpt>
      <trkpt lat="44.80039" lon="4.18891">
        <ele>1212</ele>
        <time>2022-03-24T07:24:11Z</time>
      </trkpt>
      <trkpt lat="44.80042" lon="4.18894">
        <ele>1212</ele>
        <time>2022-03-24T07:24:13Z</time>
      </trkpt>
      <trkpt lat="44.80044" lon="4.18896">
        <ele>1212</ele>
        <time>2022-03-24T07:24:15Z</time>
      </trkpt>
      <trkpt lat="44.80047" lon="4.18899">
        <ele>1212</ele>
        <time>2022-03-24T07:24:17Z</time>
      </trkpt>
      <trkpt lat="44.80049" lon="4.18901">
        <ele>1212</ele>
        <time>2022-03-24T07:24:19Z</time>
      </trkpt>
      <trkpt lat="44.80052" lon="4.18904">
        <ele>1212</ele>
        <time>2022-03-24T07:24:21Z</time>
      </trkpt>
      <trkpt lat="44.80054" lon="4.18907">
        <ele>1212</ele>
        <time>2022-03-24T07:24:23Z</time>
      </trkpt>
      <trkpt lat="44.80056" lon="4.1891">
        <ele>1212</ele>
        <time>2022-03-24T07:24:25Z</time>
      </trkpt>
      <trkpt lat="44.80059" lon="4.18913">
        <ele>1212</ele>
        <time>2022-03-24T07:24:27Z</time>
      </trkpt>
      <trkpt lat="44.80061" lon="4.18916">
        <ele>1213</ele>
        <time>2022-03-24T07:24:29Z</time>
      </trkpt>
      <trkpt lat="44.80063" lon="4.18919">
        <ele>1213</ele>
        <time>2022-03-24T07:24:31Z</time>
      </trkpt>
      <trkpt lat="44.80066" lon="4.18922">
        <ele>1213</ele>
        <time>2022-03-24T07:24:33Z</time>
      </trkpt>
      <trkpt lat="44.80068" lon="4.18925">
        <ele>1213</ele>
        <time>2022-03-24T07:24:35Z</time>
      </trkpt>
      <trkpt lat="44.8007" lon="4.18928">
        <ele>1213</ele>
        <time>2022-03-24T07:24:37Z</time>
      </trkpt>
      <trkpt lat="44.80073" lon="4.18931">
        <ele>1213</ele>
        <time>2022-03-24T07:24:39Z</time>
      </trkpt>
      <trkpt lat="44.80075" lon="4.18934">
        <ele>1213</ele>
        <time>2022-03-24T07:24:41Z</time>
      </trkpt>
      <trkpt lat="44.80078" lon="4.18936">
        <ele>1213</ele>
        <time>2022-03-24T07:24:43Z</time>
      </trkpt>
      <trkpt lat="44.80081" lon="4.18939">
        <ele>1213</ele>
        <time>2022-03-24T07:24:45Z</time>
      </trkpt>
      <trkpt lat="44.80084" lon="4.18942">
        <ele>1214</ele>
        <time>2022-03-24T07:24:47Z</time>
      </trkpt>
      <trkpt lat="44.80086" lon="4.18944">
        <ele>1213</ele>
        <time>2022-03-24T07:24:49Z</time>
      </trkpt>
      <trkpt lat="44.80089" lon="4.18947">
        <ele>1213</ele>
        <time>2022-03-24T07:24:51Z</time>
      </trkpt>
      <trkpt lat="44.80092" lon="4.1895">
        <ele>1213</ele>
        <time>2022-03-24T07:24:53Z</time>
      </trkpt>
      <trkpt lat="44.80095" lon="4.18954">
        <ele>1213</ele>
        <time>2022-03-24T07:24:56Z</time>
      </trkpt>
      <trkpt lat="44.80098" lon="4.18958">
        <ele>1213</ele>
        <time>2022-03-24T07:24:58Z</time>
      </trkpt>
      <trkpt lat="44.801" lon="4.1896">
        <ele>1213</ele>
        <time>2022-03-24T07:25:00Z</time>
      </trkpt>
      <trkpt lat="44.80103" lon="4.18963">
        <ele>1213</ele>
        <time>2022-03-24T07:25:02Z</time>
      </trkpt>
      <trkpt lat="44.80105" lon="4.18966">
        <ele>1213</ele>
        <time>2022-03-24T07:25:04Z</time>
      </trkpt>
      <trkpt lat="44.80108" lon="4.18969">
        <ele>1213</ele>
        <time>2022-03-24T07:25:06Z</time>
      </trkpt>
      <trkpt lat="44.80111" lon="4.18973">
        <ele>1213</ele>
        <time>2022-03-24T07:25:08Z</time>
      </trkpt>
      <trkpt lat="44.80113" lon="4.18976">
        <ele>1213</ele>
        <time>2022-03-24T07:25:10Z</time>
      </trkpt>
      <trkpt lat="44.80115" lon="4.18979">
        <ele>1213</ele>
        <time>2022-03-24T07:25:12Z</time>
      </trkpt>
      <trkpt lat="44.80118" lon="4.18982">
        <ele>1214</ele>
        <time>2022-03-24T07:25:14Z</time>
      </trkpt>
      <trkpt lat="44.8012" lon="4.18984">
        <ele>1214</ele>
        <time>2022-03-24T07:25:16Z</time>
      </trkpt>
      <trkpt lat="44.80122" lon="4.18987">
        <ele>1213</ele>
        <time>2022-03-24T07:25:18Z</time>
      </trkpt>
      <trkpt lat="44.80125" lon="4.18989">
        <ele>1213</ele>
        <time>2022-03-24T07:25:20Z</time>
      </trkpt>
      <trkpt lat="44.80127" lon="4.18992">
        <ele>1213</ele>
        <time>2022-03-24T07:25:22Z</time>
      </trkpt>
      <trkpt lat="44.80129" lon="4.18995">
        <ele>1213</ele>
        <time>2022-03-24T07:25:24Z</time>
      </trkpt>
      <trkpt lat="44.80132" lon="4.18998">
        <ele>1213</ele>
        <time>2022-03-24T07:25:26Z</time>
      </trkpt>
      <trkpt lat="44.80134" lon="4.19001">
        <ele>1213</ele>
        <time>2022-03-24T07:25:28Z</time>
      </trkpt>
      <trkpt lat="44.80137" lon="4.19004">
        <ele>1214</ele>
        <time>2022-03-24T07:25:30Z</time>
      </trkpt>
      <trkpt lat="44.80139" lon="4.19007">
        <ele>1214</ele>
        <time>2022-03-24T07:25:32Z</time>
      </trkpt>
      <trkpt lat="44.80141" lon="4.19011">
        <ele>1214</ele>
        <time>2022-03-24T07:25:34Z</time>
      </trkpt>
      <trkpt lat="44.80144" lon="4.19014">
        <ele>1214</ele>
        <time>2022-03-24T07:25:36Z</time>
      </trkpt>
      <trkpt lat="44.80147" lon="4.19017">
        <ele>1214</ele>
        <time>2022-03-24T07:25:38Z</time>
      </trkpt>
      <trkpt lat="44.8015" lon="4.19019">
        <ele>1214</ele>
        <time>2022-03-24T07:25:40Z</time>
      </trkpt>
      <trkpt lat="44.80152" lon="4.19022">
        <ele>1214</ele>
        <time>2022-03-24T07:25:42Z</time>
      </trkpt>
      <trkpt lat="44.80155" lon="4.19026">
        <ele>1214</ele>
        <time>2022-03-24T07:25:44Z</time>
      </trkpt>
      <trkpt lat="44.80158" lon="4.19029">
        <ele>1215</ele>
        <time>2022-03-24T07:25:46Z</time>
      </trkpt>
      <trkpt lat="44.80161" lon="4.19031">
        <ele>1215</ele>
        <time>2022-03-24T07:25:48Z</time>
      </trkpt>
      <trkpt lat="44.80164" lon="4.19032">
        <ele>1215</ele>
        <time>2022-03-24T07:25:50Z</time>
      </trkpt>
      <trkpt lat="44.80167" lon="4.19034">
        <ele>1215</ele>
        <time>2022-03-24T07:25:53Z</time>
      </trkpt>
      <trkpt lat="44.80171" lon="4.19035">
        <ele>1215</ele>
        <time>2022-03-24T07:25:55Z</time>
      </trkpt>
      <trkpt lat="44.80173" lon="4.19037">
        <ele>1215</ele>
        <time>2022-03-24T07:25:57Z</time>
      </trkpt>
      <trkpt lat="44.80176" lon="4.19038">
        <ele>1215</ele>
        <time>2022-03-24T07:25:59Z</time>
      </trkpt>
      <trkpt lat="44.8018" lon="4.1904">
        <ele>1216</ele>
        <time>2022-03-24T07:26:02Z</time>
      </trkpt>
      <trkpt lat="44.80183" lon="4.19042">
        <ele>1216</ele>
        <time>2022-03-24T07:26:05Z</time>
      </trkpt>
      <trkpt lat="44.80186" lon="4.19044">
        <ele>1216</ele>
        <time>2022-03-24T07:26:08Z</time>
      </trkpt>
      <trkpt lat="44.80189" lon="4.19046">
        <ele>1216</ele>
        <time>2022-03-24T07:26:10Z</time>
      </trkpt>
      <trkpt lat="44.80192" lon="4.19048">
        <ele>1217</ele>
        <time>2022-03-24T07:26:12Z</time>
      </trkpt>
      <trkpt lat="44.80195" lon="4.1905">
        <ele>1217</ele>
        <time>2022-03-24T07:26:14Z</time>
      </trkpt>
      <trkpt lat="44.80198" lon="4.19052">
        <ele>1217</ele>
        <time>2022-03-24T07:26:16Z</time>
      </trkpt>
      <trkpt lat="44.80201" lon="4.19054">
        <ele>1217</ele>
        <time>2022-03-24T07:26:18Z</time>
      </trkpt>
      <trkpt lat="44.80204" lon="4.19056">
        <ele>1217</ele>
        <time>2022-03-24T07:26:20Z</time>
      </trkpt>
      <trkpt lat="44.80207" lon="4.19059">
        <ele>1217</ele>
        <time>2022-03-24T07:26:22Z</time>
      </trkpt>
      <trkpt lat="44.8021" lon="4.19062">
        <ele>1217</ele>
        <time>2022-03-24T07:26:24Z</time>
      </trkpt>
      <trkpt lat="44.80213" lon="4.19065">
        <ele>1217</ele>
        <time>2022-03-24T07:26:26Z</time>
      </trkpt>
      <trkpt lat="44.80215" lon="4.19069">
        <ele>1216</ele>
        <time>2022-03-24T07:26:28Z</time>
      </trkpt>
      <trkpt lat="44.80217" lon="4.19072">
        <ele>1216</ele>
        <time>2022-03-24T07:26:30Z</time>
      </trkpt>
      <trkpt lat="44.80219" lon="4.19076">
        <ele>1216</ele>
        <time>2022-03-24T07:26:32Z</time>
      </trkpt>
      <trkpt lat="44.80221" lon="4.19079">
        <ele>1217</ele>
        <time>2022-03-24T07:26:34Z</time>
      </trkpt>
      <trkpt lat="44.80223" lon="4.19083">
        <ele>1217</ele>
        <time>2022-03-24T07:26:36Z</time>
      </trkpt>
      <trkpt lat="44.80225" lon="4.19087">
        <ele>1217</ele>
        <time>2022-03-24T07:26:38Z</time>
      </trkpt>
      <trkpt lat="44.80226" lon="4.19091">
        <ele>1217</ele>
        <time>2022-03-24T07:26:40Z</time>
      </trkpt>
      <trkpt lat="44.80227" lon="4.19096">
        <ele>1218</ele>
        <time>2022-03-24T07:26:42Z</time>
      </trkpt>
      <trkpt lat="44.80229" lon="4.19101">
        <ele>1217</ele>
        <time>2022-03-24T07:26:44Z</time>
      </trkpt>
      <trkpt lat="44.8023" lon="4.19106">
        <ele>1217</ele>
        <time>2022-03-24T07:26:46Z</time>
      </trkpt>
      <trkpt lat="44.80232" lon="4.1911">
        <ele>1217</ele>
        <time>2022-03-24T07:26:48Z</time>
      </trkpt>
      <trkpt lat="44.80233" lon="4.19114">
        <ele>1217</ele>
        <time>2022-03-24T07:26:50Z</time>
      </trkpt>
      <trkpt lat="44.80234" lon="4.19118">
        <ele>1217</ele>
        <time>2022-03-24T07:26:52Z</time>
      </trkpt>
      <trkpt lat="44.80235" lon="4.19123">
        <ele>1217</ele>
        <time>2022-03-24T07:26:54Z</time>
      </trkpt>
      <trkpt lat="44.80236" lon="4.19127">
        <ele>1217</ele>
        <time>2022-03-24T07:26:56Z</time>
      </trkpt>
      <trkpt lat="44.80237" lon="4.19131">
        <ele>1217</ele>
        <time>2022-03-24T07:26:58Z</time>
      </trkpt>
      <trkpt lat="44.80239" lon="4.19135">
        <ele>1216</ele>
        <time>2022-03-24T07:27:00Z</time>
      </trkpt>
      <trkpt lat="44.8024" lon="4.1914">
        <ele>1216</ele>
        <time>2022-03-24T07:27:02Z</time>
      </trkpt>
      <trkpt lat="44.80242" lon="4.19144">
        <ele>1216</ele>
        <time>2022-03-24T07:27:04Z</time>
      </trkpt>
      <trkpt lat="44.80243" lon="4.19149">
        <ele>1216</ele>
        <time>2022-03-24T07:27:06Z</time>
      </trkpt>
      <trkpt lat="44.80244" lon="4.19153">
        <ele>1216</ele>
        <time>2022-03-24T07:27:08Z</time>
      </trkpt>
      <trkpt lat="44.80245" lon="4.19158">
        <ele>1216</ele>
        <time>2022-03-24T07:27:10Z</time>
      </trkpt>
      <trkpt lat="44.80246" lon="4.19163">
        <ele>1216</ele>
        <time>2022-03-24T07:27:12Z</time>
      </trkpt>
      <trkpt lat="44.80247" lon="4.19168">
        <ele>1216</ele>
        <time>2022-03-24T07:27:14Z</time>
      </trkpt>
      <trkpt lat="44.80249" lon="4.19172">
        <ele>1216</ele>
        <time>2022-03-24T07:27:16Z</time>
      </trkpt>
      <trkpt lat="44.8025" lon="4.19176">
        <ele>1216</ele>
        <time>2022-03-24T07:27:18Z</time>
      </trkpt>
      <trkpt lat="44.80251" lon="4.1918">
        <ele>1217</ele>
        <time>2022-03-24T07:27:20Z</time>
      </trkpt>
      <trkpt lat="44.80252" lon="4.19184">
        <ele>1217</ele>
        <time>2022-03-24T07:27:22Z</time>
      </trkpt>
      <trkpt lat="44.80253" lon="4.19188">
        <ele>1217</ele>
        <time>2022-03-24T07:27:24Z</time>
      </trkpt>
      <trkpt lat="44.80254" lon="4.19192">
        <ele>1217</ele>
        <time>2022-03-24T07:27:26Z</time>
      </trkpt>
      <trkpt lat="44.80256" lon="4.19196">
        <ele>1217</ele>
        <time>2022-03-24T07:27:28Z</time>
      </trkpt>
      <trkpt lat="44.80257" lon="4.192">
        <ele>1217</ele>
        <time>2022-03-24T07:27:30Z</time>
      </trkpt>
      <trkpt lat="44.80259" lon="4.19205">
        <ele>1218</ele>
        <time>2022-03-24T07:27:32Z</time>
      </trkpt>
      <trkpt lat="44.80261" lon="4.19209">
        <ele>1218</ele>
        <time>2022-03-24T07:27:34Z</time>
      </trkpt>
      <trkpt lat="44.80262" lon="4.19213">
        <ele>1218</ele>
        <time>2022-03-24T07:27:36Z</time>
      </trkpt>
      <trkpt lat="44.80264" lon="4.19217">
        <ele>1218</ele>
        <time>2022-03-24T07:27:38Z</time>
      </trkpt>
      <trkpt lat="44.80265" lon="4.19222">
        <ele>1218</ele>
        <time>2022-03-24T07:27:40Z</time>
      </trkpt>
      <trkpt lat="44.80266" lon="4.19226">
        <ele>1219</ele>
        <time>2022-03-24T07:27:42Z</time>
      </trkpt>
      <trkpt lat="44.80267" lon="4.19231">
        <ele>1219</ele>
        <time>2022-03-24T07:27:44Z</time>
      </trkpt>
      <trkpt lat="44.80268" lon="4.19235">
        <ele>1219</ele>
        <time>2022-03-24T07:27:46Z</time>
      </trkpt>
      <trkpt lat="44.80269" lon="4.19239">
        <ele>1219</ele>
        <time>2022-03-24T07:27:48Z</time>
      </trkpt>
      <trkpt lat="44.8027" lon="4.19244">
        <ele>1220</ele>
        <time>2022-03-24T07:27:50Z</time>
      </trkpt>
      <trkpt lat="44.80271" lon="4.19248">
        <ele>1220</ele>
        <time>2022-03-24T07:27:52Z</time>
      </trkpt>
      <trkpt lat="44.80272" lon="4.19252">
        <ele>1220</ele>
        <time>2022-03-24T07:27:54Z</time>
      </trkpt>
      <trkpt lat="44.80273" lon="4.19257">
        <ele>1220</ele>
        <time>2022-03-24T07:27:56Z</time>
      </trkpt>
      <trkpt lat="44.80274" lon="4.19261">
        <ele>1221</ele>
        <time>2022-03-24T07:27:58Z</time>
      </trkpt>
      <trkpt lat="44.80275" lon="4.19265">
        <ele>1221</ele>
        <time>2022-03-24T07:28:01Z</time>
      </trkpt>
      <trkpt lat="44.80276" lon="4.19269">
        <ele>1221</ele>
        <time>2022-03-24T07:28:03Z</time>
      </trkpt>
      <trkpt lat="44.80278" lon="4.19273">
        <ele>1222</ele>
        <time>2022-03-24T07:28:05Z</time>
      </trkpt>
      <trkpt lat="44.80279" lon="4.19277">
        <ele>1222</ele>
        <time>2022-03-24T07:28:07Z</time>
      </trkpt>
      <trkpt lat="44.8028" lon="4.19281">
        <ele>1222</ele>
        <time>2022-03-24T07:28:09Z</time>
      </trkpt>
      <trkpt lat="44.80282" lon="4.19286">
        <ele>1222</ele>
        <time>2022-03-24T07:28:11Z</time>
      </trkpt>
      <trkpt lat="44.80283" lon="4.1929">
        <ele>1222</ele>
        <time>2022-03-24T07:28:13Z</time>
      </trkpt>
      <trkpt lat="44.80284" lon="4.19294">
        <ele>1223</ele>
        <time>2022-03-24T07:28:15Z</time>
      </trkpt>
      <trkpt lat="44.80285" lon="4.19298">
        <ele>1223</ele>
        <time>2022-03-24T07:28:17Z</time>
      </trkpt>
      <trkpt lat="44.80286" lon="4.19302">
        <ele>1223</ele>
        <time>2022-03-24T07:28:19Z</time>
      </trkpt>
      <trkpt lat="44.80287" lon="4.19307">
        <ele>1224</ele>
        <time>2022-03-24T07:28:22Z</time>
      </trkpt>
      <trkpt lat="44.80288" lon="4.19311">
        <ele>1224</ele>
        <time>2022-03-24T07:28:24Z</time>
      </trkpt>
      <trkpt lat="44.80289" lon="4.19315">
        <ele>1224</ele>
        <time>2022-03-24T07:28:26Z</time>
      </trkpt>
      <trkpt lat="44.8029" lon="4.1932">
        <ele>1224</ele>
        <time>2022-03-24T07:28:28Z</time>
      </trkpt>
      <trkpt lat="44.80291" lon="4.19325">
        <ele>1224</ele>
        <time>2022-03-24T07:28:30Z</time>
      </trkpt>
      <trkpt lat="44.80292" lon="4.19329">
        <ele>1225</ele>
        <time>2022-03-24T07:28:32Z</time>
      </trkpt>
      <trkpt lat="44.80293" lon="4.19333">
        <ele>1225</ele>
        <time>2022-03-24T07:28:34Z</time>
      </trkpt>
      <trkpt lat="44.80294" lon="4.19337">
        <ele>1225</ele>
        <time>2022-03-24T07:28:36Z</time>
      </trkpt>
      <trkpt lat="44.80295" lon="4.19341">
        <ele>1226</ele>
        <time>2022-03-24T07:28:38Z</time>
      </trkpt>
      <trkpt lat="44.80296" lon="4.19345">
        <ele>1226</ele>
        <time>2022-03-24T07:28:40Z</time>
      </trkpt>
      <trkpt lat="44.80297" lon="4.1935">
        <ele>1226</ele>
        <time>2022-03-24T07:28:42Z</time>
      </trkpt>
      <trkpt lat="44.80298" lon="4.19354">
        <ele>1226</ele>
        <time>2022-03-24T07:28:44Z</time>
      </trkpt>
      <trkpt lat="44.80299" lon="4.19358">
        <ele>1227</ele>
        <time>2022-03-24T07:28:46Z</time>
      </trkpt>
      <trkpt lat="44.80301" lon="4.19362">
        <ele>1227</ele>
        <time>2022-03-24T07:28:48Z</time>
      </trkpt>
      <trkpt lat="44.80303" lon="4.19365">
        <ele>1227</ele>
        <time>2022-03-24T07:28:50Z</time>
      </trkpt>
      <trkpt lat="44.80304" lon="4.19369">
        <ele>1227</ele>
        <time>2022-03-24T07:28:52Z</time>
      </trkpt>
      <trkpt lat="44.80306" lon="4.19373">
        <ele>1227</ele>
        <time>2022-03-24T07:28:54Z</time>
      </trkpt>
      <trkpt lat="44.80307" lon="4.19377">
        <ele>1227</ele>
        <time>2022-03-24T07:28:57Z</time>
      </trkpt>
      <trkpt lat="44.80309" lon="4.19381">
        <ele>1227</ele>
        <time>2022-03-24T07:28:59Z</time>
      </trkpt>
      <trkpt lat="44.80311" lon="4.19385">
        <ele>1227</ele>
        <time>2022-03-24T07:29:01Z</time>
      </trkpt>
      <trkpt lat="44.80313" lon="4.19389">
        <ele>1227</ele>
        <time>2022-03-24T07:29:03Z</time>
      </trkpt>
      <trkpt lat="44.80315" lon="4.19393">
        <ele>1227</ele>
        <time>2022-03-24T07:29:05Z</time>
      </trkpt>
      <trkpt lat="44.80317" lon="4.19396">
        <ele>1227</ele>
        <time>2022-03-24T07:29:07Z</time>
      </trkpt>
      <trkpt lat="44.80319" lon="4.194">
        <ele>1227</ele>
        <time>2022-03-24T07:29:09Z</time>
      </trkpt>
      <trkpt lat="44.80321" lon="4.19404">
        <ele>1227</ele>
        <time>2022-03-24T07:29:11Z</time>
      </trkpt>
      <trkpt lat="44.80323" lon="4.19408">
        <ele>1227</ele>
        <time>2022-03-24T07:29:13Z</time>
      </trkpt>
      <trkpt lat="44.80325" lon="4.19412">
        <ele>1227</ele>
        <time>2022-03-24T07:29:15Z</time>
      </trkpt>
      <trkpt lat="44.80327" lon="4.19416">
        <ele>1227</ele>
        <time>2022-03-24T07:29:17Z</time>
      </trkpt>
      <trkpt lat="44.80329" lon="4.1942">
        <ele>1227</ele>
        <time>2022-03-24T07:29:19Z</time>
      </trkpt>
      <trkpt lat="44.80331" lon="4.19423">
        <ele>1227</ele>
        <time>2022-03-24T07:29:21Z</time>
      </trkpt>
      <trkpt lat="44.80333" lon="4.19427">
        <ele>1227</ele>
        <time>2022-03-24T07:29:23Z</time>
      </trkpt>
      <trkpt lat="44.80335" lon="4.19432">
        <ele>1227</ele>
        <time>2022-03-24T07:29:25Z</time>
      </trkpt>
      <trkpt lat="44.80337" lon="4.19435">
        <ele>1227</ele>
        <time>2022-03-24T07:29:27Z</time>
      </trkpt>
      <trkpt lat="44.80339" lon="4.19439">
        <ele>1227</ele>
        <time>2022-03-24T07:29:29Z</time>
      </trkpt>
      <trkpt lat="44.80341" lon="4.19443">
        <ele>1227</ele>
        <time>2022-03-24T07:29:31Z</time>
      </trkpt>
      <trkpt lat="44.80343" lon="4.19447">
        <ele>1227</ele>
        <time>2022-03-24T07:29:33Z</time>
      </trkpt>
      <trkpt lat="44.80345" lon="4.19451">
        <ele>1227</ele>
        <time>2022-03-24T07:29:35Z</time>
      </trkpt>
      <trkpt lat="44.80347" lon="4.19455">
        <ele>1227</ele>
        <time>2022-03-24T07:29:37Z</time>
      </trkpt>
      <trkpt lat="44.80349" lon="4.19458">
        <ele>1227</ele>
        <time>2022-03-24T07:29:39Z</time>
      </trkpt>
      <trkpt lat="44.80351" lon="4.19462">
        <ele>1226</ele>
        <time>2022-03-24T07:29:41Z</time>
      </trkpt>
      <trkpt lat="44.80352" lon="4.19466">
        <ele>1226</ele>
        <time>2022-03-24T07:29:43Z</time>
      </trkpt>
      <trkpt lat="44.80354" lon="4.1947">
        <ele>1226</ele>
        <time>2022-03-24T07:29:45Z</time>
      </trkpt>
      <trkpt lat="44.80356" lon="4.19474">
        <ele>1226</ele>
        <time>2022-03-24T07:29:47Z</time>
      </trkpt>
      <trkpt lat="44.80358" lon="4.19477">
        <ele>1226</ele>
        <time>2022-03-24T07:29:49Z</time>
      </trkpt>
      <trkpt lat="44.8036" lon="4.19481">
        <ele>1226</ele>
        <time>2022-03-24T07:29:51Z</time>
      </trkpt>
      <trkpt lat="44.80362" lon="4.19485">
        <ele>1226</ele>
        <time>2022-03-24T07:29:53Z</time>
      </trkpt>
      <trkpt lat="44.80363" lon="4.19489">
        <ele>1226</ele>
        <time>2022-03-24T07:29:55Z</time>
      </trkpt>
      <trkpt lat="44.80365" lon="4.19493">
        <ele>1225</ele>
        <time>2022-03-24T07:29:57Z</time>
      </trkpt>
      <trkpt lat="44.80368" lon="4.19497">
        <ele>1225</ele>
        <time>2022-03-24T07:29:59Z</time>
      </trkpt>
      <trkpt lat="44.8037" lon="4.19501">
        <ele>1225</ele>
        <time>2022-03-24T07:30:01Z</time>
      </trkpt>
      <trkpt lat="44.80372" lon="4.19505">
        <ele>1225</ele>
        <time>2022-03-24T07:30:03Z</time>
      </trkpt>
      <trkpt lat="44.80374" lon="4.19508">
        <ele>1225</ele>
        <time>2022-03-24T07:30:05Z</time>
      </trkpt>
      <trkpt lat="44.80376" lon="4.19512">
        <ele>1225</ele>
        <time>2022-03-24T07:30:07Z</time>
      </trkpt>
      <trkpt lat="44.80378" lon="4.19515">
        <ele>1225</ele>
        <time>2022-03-24T07:30:09Z</time>
      </trkpt>
      <trkpt lat="44.8038" lon="4.19519">
        <ele>1225</ele>
        <time>2022-03-24T07:30:11Z</time>
      </trkpt>
      <trkpt lat="44.80383" lon="4.19522">
        <ele>1225</ele>
        <time>2022-03-24T07:30:13Z</time>
      </trkpt>
      <trkpt lat="44.80385" lon="4.19526">
        <ele>1224</ele>
        <time>2022-03-24T07:30:15Z</time>
      </trkpt>
      <trkpt lat="44.80387" lon="4.19529">
        <ele>1224</ele>
        <time>2022-03-24T07:30:17Z</time>
      </trkpt>
      <trkpt lat="44.8039" lon="4.19533">
        <ele>1224</ele>
        <time>2022-03-24T07:30:19Z</time>
      </trkpt>
      <trkpt lat="44.80392" lon="4.19537">
        <ele>1224</ele>
        <time>2022-03-24T07:30:21Z</time>
      </trkpt>
      <trkpt lat="44.80394" lon="4.19541">
        <ele>1224</ele>
        <time>2022-03-24T07:30:23Z</time>
      </trkpt>
      <trkpt lat="44.80397" lon="4.19545">
        <ele>1224</ele>
        <time>2022-03-24T07:30:25Z</time>
      </trkpt>
      <trkpt lat="44.804" lon="4.19549">
        <ele>1224</ele>
        <time>2022-03-24T07:30:28Z</time>
      </trkpt>
      <trkpt lat="44.80403" lon="4.19552">
        <ele>1224</ele>
        <time>2022-03-24T07:30:30Z</time>
      </trkpt>
      <trkpt lat="44.80406" lon="4.19552">
        <ele>1224</ele>
        <time>2022-03-24T07:30:32Z</time>
      </trkpt>
      <trkpt lat="44.80409" lon="4.19551">
        <ele>1224</ele>
        <time>2022-03-24T07:30:34Z</time>
      </trkpt>
      <trkpt lat="44.80412" lon="4.19548">
        <ele>1224</ele>
        <time>2022-03-24T07:30:36Z</time>
      </trkpt>
      <trkpt lat="44.80414" lon="4.19545">
        <ele>1224</ele>
        <time>2022-03-24T07:30:38Z</time>
      </trkpt>
      <trkpt lat="44.80417" lon="4.19542">
        <ele>1223</ele>
        <time>2022-03-24T07:30:40Z</time>
      </trkpt>
      <trkpt lat="44.80419" lon="4.19538">
        <ele>1224</ele>
        <time>2022-03-24T07:30:42Z</time>
      </trkpt>
      <trkpt lat="44.80422" lon="4.19535">
        <ele>1223</ele>
        <time>2022-03-24T07:30:44Z</time>
      </trkpt>
      <trkpt lat="44.80424" lon="4.19531">
        <ele>1223</ele>
        <time>2022-03-24T07:30:46Z</time>
      </trkpt>
      <trkpt lat="44.80426" lon="4.19528">
        <ele>1223</ele>
        <time>2022-03-24T07:30:48Z</time>
      </trkpt>
      <trkpt lat="44.80428" lon="4.19524">
        <ele>1223</ele>
        <time>2022-03-24T07:30:50Z</time>
      </trkpt>
      <trkpt lat="44.8043" lon="4.1952">
        <ele>1223</ele>
        <time>2022-03-24T07:30:53Z</time>
      </trkpt>
      <trkpt lat="44.80432" lon="4.19516">
        <ele>1223</ele>
        <time>2022-03-24T07:30:55Z</time>
      </trkpt>
      <trkpt lat="44.80435" lon="4.19512">
        <ele>1223</ele>
        <time>2022-03-24T07:30:57Z</time>
      </trkpt>
      <trkpt lat="44.80437" lon="4.19508">
        <ele>1222</ele>
        <time>2022-03-24T07:30:59Z</time>
      </trkpt>
      <trkpt lat="44.8044" lon="4.19505">
        <ele>1222</ele>
        <time>2022-03-24T07:31:01Z</time>
      </trkpt>
      <trkpt lat="44.80442" lon="4.19502">
        <ele>1222</ele>
        <time>2022-03-24T07:31:03Z</time>
      </trkpt>
      <trkpt lat="44.80445" lon="4.19499">
        <ele>1222</ele>
        <time>2022-03-24T07:31:05Z</time>
      </trkpt>
      <trkpt lat="44.80448" lon="4.19496">
        <ele>1222</ele>
        <time>2022-03-24T07:31:07Z</time>
      </trkpt>
      <trkpt lat="44.8045" lon="4.19493">
        <ele>1222</ele>
        <time>2022-03-24T07:31:09Z</time>
      </trkpt>
      <trkpt lat="44.80453" lon="4.19491">
        <ele>1222</ele>
        <time>2022-03-24T07:31:11Z</time>
      </trkpt>
      <trkpt lat="44.80456" lon="4.19488">
        <ele>1222</ele>
        <time>2022-03-24T07:31:13Z</time>
      </trkpt>
      <trkpt lat="44.80458" lon="4.19486">
        <ele>1221</ele>
        <time>2022-03-24T07:31:15Z</time>
      </trkpt>
      <trkpt lat="44.80461" lon="4.19484">
        <ele>1221</ele>
        <time>2022-03-24T07:31:17Z</time>
      </trkpt>
      <trkpt lat="44.80464" lon="4.19483">
        <ele>1221</ele>
        <time>2022-03-24T07:31:19Z</time>
      </trkpt>
      <trkpt lat="44.80467" lon="4.19482">
        <ele>1221</ele>
        <time>2022-03-24T07:31:21Z</time>
      </trkpt>
      <trkpt lat="44.80471" lon="4.19481">
        <ele>1221</ele>
        <time>2022-03-24T07:31:23Z</time>
      </trkpt>
      <trkpt lat="44.80474" lon="4.1948">
        <ele>1221</ele>
        <time>2022-03-24T07:31:25Z</time>
      </trkpt>
      <trkpt lat="44.80477" lon="4.1948">
        <ele>1221</ele>
        <time>2022-03-24T07:31:27Z</time>
      </trkpt>
      <trkpt lat="44.80481" lon="4.19479">
        <ele>1221</ele>
        <time>2022-03-24T07:31:29Z</time>
      </trkpt>
      <trkpt lat="44.80484" lon="4.19478">
        <ele>1220</ele>
        <time>2022-03-24T07:31:31Z</time>
      </trkpt>
      <trkpt lat="44.80487" lon="4.19477">
        <ele>1220</ele>
        <time>2022-03-24T07:31:33Z</time>
      </trkpt>
      <trkpt lat="44.80491" lon="4.19477">
        <ele>1220</ele>
        <time>2022-03-24T07:31:36Z</time>
      </trkpt>
      <trkpt lat="44.80495" lon="4.19476">
        <ele>1220</ele>
        <time>2022-03-24T07:31:38Z</time>
      </trkpt>
      <trkpt lat="44.80499" lon="4.19475">
        <ele>1220</ele>
        <time>2022-03-24T07:31:40Z</time>
      </trkpt>
      <trkpt lat="44.80502" lon="4.19474">
        <ele>1220</ele>
        <time>2022-03-24T07:31:42Z</time>
      </trkpt>
      <trkpt lat="44.80506" lon="4.19473">
        <ele>1220</ele>
        <time>2022-03-24T07:31:44Z</time>
      </trkpt>
      <trkpt lat="44.80509" lon="4.19473">
        <ele>1220</ele>
        <time>2022-03-24T07:31:46Z</time>
      </trkpt>
      <trkpt lat="44.80513" lon="4.19472">
        <ele>1220</ele>
        <time>2022-03-24T07:31:48Z</time>
      </trkpt>
      <trkpt lat="44.80516" lon="4.19472">
        <ele>1220</ele>
        <time>2022-03-24T07:31:50Z</time>
      </trkpt>
      <trkpt lat="44.8052" lon="4.19472">
        <ele>1220</ele>
        <time>2022-03-24T07:31:52Z</time>
      </trkpt>
      <trkpt lat="44.80524" lon="4.19472">
        <ele>1219</ele>
        <time>2022-03-24T07:31:54Z</time>
      </trkpt>
      <trkpt lat="44.80527" lon="4.19472">
        <ele>1219</ele>
        <time>2022-03-24T07:31:56Z</time>
      </trkpt>
      <trkpt lat="44.8053" lon="4.19471">
        <ele>1219</ele>
        <time>2022-03-24T07:31:58Z</time>
      </trkpt>
      <trkpt lat="44.80534" lon="4.19471">
        <ele>1219</ele>
        <time>2022-03-24T07:32:00Z</time>
      </trkpt>
      <trkpt lat="44.80537" lon="4.19471">
        <ele>1219</ele>
        <time>2022-03-24T07:32:02Z</time>
      </trkpt>
      <trkpt lat="44.8054" lon="4.19471">
        <ele>1219</ele>
        <time>2022-03-24T07:32:04Z</time>
      </trkpt>
      <trkpt lat="44.80543" lon="4.19471">
        <ele>1219</ele>
        <time>2022-03-24T07:32:06Z</time>
      </trkpt>
      <trkpt lat="44.80546" lon="4.19471">
        <ele>1219</ele>
        <time>2022-03-24T07:32:08Z</time>
      </trkpt>
      <trkpt lat="44.80549" lon="4.19471">
        <ele>1219</ele>
        <time>2022-03-24T07:32:10Z</time>
      </trkpt>
      <trkpt lat="44.80553" lon="4.19471">
        <ele>1219</ele>
        <time>2022-03-24T07:32:13Z</time>
      </trkpt>
      <trkpt lat="44.80556" lon="4.19471">
        <ele>1219</ele>
        <time>2022-03-24T07:32:15Z</time>
      </trkpt>
      <trkpt lat="44.8056" lon="4.19471">
        <ele>1219</ele>
        <time>2022-03-24T07:32:17Z</time>
      </trkpt>
      <trkpt lat="44.80563" lon="4.19471">
        <ele>1219</ele>
        <time>2022-03-24T07:32:19Z</time>
      </trkpt>
      <trkpt lat="44.80567" lon="4.19471">
        <ele>1219</ele>
        <time>2022-03-24T07:32:21Z</time>
      </trkpt>
      <trkpt lat="44.80571" lon="4.1947">
        <ele>1219</ele>
        <time>2022-03-24T07:32:23Z</time>
      </trkpt>
      <trkpt lat="44.80575" lon="4.1947">
        <ele>1219</ele>
        <time>2022-03-24T07:32:25Z</time>
      </trkpt>
      <trkpt lat="44.80579" lon="4.1947">
        <ele>1219</ele>
        <time>2022-03-24T07:32:27Z</time>
      </trkpt>
      <trkpt lat="44.80582" lon="4.19469">
        <ele>1220</ele>
        <time>2022-03-24T07:32:29Z</time>
      </trkpt>
      <trkpt lat="44.80585" lon="4.19469">
        <ele>1220</ele>
        <time>2022-03-24T07:32:31Z</time>
      </trkpt>
      <trkpt lat="44.80588" lon="4.19469">
        <ele>1220</ele>
        <time>2022-03-24T07:32:33Z</time>
      </trkpt>
      <trkpt lat="44.80591" lon="4.19469">
        <ele>1220</ele>
        <time>2022-03-24T07:32:35Z</time>
      </trkpt>
      <trkpt lat="44.80595" lon="4.1947">
        <ele>1221</ele>
        <time>2022-03-24T07:32:38Z</time>
      </trkpt>
      <trkpt lat="44.80598" lon="4.1947">
        <ele>1221</ele>
        <time>2022-03-24T07:32:40Z</time>
      </trkpt>
      <trkpt lat="44.80601" lon="4.1947">
        <ele>1221</ele>
        <time>2022-03-24T07:32:42Z</time>
      </trkpt>
      <trkpt lat="44.80604" lon="4.1947">
        <ele>1222</ele>
        <time>2022-03-24T07:32:45Z</time>
      </trkpt>
      <trkpt lat="44.80608" lon="4.1947">
        <ele>1222</ele>
        <time>2022-03-24T07:32:47Z</time>
      </trkpt>
      <trkpt lat="44.80611" lon="4.19471">
        <ele>1223</ele>
        <time>2022-03-24T07:32:50Z</time>
      </trkpt>
      <trkpt lat="44.80615" lon="4.19472">
        <ele>1223</ele>
        <time>2022-03-24T07:32:52Z</time>
      </trkpt>
      <trkpt lat="44.80618" lon="4.19472">
        <ele>1224</ele>
        <time>2022-03-24T07:32:54Z</time>
      </trkpt>
      <trkpt lat="44.80621" lon="4.19473">
        <ele>1224</ele>
        <time>2022-03-24T07:32:56Z</time>
      </trkpt>
      <trkpt lat="44.80624" lon="4.19473">
        <ele>1224</ele>
        <time>2022-03-24T07:32:58Z</time>
      </trkpt>
      <trkpt lat="44.80627" lon="4.19474">
        <ele>1225</ele>
        <time>2022-03-24T07:33:00Z</time>
      </trkpt>
      <trkpt lat="44.8063" lon="4.19474">
        <ele>1225</ele>
        <time>2022-03-24T07:33:02Z</time>
      </trkpt>
      <trkpt lat="44.80633" lon="4.19474">
        <ele>1226</ele>
        <time>2022-03-24T07:33:04Z</time>
      </trkpt>
      <trkpt lat="44.80637" lon="4.19475">
        <ele>1226</ele>
        <time>2022-03-24T07:33:06Z</time>
      </trkpt>
      <trkpt lat="44.80641" lon="4.19476">
        <ele>1226</ele>
        <time>2022-03-24T07:33:08Z</time>
      </trkpt>
      <trkpt lat="44.80645" lon="4.19475">
        <ele>1227</ele>
        <time>2022-03-24T07:33:10Z</time>
      </trkpt>
      <trkpt lat="44.80648" lon="4.19476">
        <ele>1227</ele>
        <time>2022-03-24T07:33:13Z</time>
      </trkpt>
      <trkpt lat="44.80652" lon="4.19475">
        <ele>1228</ele>
        <time>2022-03-24T07:33:16Z</time>
      </trkpt>
      <trkpt lat="44.80655" lon="4.19475">
        <ele>1228</ele>
        <time>2022-03-24T07:33:18Z</time>
      </trkpt>
      <trkpt lat="44.80659" lon="4.19474">
        <ele>1229</ele>
        <time>2022-03-24T07:33:21Z</time>
      </trkpt>
      <trkpt lat="44.80662" lon="4.19473">
        <ele>1230</ele>
        <time>2022-03-24T07:33:24Z</time>
      </trkpt>
      <trkpt lat="44.80666" lon="4.19472">
        <ele>1230</ele>
        <time>2022-03-24T07:33:27Z</time>
      </trkpt>
      <trkpt lat="44.80669" lon="4.19472">
        <ele>1231</ele>
        <time>2022-03-24T07:33:30Z</time>
      </trkpt>
      <trkpt lat="44.80673" lon="4.19471">
        <ele>1231</ele>
        <time>2022-03-24T07:33:32Z</time>
      </trkpt>
      <trkpt lat="44.80676" lon="4.19471">
        <ele>1232</ele>
        <time>2022-03-24T07:33:34Z</time>
      </trkpt>
      <trkpt lat="44.80679" lon="4.1947">
        <ele>1232</ele>
        <time>2022-03-24T07:33:36Z</time>
      </trkpt>
      <trkpt lat="44.80682" lon="4.19469">
        <ele>1232</ele>
        <time>2022-03-24T07:33:38Z</time>
      </trkpt>
      <trkpt lat="44.80685" lon="4.19468">
        <ele>1233</ele>
        <time>2022-03-24T07:33:41Z</time>
      </trkpt>
      <trkpt lat="44.80689" lon="4.19467">
        <ele>1233</ele>
        <time>2022-03-24T07:33:44Z</time>
      </trkpt>
      <trkpt lat="44.80693" lon="4.19466">
        <ele>1233</ele>
        <time>2022-03-24T07:33:46Z</time>
      </trkpt>
      <trkpt lat="44.80696" lon="4.19465">
        <ele>1234</ele>
        <time>2022-03-24T07:33:48Z</time>
      </trkpt>
      <trkpt lat="44.80699" lon="4.19465">
        <ele>1234</ele>
        <time>2022-03-24T07:33:50Z</time>
      </trkpt>
      <trkpt lat="44.80703" lon="4.19464">
        <ele>1234</ele>
        <time>2022-03-24T07:33:53Z</time>
      </trkpt>
      <trkpt lat="44.80706" lon="4.19463">
        <ele>1235</ele>
        <time>2022-03-24T07:33:56Z</time>
      </trkpt>
      <trkpt lat="44.8071" lon="4.19462">
        <ele>1235</ele>
        <time>2022-03-24T07:33:58Z</time>
      </trkpt>
      <trkpt lat="44.80714" lon="4.19461">
        <ele>1235</ele>
        <time>2022-03-24T07:34:00Z</time>
      </trkpt>
      <trkpt lat="44.80717" lon="4.1946">
        <ele>1235</ele>
        <time>2022-03-24T07:34:02Z</time>
      </trkpt>
      <trkpt lat="44.80719" lon="4.19459">
        <ele>1236</ele>
        <time>2022-03-24T07:34:04Z</time>
      </trkpt>
      <trkpt lat="44.80723" lon="4.19458">
        <ele>1236</ele>
        <time>2022-03-24T07:34:06Z</time>
      </trkpt>
      <trkpt lat="44.80726" lon="4.19457">
        <ele>1236</ele>
        <time>2022-03-24T07:34:08Z</time>
      </trkpt>
      <trkpt lat="44.8073" lon="4.19456">
        <ele>1236</ele>
        <time>2022-03-24T07:34:10Z</time>
      </trkpt>
      <trkpt lat="44.80733" lon="4.19455">
        <ele>1236</ele>
        <time>2022-03-24T07:34:12Z</time>
      </trkpt>
      <trkpt lat="44.80736" lon="4.19455">
        <ele>1236</ele>
        <time>2022-03-24T07:34:14Z</time>
      </trkpt>
      <trkpt lat="44.8074" lon="4.19454">
        <ele>1237</ele>
        <time>2022-03-24T07:34:16Z</time>
      </trkpt>
      <trkpt lat="44.80743" lon="4.19453">
        <ele>1237</ele>
        <time>2022-03-24T07:34:18Z</time>
      </trkpt>
      <trkpt lat="44.80746" lon="4.19452">
        <ele>1237</ele>
        <time>2022-03-24T07:34:20Z</time>
      </trkpt>
      <trkpt lat="44.8075" lon="4.19451">
        <ele>1236</ele>
        <time>2022-03-24T07:34:22Z</time>
      </trkpt>
      <trkpt lat="44.80753" lon="4.19451">
        <ele>1237</ele>
        <time>2022-03-24T07:34:24Z</time>
      </trkpt>
      <trkpt lat="44.80756" lon="4.1945">
        <ele>1237</ele>
        <time>2022-03-24T07:34:26Z</time>
      </trkpt>
      <trkpt lat="44.80759" lon="4.19449">
        <ele>1237</ele>
        <time>2022-03-24T07:34:28Z</time>
      </trkpt>
      <trkpt lat="44.80762" lon="4.19449">
        <ele>1237</ele>
        <time>2022-03-24T07:34:30Z</time>
      </trkpt>
      <trkpt lat="44.80766" lon="4.1945">
        <ele>1237</ele>
        <time>2022-03-24T07:34:33Z</time>
      </trkpt>
      <trkpt lat="44.80769" lon="4.1945">
        <ele>1237</ele>
        <time>2022-03-24T07:34:35Z</time>
      </trkpt>
      <trkpt lat="44.80772" lon="4.19451">
        <ele>1238</ele>
        <time>2022-03-24T07:34:37Z</time>
      </trkpt>
      <trkpt lat="44.80775" lon="4.19453">
        <ele>1238</ele>
        <time>2022-03-24T07:34:39Z</time>
      </trkpt>
      <trkpt lat="44.80778" lon="4.19455">
        <ele>1238</ele>
        <time>2022-03-24T07:34:41Z</time>
      </trkpt>
      <trkpt lat="44.8078" lon="4.19457">
        <ele>1239</ele>
        <time>2022-03-24T07:34:43Z</time>
      </trkpt>
      <trkpt lat="44.80782" lon="4.1946">
        <ele>1239</ele>
        <time>2022-03-24T07:34:45Z</time>
      </trkpt>
      <trkpt lat="44.80785" lon="4.19462">
        <ele>1239</ele>
        <time>2022-03-24T07:34:47Z</time>
      </trkpt>
      <trkpt lat="44.80787" lon="4.19465">
        <ele>1240</ele>
        <time>2022-03-24T07:34:49Z</time>
      </trkpt>
      <trkpt lat="44.80789" lon="4.19468">
        <ele>1240</ele>
        <time>2022-03-24T07:34:51Z</time>
      </trkpt>
      <trkpt lat="44.80791" lon="4.19473">
        <ele>1241</ele>
        <time>2022-03-24T07:34:54Z</time>
      </trkpt>
      <trkpt lat="44.80792" lon="4.19476">
        <ele>1241</ele>
        <time>2022-03-24T07:34:56Z</time>
      </trkpt>
      <trkpt lat="44.80793" lon="4.19481">
        <ele>1242</ele>
        <time>2022-03-24T07:34:59Z</time>
      </trkpt>
      <trkpt lat="44.80794" lon="4.19486">
        <ele>1242</ele>
        <time>2022-03-24T07:35:01Z</time>
      </trkpt>
      <trkpt lat="44.80794" lon="4.1949">
        <ele>1242</ele>
        <time>2022-03-24T07:35:07Z</time>
      </trkpt>
      <trkpt lat="44.80794" lon="4.19494">
        <ele>1242</ele>
        <time>2022-03-24T07:35:11Z</time>
      </trkpt>
      <trkpt lat="44.80794" lon="4.19497">
        <ele>1243</ele>
        <time>2022-03-24T07:35:16Z</time>
      </trkpt>
      <trkpt lat="44.80793" lon="4.19502">
        <ele>1243</ele>
        <time>2022-03-24T07:35:21Z</time>
      </trkpt>
      <trkpt lat="44.80793" lon="4.19506">
        <ele>1243</ele>
        <time>2022-03-24T07:35:25Z</time>
      </trkpt>
      <trkpt lat="44.80792" lon="4.1951">
        <ele>1243</ele>
        <time>2022-03-24T07:35:29Z</time>
      </trkpt>
      <trkpt lat="44.8079" lon="4.19515">
        <ele>1244</ele>
        <time>2022-03-24T07:35:32Z</time>
      </trkpt>
      <trkpt lat="44.80788" lon="4.19519">
        <ele>1244</ele>
        <time>2022-03-24T07:35:34Z</time>
      </trkpt>
      <trkpt lat="44.80786" lon="4.19524">
        <ele>1244</ele>
        <time>2022-03-24T07:35:36Z</time>
      </trkpt>
      <trkpt lat="44.80784" lon="4.19528">
        <ele>1244</ele>
        <time>2022-03-24T07:35:38Z</time>
      </trkpt>
      <trkpt lat="44.80783" lon="4.19532">
        <ele>1245</ele>
        <time>2022-03-24T07:35:40Z</time>
      </trkpt>
      <trkpt lat="44.80781" lon="4.19536">
        <ele>1245</ele>
        <time>2022-03-24T07:35:42Z</time>
      </trkpt>
      <trkpt lat="44.8078" lon="4.1954">
        <ele>1245</ele>
        <time>2022-03-24T07:35:44Z</time>
      </trkpt>
      <trkpt lat="44.80778" lon="4.19543">
        <ele>1246</ele>
        <time>2022-03-24T07:35:46Z</time>
      </trkpt>
      <trkpt lat="44.80777" lon="4.19548">
        <ele>1246</ele>
        <time>2022-03-24T07:35:48Z</time>
      </trkpt>
      <trkpt lat="44.80776" lon="4.19551">
        <ele>1246</ele>
        <time>2022-03-24T07:35:50Z</time>
      </trkpt>
      <trkpt lat="44.80774" lon="4.19555">
        <ele>1247</ele>
        <time>2022-03-24T07:35:52Z</time>
      </trkpt>
      <trkpt lat="44.80773" lon="4.19558">
        <ele>1247</ele>
        <time>2022-03-24T07:35:54Z</time>
      </trkpt>
      <trkpt lat="44.80771" lon="4.19562">
        <ele>1247</ele>
        <time>2022-03-24T07:35:56Z</time>
      </trkpt>
      <trkpt lat="44.8077" lon="4.19565">
        <ele>1247</ele>
        <time>2022-03-24T07:35:58Z</time>
      </trkpt>
      <trkpt lat="44.80769" lon="4.19569">
        <ele>1248</ele>
        <time>2022-03-24T07:36:00Z</time>
      </trkpt>
      <trkpt lat="44.80767" lon="4.19572">
        <ele>1248</ele>
        <time>2022-03-24T07:36:02Z</time>
      </trkpt>
      <trkpt lat="44.80765" lon="4.19575">
        <ele>1248</ele>
        <time>2022-03-24T07:36:04Z</time>
      </trkpt>
      <trkpt lat="44.80763" lon="4.19579">
        <ele>1248</ele>
        <time>2022-03-24T07:36:06Z</time>
      </trkpt>
      <trkpt lat="44.80762" lon="4.19582">
        <ele>1249</ele>
        <time>2022-03-24T07:36:08Z</time>
      </trkpt>
      <trkpt lat="44.80759" lon="4.19585">
        <ele>1249</ele>
        <time>2022-03-24T07:36:10Z</time>
      </trkpt>
      <trkpt lat="44.80757" lon="4.19589">
        <ele>1249</ele>
        <time>2022-03-24T07:36:12Z</time>
      </trkpt>
      <trkpt lat="44.80755" lon="4.19592">
        <ele>1249</ele>
        <time>2022-03-24T07:36:14Z</time>
      </trkpt>
      <trkpt lat="44.80753" lon="4.19595">
        <ele>1250</ele>
        <time>2022-03-24T07:36:16Z</time>
      </trkpt>
      <trkpt lat="44.80751" lon="4.19598">
        <ele>1250</ele>
        <time>2022-03-24T07:36:18Z</time>
      </trkpt>
      <trkpt lat="44.80748" lon="4.19601">
        <ele>1250</ele>
        <time>2022-03-24T07:36:20Z</time>
      </trkpt>
      <trkpt lat="44.80746" lon="4.19605">
        <ele>1251</ele>
        <time>2022-03-24T07:36:22Z</time>
      </trkpt>
      <trkpt lat="44.80744" lon="4.19608">
        <ele>1251</ele>
        <time>2022-03-24T07:36:24Z</time>
      </trkpt>
      <trkpt lat="44.80742" lon="4.19612">
        <ele>1251</ele>
        <time>2022-03-24T07:36:26Z</time>
      </trkpt>
      <trkpt lat="44.80741" lon="4.19616">
        <ele>1251</ele>
        <time>2022-03-24T07:36:28Z</time>
      </trkpt>
      <trkpt lat="44.80739" lon="4.19619">
        <ele>1251</ele>
        <time>2022-03-24T07:36:30Z</time>
      </trkpt>
      <trkpt lat="44.80738" lon="4.19623">
        <ele>1252</ele>
        <time>2022-03-24T07:36:32Z</time>
      </trkpt>
      <trkpt lat="44.80736" lon="4.19627">
        <ele>1252</ele>
        <time>2022-03-24T07:36:34Z</time>
      </trkpt>
      <trkpt lat="44.80735" lon="4.19631">
        <ele>1252</ele>
        <time>2022-03-24T07:36:36Z</time>
      </trkpt>
      <trkpt lat="44.80734" lon="4.19635">
        <ele>1252</ele>
        <time>2022-03-24T07:36:38Z</time>
      </trkpt>
      <trkpt lat="44.80733" lon="4.19639">
        <ele>1253</ele>
        <time>2022-03-24T07:36:40Z</time>
      </trkpt>
      <trkpt lat="44.80732" lon="4.19643">
        <ele>1253</ele>
        <time>2022-03-24T07:36:42Z</time>
      </trkpt>
      <trkpt lat="44.80731" lon="4.19647">
        <ele>1253</ele>
        <time>2022-03-24T07:36:44Z</time>
      </trkpt>
      <trkpt lat="44.8073" lon="4.19651">
        <ele>1253</ele>
        <time>2022-03-24T07:36:46Z</time>
      </trkpt>
      <trkpt lat="44.80729" lon="4.19655">
        <ele>1254</ele>
        <time>2022-03-24T07:36:48Z</time>
      </trkpt>
      <trkpt lat="44.80728" lon="4.19659">
        <ele>1254</ele>
        <time>2022-03-24T07:36:50Z</time>
      </trkpt>
      <trkpt lat="44.80727" lon="4.19663">
        <ele>1255</ele>
        <time>2022-03-24T07:36:52Z</time>
      </trkpt>
      <trkpt lat="44.80727" lon="4.19667">
        <ele>1255</ele>
        <time>2022-03-24T07:36:54Z</time>
      </trkpt>
      <trkpt lat="44.80727" lon="4.19671">
        <ele>1255</ele>
        <time>2022-03-24T07:36:56Z</time>
      </trkpt>
      <trkpt lat="44.80728" lon="4.19675">
        <ele>1255</ele>
        <time>2022-03-24T07:36:58Z</time>
      </trkpt>
      <trkpt lat="44.80729" lon="4.19679">
        <ele>1256</ele>
        <time>2022-03-24T07:37:00Z</time>
      </trkpt>
      <trkpt lat="44.80731" lon="4.19682">
        <ele>1256</ele>
        <time>2022-03-24T07:37:02Z</time>
      </trkpt>
      <trkpt lat="44.80733" lon="4.19685">
        <ele>1256</ele>
        <time>2022-03-24T07:37:04Z</time>
      </trkpt>
      <trkpt lat="44.80736" lon="4.19688">
        <ele>1256</ele>
        <time>2022-03-24T07:37:06Z</time>
      </trkpt>
      <trkpt lat="44.80738" lon="4.1969">
        <ele>1256</ele>
        <time>2022-03-24T07:37:08Z</time>
      </trkpt>
      <trkpt lat="44.8074" lon="4.19694">
        <ele>1256</ele>
        <time>2022-03-24T07:37:10Z</time>
      </trkpt>
      <trkpt lat="44.80742" lon="4.19697">
        <ele>1256</ele>
        <time>2022-03-24T07:37:12Z</time>
      </trkpt>
      <trkpt lat="44.80744" lon="4.197">
        <ele>1256</ele>
        <time>2022-03-24T07:37:14Z</time>
      </trkpt>
      <trkpt lat="44.80746" lon="4.19704">
        <ele>1256</ele>
        <time>2022-03-24T07:37:16Z</time>
      </trkpt>
      <trkpt lat="44.80747" lon="4.19708">
        <ele>1256</ele>
        <time>2022-03-24T07:37:18Z</time>
      </trkpt>
      <trkpt lat="44.80749" lon="4.19713">
        <ele>1256</ele>
        <time>2022-03-24T07:37:20Z</time>
      </trkpt>
      <trkpt lat="44.8075" lon="4.19717">
        <ele>1256</ele>
        <time>2022-03-24T07:37:22Z</time>
      </trkpt>
      <trkpt lat="44.8075" lon="4.19721">
        <ele>1256</ele>
        <time>2022-03-24T07:37:24Z</time>
      </trkpt>
      <trkpt lat="44.80751" lon="4.19726">
        <ele>1256</ele>
        <time>2022-03-24T07:37:26Z</time>
      </trkpt>
      <trkpt lat="44.80751" lon="4.19731">
        <ele>1257</ele>
        <time>2022-03-24T07:37:28Z</time>
      </trkpt>
      <trkpt lat="44.80751" lon="4.19735">
        <ele>1257</ele>
        <time>2022-03-24T07:37:30Z</time>
      </trkpt>
      <trkpt lat="44.80751" lon="4.1974">
        <ele>1257</ele>
        <time>2022-03-24T07:37:32Z</time>
      </trkpt>
      <trkpt lat="44.80751" lon="4.19744">
        <ele>1257</ele>
        <time>2022-03-24T07:37:34Z</time>
      </trkpt>
      <trkpt lat="44.80751" lon="4.19748">
        <ele>1257</ele>
        <time>2022-03-24T07:37:36Z</time>
      </trkpt>
      <trkpt lat="44.80751" lon="4.19753">
        <ele>1257</ele>
        <time>2022-03-24T07:37:38Z</time>
      </trkpt>
      <trkpt lat="44.80751" lon="4.19758">
        <ele>1257</ele>
        <time>2022-03-24T07:37:40Z</time>
      </trkpt>
      <trkpt lat="44.80751" lon="4.19763">
        <ele>1257</ele>
        <time>2022-03-24T07:37:42Z</time>
      </trkpt>
      <trkpt lat="44.80751" lon="4.19768">
        <ele>1257</ele>
        <time>2022-03-24T07:37:44Z</time>
      </trkpt>
      <trkpt lat="44.80751" lon="4.19773">
        <ele>1257</ele>
        <time>2022-03-24T07:37:46Z</time>
      </trkpt>
      <trkpt lat="44.80751" lon="4.19778">
        <ele>1257</ele>
        <time>2022-03-24T07:37:48Z</time>
      </trkpt>
      <trkpt lat="44.80751" lon="4.19782">
        <ele>1257</ele>
        <time>2022-03-24T07:37:50Z</time>
      </trkpt>
      <trkpt lat="44.80751" lon="4.19786">
        <ele>1257</ele>
        <time>2022-03-24T07:37:52Z</time>
      </trkpt>
      <trkpt lat="44.80751" lon="4.19792">
        <ele>1257</ele>
        <time>2022-03-24T07:37:55Z</time>
      </trkpt>
      <trkpt lat="44.80752" lon="4.19796">
        <ele>1257</ele>
        <time>2022-03-24T07:37:57Z</time>
      </trkpt>
      <trkpt lat="44.80753" lon="4.19801">
        <ele>1257</ele>
        <time>2022-03-24T07:37:59Z</time>
      </trkpt>
      <trkpt lat="44.80754" lon="4.19805">
        <ele>1257</ele>
        <time>2022-03-24T07:38:01Z</time>
      </trkpt>
      <trkpt lat="44.80756" lon="4.19809">
        <ele>1257</ele>
        <time>2022-03-24T07:38:03Z</time>
      </trkpt>
      <trkpt lat="44.80758" lon="4.19813">
        <ele>1256</ele>
        <time>2022-03-24T07:38:05Z</time>
      </trkpt>
      <trkpt lat="44.80759" lon="4.19816">
        <ele>1256</ele>
        <time>2022-03-24T07:38:07Z</time>
      </trkpt>
      <trkpt lat="44.80761" lon="4.19819">
        <ele>1256</ele>
        <time>2022-03-24T07:38:09Z</time>
      </trkpt>
      <trkpt lat="44.80764" lon="4.19823">
        <ele>1256</ele>
        <time>2022-03-24T07:38:12Z</time>
      </trkpt>
      <trkpt lat="44.80766" lon="4.19826">
        <ele>1255</ele>
        <time>2022-03-24T07:38:14Z</time>
      </trkpt>
      <trkpt lat="44.80768" lon="4.19829">
        <ele>1255</ele>
        <time>2022-03-24T07:38:16Z</time>
      </trkpt>
      <trkpt lat="44.8077" lon="4.19832">
        <ele>1255</ele>
        <time>2022-03-24T07:38:18Z</time>
      </trkpt>
      <trkpt lat="44.80773" lon="4.19834">
        <ele>1255</ele>
        <time>2022-03-24T07:38:20Z</time>
      </trkpt>
      <trkpt lat="44.80776" lon="4.19837">
        <ele>1254</ele>
        <time>2022-03-24T07:38:22Z</time>
      </trkpt>
      <trkpt lat="44.80779" lon="4.1984">
        <ele>1254</ele>
        <time>2022-03-24T07:38:24Z</time>
      </trkpt>
      <trkpt lat="44.80781" lon="4.19843">
        <ele>1254</ele>
        <time>2022-03-24T07:38:26Z</time>
      </trkpt>
      <trkpt lat="44.80784" lon="4.19846">
        <ele>1254</ele>
        <time>2022-03-24T07:38:28Z</time>
      </trkpt>
      <trkpt lat="44.80786" lon="4.19849">
        <ele>1254</ele>
        <time>2022-03-24T07:38:30Z</time>
      </trkpt>
      <trkpt lat="44.80788" lon="4.19851">
        <ele>1254</ele>
        <time>2022-03-24T07:38:32Z</time>
      </trkpt>
      <trkpt lat="44.80791" lon="4.19854">
        <ele>1253</ele>
        <time>2022-03-24T07:38:34Z</time>
      </trkpt>
      <trkpt lat="44.80794" lon="4.19857">
        <ele>1253</ele>
        <time>2022-03-24T07:38:36Z</time>
      </trkpt>
      <trkpt lat="44.80797" lon="4.1986">
        <ele>1253</ele>
        <time>2022-03-24T07:38:38Z</time>
      </trkpt>
      <trkpt lat="44.80799" lon="4.19863">
        <ele>1253</ele>
        <time>2022-03-24T07:38:40Z</time>
      </trkpt>
      <trkpt lat="44.80801" lon="4.19865">
        <ele>1253</ele>
        <time>2022-03-24T07:38:42Z</time>
      </trkpt>
      <trkpt lat="44.80804" lon="4.19869">
        <ele>1252</ele>
        <time>2022-03-24T07:38:44Z</time>
      </trkpt>
      <trkpt lat="44.80806" lon="4.19872">
        <ele>1252</ele>
        <time>2022-03-24T07:38:46Z</time>
      </trkpt>
      <trkpt lat="44.80809" lon="4.19876">
        <ele>1252</ele>
        <time>2022-03-24T07:38:48Z</time>
      </trkpt>
      <trkpt lat="44.80811" lon="4.19881">
        <ele>1251</ele>
        <time>2022-03-24T07:38:50Z</time>
      </trkpt>
      <trkpt lat="44.80813" lon="4.19884">
        <ele>1251</ele>
        <time>2022-03-24T07:38:52Z</time>
      </trkpt>
      <trkpt lat="44.80816" lon="4.19889">
        <ele>1251</ele>
        <time>2022-03-24T07:38:54Z</time>
      </trkpt>
      <trkpt lat="44.80817" lon="4.19893">
        <ele>1251</ele>
        <time>2022-03-24T07:38:56Z</time>
      </trkpt>
      <trkpt lat="44.80819" lon="4.19897">
        <ele>1250</ele>
        <time>2022-03-24T07:38:58Z</time>
      </trkpt>
      <trkpt lat="44.80821" lon="4.19901">
        <ele>1250</ele>
        <time>2022-03-24T07:39:00Z</time>
      </trkpt>
      <trkpt lat="44.80822" lon="4.19905">
        <ele>1251</ele>
        <time>2022-03-24T07:39:02Z</time>
      </trkpt>
      <trkpt lat="44.80824" lon="4.19909">
        <ele>1251</ele>
        <time>2022-03-24T07:39:04Z</time>
      </trkpt>
      <trkpt lat="44.80825" lon="4.19914">
        <ele>1250</ele>
        <time>2022-03-24T07:39:06Z</time>
      </trkpt>
      <trkpt lat="44.80827" lon="4.19918">
        <ele>1250</ele>
        <time>2022-03-24T07:39:08Z</time>
      </trkpt>
      <trkpt lat="44.80829" lon="4.19922">
        <ele>1250</ele>
        <time>2022-03-24T07:39:10Z</time>
      </trkpt>
      <trkpt lat="44.80831" lon="4.19926">
        <ele>1251</ele>
        <time>2022-03-24T07:39:12Z</time>
      </trkpt>
      <trkpt lat="44.80833" lon="4.1993">
        <ele>1251</ele>
        <time>2022-03-24T07:39:14Z</time>
      </trkpt>
      <trkpt lat="44.80835" lon="4.19934">
        <ele>1251</ele>
        <time>2022-03-24T07:39:16Z</time>
      </trkpt>
      <trkpt lat="44.80837" lon="4.19937">
        <ele>1250</ele>
        <time>2022-03-24T07:39:18Z</time>
      </trkpt>
      <trkpt lat="44.80838" lon="4.19941">
        <ele>1250</ele>
        <time>2022-03-24T07:39:20Z</time>
      </trkpt>
      <trkpt lat="44.8084" lon="4.19946">
        <ele>1250</ele>
        <time>2022-03-24T07:39:23Z</time>
      </trkpt>
      <trkpt lat="44.80842" lon="4.1995">
        <ele>1250</ele>
        <time>2022-03-24T07:39:25Z</time>
      </trkpt>
      <trkpt lat="44.80843" lon="4.19954">
        <ele>1250</ele>
        <time>2022-03-24T07:39:27Z</time>
      </trkpt>
      <trkpt lat="44.80845" lon="4.19959">
        <ele>1250</ele>
        <time>2022-03-24T07:39:29Z</time>
      </trkpt>
      <trkpt lat="44.80847" lon="4.19963">
        <ele>1250</ele>
        <time>2022-03-24T07:39:31Z</time>
      </trkpt>
      <trkpt lat="44.80849" lon="4.19967">
        <ele>1250</ele>
        <time>2022-03-24T07:39:33Z</time>
      </trkpt>
      <trkpt lat="44.8085" lon="4.19971">
        <ele>1251</ele>
        <time>2022-03-24T07:39:35Z</time>
      </trkpt>
      <trkpt lat="44.80852" lon="4.19975">
        <ele>1251</ele>
        <time>2022-03-24T07:39:37Z</time>
      </trkpt>
      <trkpt lat="44.80853" lon="4.19979">
        <ele>1251</ele>
        <time>2022-03-24T07:39:39Z</time>
      </trkpt>
      <trkpt lat="44.80854" lon="4.19982">
        <ele>1251</ele>
        <time>2022-03-24T07:39:41Z</time>
      </trkpt>
      <trkpt lat="44.80855" lon="4.19987">
        <ele>1251</ele>
        <time>2022-03-24T07:39:43Z</time>
      </trkpt>
      <trkpt lat="44.80857" lon="4.1999">
        <ele>1251</ele>
        <time>2022-03-24T07:39:45Z</time>
      </trkpt>
      <trkpt lat="44.80859" lon="4.19995">
        <ele>1251</ele>
        <time>2022-03-24T07:39:48Z</time>
      </trkpt>
      <trkpt lat="44.80861" lon="4.19999">
        <ele>1251</ele>
        <time>2022-03-24T07:39:50Z</time>
      </trkpt>
      <trkpt lat="44.80862" lon="4.20002">
        <ele>1251</ele>
        <time>2022-03-24T07:39:52Z</time>
      </trkpt>
      <trkpt lat="44.80864" lon="4.20006">
        <ele>1252</ele>
        <time>2022-03-24T07:39:54Z</time>
      </trkpt>
      <trkpt lat="44.80865" lon="4.2001">
        <ele>1252</ele>
        <time>2022-03-24T07:39:56Z</time>
      </trkpt>
      <trkpt lat="44.80866" lon="4.20014">
        <ele>1252</ele>
        <time>2022-03-24T07:39:58Z</time>
      </trkpt>
      <trkpt lat="44.80868" lon="4.20018">
        <ele>1253</ele>
        <time>2022-03-24T07:40:00Z</time>
      </trkpt>
      <trkpt lat="44.8087" lon="4.20021">
        <ele>1253</ele>
        <time>2022-03-24T07:40:02Z</time>
      </trkpt>
      <trkpt lat="44.80872" lon="4.20026">
        <ele>1253</ele>
        <time>2022-03-24T07:40:05Z</time>
      </trkpt>
      <trkpt lat="44.80873" lon="4.2003">
        <ele>1253</ele>
        <time>2022-03-24T07:40:07Z</time>
      </trkpt>
      <trkpt lat="44.80875" lon="4.20033">
        <ele>1254</ele>
        <time>2022-03-24T07:40:09Z</time>
      </trkpt>
      <trkpt lat="44.80876" lon="4.20037">
        <ele>1254</ele>
        <time>2022-03-24T07:40:11Z</time>
      </trkpt>
      <trkpt lat="44.80878" lon="4.20041">
        <ele>1254</ele>
        <time>2022-03-24T07:40:13Z</time>
      </trkpt>
      <trkpt lat="44.80879" lon="4.20046">
        <ele>1254</ele>
        <time>2022-03-24T07:40:15Z</time>
      </trkpt>
      <trkpt lat="44.80881" lon="4.2005">
        <ele>1254</ele>
        <time>2022-03-24T07:40:17Z</time>
      </trkpt>
      <trkpt lat="44.80883" lon="4.20055">
        <ele>1254</ele>
        <time>2022-03-24T07:40:19Z</time>
      </trkpt>
      <trkpt lat="44.80884" lon="4.20059">
        <ele>1254</ele>
        <time>2022-03-24T07:40:21Z</time>
      </trkpt>
      <trkpt lat="44.80885" lon="4.20063">
        <ele>1255</ele>
        <time>2022-03-24T07:40:23Z</time>
      </trkpt>
      <trkpt lat="44.80886" lon="4.20067">
        <ele>1255</ele>
        <time>2022-03-24T07:40:25Z</time>
      </trkpt>
      <trkpt lat="44.80888" lon="4.20071">
        <ele>1256</ele>
        <time>2022-03-24T07:40:27Z</time>
      </trkpt>
      <trkpt lat="44.8089" lon="4.20075">
        <ele>1256</ele>
        <time>2022-03-24T07:40:29Z</time>
      </trkpt>
      <trkpt lat="44.80892" lon="4.20079">
        <ele>1256</ele>
        <time>2022-03-24T07:40:31Z</time>
      </trkpt>
      <trkpt lat="44.80894" lon="4.20083">
        <ele>1256</ele>
        <time>2022-03-24T07:40:34Z</time>
      </trkpt>
      <trkpt lat="44.80895" lon="4.20087">
        <ele>1257</ele>
        <time>2022-03-24T07:40:36Z</time>
      </trkpt>
      <trkpt lat="44.80897" lon="4.20091">
        <ele>1257</ele>
        <time>2022-03-24T07:40:38Z</time>
      </trkpt>
      <trkpt lat="44.80899" lon="4.20095">
        <ele>1257</ele>
        <time>2022-03-24T07:40:40Z</time>
      </trkpt>
      <trkpt lat="44.809" lon="4.20099">
        <ele>1257</ele>
        <time>2022-03-24T07:40:42Z</time>
      </trkpt>
      <trkpt lat="44.80901" lon="4.20103">
        <ele>1257</ele>
        <time>2022-03-24T07:40:44Z</time>
      </trkpt>
      <trkpt lat="44.80903" lon="4.20108">
        <ele>1257</ele>
        <time>2022-03-24T07:40:46Z</time>
      </trkpt>
      <trkpt lat="44.80904" lon="4.20112">
        <ele>1258</ele>
        <time>2022-03-24T07:40:48Z</time>
      </trkpt>
      <trkpt lat="44.80906" lon="4.20116">
        <ele>1258</ele>
        <time>2022-03-24T07:40:50Z</time>
      </trkpt>
      <trkpt lat="44.80907" lon="4.20121">
        <ele>1258</ele>
        <time>2022-03-24T07:40:52Z</time>
      </trkpt>
      <trkpt lat="44.80909" lon="4.20125">
        <ele>1258</ele>
        <time>2022-03-24T07:40:54Z</time>
      </trkpt>
      <trkpt lat="44.8091" lon="4.20129">
        <ele>1258</ele>
        <time>2022-03-24T07:40:56Z</time>
      </trkpt>
      <trkpt lat="44.80911" lon="4.20133">
        <ele>1258</ele>
        <time>2022-03-24T07:40:58Z</time>
      </trkpt>
      <trkpt lat="44.80912" lon="4.20137">
        <ele>1259</ele>
        <time>2022-03-24T07:41:00Z</time>
      </trkpt>
      <trkpt lat="44.80913" lon="4.20141">
        <ele>1259</ele>
        <time>2022-03-24T07:41:02Z</time>
      </trkpt>
      <trkpt lat="44.80914" lon="4.20145">
        <ele>1259</ele>
        <time>2022-03-24T07:41:04Z</time>
      </trkpt>
      <trkpt lat="44.80916" lon="4.20149">
        <ele>1259</ele>
        <time>2022-03-24T07:41:06Z</time>
      </trkpt>
      <trkpt lat="44.80917" lon="4.20153">
        <ele>1259</ele>
        <time>2022-03-24T07:41:08Z</time>
      </trkpt>
      <trkpt lat="44.80918" lon="4.20157">
        <ele>1259</ele>
        <time>2022-03-24T07:41:10Z</time>
      </trkpt>
      <trkpt lat="44.80919" lon="4.20162">
        <ele>1260</ele>
        <time>2022-03-24T07:41:12Z</time>
      </trkpt>
      <trkpt lat="44.80921" lon="4.20167">
        <ele>1260</ele>
        <time>2022-03-24T07:41:15Z</time>
      </trkpt>
      <trkpt lat="44.80923" lon="4.20171">
        <ele>1260</ele>
        <time>2022-03-24T07:41:17Z</time>
      </trkpt>
      <trkpt lat="44.80924" lon="4.20175">
        <ele>1260</ele>
        <time>2022-03-24T07:41:19Z</time>
      </trkpt>
      <trkpt lat="44.80926" lon="4.20179">
        <ele>1261</ele>
        <time>2022-03-24T07:41:21Z</time>
      </trkpt>
      <trkpt lat="44.80927" lon="4.20182">
        <ele>1261</ele>
        <time>2022-03-24T07:41:23Z</time>
      </trkpt>
      <trkpt lat="44.80929" lon="4.20187">
        <ele>1261</ele>
        <time>2022-03-24T07:41:25Z</time>
      </trkpt>
      <trkpt lat="44.8093" lon="4.20191">
        <ele>1261</ele>
        <time>2022-03-24T07:41:27Z</time>
      </trkpt>
      <trkpt lat="44.80932" lon="4.20195">
        <ele>1261</ele>
        <time>2022-03-24T07:41:29Z</time>
      </trkpt>
      <trkpt lat="44.80933" lon="4.20199">
        <ele>1261</ele>
        <time>2022-03-24T07:41:31Z</time>
      </trkpt>
      <trkpt lat="44.80935" lon="4.20204">
        <ele>1261</ele>
        <time>2022-03-24T07:41:33Z</time>
      </trkpt>
      <trkpt lat="44.80936" lon="4.20208">
        <ele>1261</ele>
        <time>2022-03-24T07:41:35Z</time>
      </trkpt>
      <trkpt lat="44.80938" lon="4.20211">
        <ele>1262</ele>
        <time>2022-03-24T07:41:36Z</time>
      </trkpt>
      <trkpt lat="44.80939" lon="4.20216">
        <ele>1262</ele>
        <time>2022-03-24T07:41:38Z</time>
      </trkpt>
      <trkpt lat="44.80941" lon="4.2022">
        <ele>1262</ele>
        <time>2022-03-24T07:41:40Z</time>
      </trkpt>
      <trkpt lat="44.80942" lon="4.20224">
        <ele>1262</ele>
        <time>2022-03-24T07:41:42Z</time>
      </trkpt>
      <trkpt lat="44.80943" lon="4.20228">
        <ele>1263</ele>
        <time>2022-03-24T07:41:44Z</time>
      </trkpt>
      <trkpt lat="44.80944" lon="4.20232">
        <ele>1262</ele>
        <time>2022-03-24T07:41:46Z</time>
      </trkpt>
      <trkpt lat="44.80945" lon="4.20236">
        <ele>1263</ele>
        <time>2022-03-24T07:41:48Z</time>
      </trkpt>
      <trkpt lat="44.80947" lon="4.20241">
        <ele>1263</ele>
        <time>2022-03-24T07:41:50Z</time>
      </trkpt>
      <trkpt lat="44.80948" lon="4.20245">
        <ele>1263</ele>
        <time>2022-03-24T07:41:52Z</time>
      </trkpt>
      <trkpt lat="44.80949" lon="4.20249">
        <ele>1263</ele>
        <time>2022-03-24T07:41:54Z</time>
      </trkpt>
      <trkpt lat="44.8095" lon="4.20254">
        <ele>1264</ele>
        <time>2022-03-24T07:41:56Z</time>
      </trkpt>
      <trkpt lat="44.80951" lon="4.20258">
        <ele>1264</ele>
        <time>2022-03-24T07:41:58Z</time>
      </trkpt>
      <trkpt lat="44.80952" lon="4.20262">
        <ele>1264</ele>
        <time>2022-03-24T07:42:00Z</time>
      </trkpt>
      <trkpt lat="44.80952" lon="4.20267">
        <ele>1265</ele>
        <time>2022-03-24T07:42:02Z</time>
      </trkpt>
      <trkpt lat="44.80953" lon="4.20271">
        <ele>1265</ele>
        <time>2022-03-24T07:42:04Z</time>
      </trkpt>
      <trkpt lat="44.80953" lon="4.20276">
        <ele>1265</ele>
        <time>2022-03-24T07:42:06Z</time>
      </trkpt>
      <trkpt lat="44.80953" lon="4.20281">
        <ele>1265</ele>
        <time>2022-03-24T07:42:08Z</time>
      </trkpt>
      <trkpt lat="44.80953" lon="4.20286">
        <ele>1265</ele>
        <time>2022-03-24T07:42:10Z</time>
      </trkpt>
      <trkpt lat="44.80954" lon="4.2029">
        <ele>1265</ele>
        <time>2022-03-24T07:42:12Z</time>
      </trkpt>
      <trkpt lat="44.80955" lon="4.20294">
        <ele>1265</ele>
        <time>2022-03-24T07:42:14Z</time>
      </trkpt>
      <trkpt lat="44.80955" lon="4.20298">
        <ele>1265</ele>
        <time>2022-03-24T07:42:16Z</time>
      </trkpt>
      <trkpt lat="44.80956" lon="4.20302">
        <ele>1266</ele>
        <time>2022-03-24T07:42:18Z</time>
      </trkpt>
      <trkpt lat="44.80956" lon="4.20306">
        <ele>1266</ele>
        <time>2022-03-24T07:42:20Z</time>
      </trkpt>
      <trkpt lat="44.80956" lon="4.20311">
        <ele>1266</ele>
        <time>2022-03-24T07:42:23Z</time>
      </trkpt>
      <trkpt lat="44.80956" lon="4.20316">
        <ele>1266</ele>
        <time>2022-03-24T07:42:25Z</time>
      </trkpt>
      <trkpt lat="44.80956" lon="4.2032">
        <ele>1267</ele>
        <time>2022-03-24T07:42:27Z</time>
      </trkpt>
      <trkpt lat="44.80956" lon="4.20325">
        <ele>1267</ele>
        <time>2022-03-24T07:42:29Z</time>
      </trkpt>
      <trkpt lat="44.80955" lon="4.20329">
        <ele>1267</ele>
        <time>2022-03-24T07:42:31Z</time>
      </trkpt>
      <trkpt lat="44.80956" lon="4.20333">
        <ele>1267</ele>
        <time>2022-03-24T07:42:33Z</time>
      </trkpt>
      <trkpt lat="44.80957" lon="4.20338">
        <ele>1267</ele>
        <time>2022-03-24T07:42:36Z</time>
      </trkpt>
      <trkpt lat="44.80957" lon="4.20343">
        <ele>1267</ele>
        <time>2022-03-24T07:42:38Z</time>
      </trkpt>
      <trkpt lat="44.80956" lon="4.20349">
        <ele>1267</ele>
        <time>2022-03-24T07:42:41Z</time>
      </trkpt>
      <trkpt lat="44.80957" lon="4.20354">
        <ele>1267</ele>
        <time>2022-03-24T07:42:43Z</time>
      </trkpt>
      <trkpt lat="44.80956" lon="4.20358">
        <ele>1267</ele>
        <time>2022-03-24T07:42:45Z</time>
      </trkpt>
      <trkpt lat="44.80956" lon="4.20363">
        <ele>1268</ele>
        <time>2022-03-24T07:42:47Z</time>
      </trkpt>
      <trkpt lat="44.80957" lon="4.20369">
        <ele>1268</ele>
        <time>2022-03-24T07:42:50Z</time>
      </trkpt>
      <trkpt lat="44.80957" lon="4.20374">
        <ele>1268</ele>
        <time>2022-03-24T07:42:52Z</time>
      </trkpt>
      <trkpt lat="44.80957" lon="4.20379">
        <ele>1269</ele>
        <time>2022-03-24T07:42:54Z</time>
      </trkpt>
      <trkpt lat="44.80956" lon="4.20384">
        <ele>1269</ele>
        <time>2022-03-24T07:42:56Z</time>
      </trkpt>
      <trkpt lat="44.80956" lon="4.20388">
        <ele>1269</ele>
        <time>2022-03-24T07:42:58Z</time>
      </trkpt>
      <trkpt lat="44.80956" lon="4.20393">
        <ele>1270</ele>
        <time>2022-03-24T07:43:00Z</time>
      </trkpt>
      <trkpt lat="44.80956" lon="4.20398">
        <ele>1270</ele>
        <time>2022-03-24T07:43:03Z</time>
      </trkpt>
      <trkpt lat="44.80956" lon="4.20404">
        <ele>1270</ele>
        <time>2022-03-24T07:43:05Z</time>
      </trkpt>
      <trkpt lat="44.80955" lon="4.20408">
        <ele>1270</ele>
        <time>2022-03-24T07:43:07Z</time>
      </trkpt>
      <trkpt lat="44.80955" lon="4.20414">
        <ele>1270</ele>
        <time>2022-03-24T07:43:10Z</time>
      </trkpt>
      <trkpt lat="44.80956" lon="4.20419">
        <ele>1271</ele>
        <time>2022-03-24T07:43:12Z</time>
      </trkpt>
      <trkpt lat="44.80957" lon="4.20423">
        <ele>1271</ele>
        <time>2022-03-24T07:43:14Z</time>
      </trkpt>
      <trkpt lat="44.80958" lon="4.20429">
        <ele>1271</ele>
        <time>2022-03-24T07:43:16Z</time>
      </trkpt>
      <trkpt lat="44.80959" lon="4.20434">
        <ele>1271</ele>
        <time>2022-03-24T07:43:18Z</time>
      </trkpt>
      <trkpt lat="44.80959" lon="4.20439">
        <ele>1271</ele>
        <time>2022-03-24T07:43:20Z</time>
      </trkpt>
      <trkpt lat="44.8096" lon="4.20444">
        <ele>1272</ele>
        <time>2022-03-24T07:43:22Z</time>
      </trkpt>
      <trkpt lat="44.80961" lon="4.20449">
        <ele>1272</ele>
        <time>2022-03-24T07:43:24Z</time>
      </trkpt>
      <trkpt lat="44.80961" lon="4.20454">
        <ele>1272</ele>
        <time>2022-03-24T07:43:26Z</time>
      </trkpt>
      <trkpt lat="44.80962" lon="4.20458">
        <ele>1272</ele>
        <time>2022-03-24T07:43:28Z</time>
      </trkpt>
      <trkpt lat="44.80962" lon="4.20463">
        <ele>1273</ele>
        <time>2022-03-24T07:43:30Z</time>
      </trkpt>
      <trkpt lat="44.80962" lon="4.20468">
        <ele>1273</ele>
        <time>2022-03-24T07:43:32Z</time>
      </trkpt>
      <trkpt lat="44.80962" lon="4.20473">
        <ele>1273</ele>
        <time>2022-03-24T07:43:34Z</time>
      </trkpt>
      <trkpt lat="44.80962" lon="4.20477">
        <ele>1273</ele>
        <time>2022-03-24T07:43:36Z</time>
      </trkpt>
      <trkpt lat="44.80961" lon="4.20481">
        <ele>1273</ele>
        <time>2022-03-24T07:43:38Z</time>
      </trkpt>
      <trkpt lat="44.80961" lon="4.20486">
        <ele>1273</ele>
        <time>2022-03-24T07:43:40Z</time>
      </trkpt>
      <trkpt lat="44.8096" lon="4.2049">
        <ele>1274</ele>
        <time>2022-03-24T07:43:42Z</time>
      </trkpt>
      <trkpt lat="44.80959" lon="4.20494">
        <ele>1274</ele>
        <time>2022-03-24T07:43:44Z</time>
      </trkpt>
      <trkpt lat="44.80958" lon="4.20498">
        <ele>1274</ele>
        <time>2022-03-24T07:43:46Z</time>
      </trkpt>
      <trkpt lat="44.80957" lon="4.20502">
        <ele>1274</ele>
        <time>2022-03-24T07:43:48Z</time>
      </trkpt>
      <trkpt lat="44.80956" lon="4.20506">
        <ele>1274</ele>
        <time>2022-03-24T07:43:50Z</time>
      </trkpt>
      <trkpt lat="44.80954" lon="4.2051">
        <ele>1274</ele>
        <time>2022-03-24T07:43:52Z</time>
      </trkpt>
      <trkpt lat="44.80953" lon="4.20514">
        <ele>1274</ele>
        <time>2022-03-24T07:43:54Z</time>
      </trkpt>
      <trkpt lat="44.80951" lon="4.20518">
        <ele>1274</ele>
        <time>2022-03-24T07:43:56Z</time>
      </trkpt>
      <trkpt lat="44.80949" lon="4.20522">
        <ele>1275</ele>
        <time>2022-03-24T07:43:58Z</time>
      </trkpt>
      <trkpt lat="44.80947" lon="4.20526">
        <ele>1275</ele>
        <time>2022-03-24T07:44:00Z</time>
      </trkpt>
      <trkpt lat="44.80945" lon="4.2053">
        <ele>1275</ele>
        <time>2022-03-24T07:44:03Z</time>
      </trkpt>
      <trkpt lat="44.80943" lon="4.20534">
        <ele>1275</ele>
        <time>2022-03-24T07:44:05Z</time>
      </trkpt>
      <trkpt lat="44.80941" lon="4.20538">
        <ele>1275</ele>
        <time>2022-03-24T07:44:07Z</time>
      </trkpt>
      <trkpt lat="44.80939" lon="4.20543">
        <ele>1275</ele>
        <time>2022-03-24T07:44:10Z</time>
      </trkpt>
      <trkpt lat="44.80937" lon="4.20547">
        <ele>1275</ele>
        <time>2022-03-24T07:44:12Z</time>
      </trkpt>
      <trkpt lat="44.80936" lon="4.20551">
        <ele>1275</ele>
        <time>2022-03-24T07:44:15Z</time>
      </trkpt>
      <trkpt lat="44.80933" lon="4.20555">
        <ele>1276</ele>
        <time>2022-03-24T07:44:18Z</time>
      </trkpt>
      <trkpt lat="44.80931" lon="4.20559">
        <ele>1276</ele>
        <time>2022-03-24T07:44:20Z</time>
      </trkpt>
      <trkpt lat="44.80928" lon="4.20563">
        <ele>1276</ele>
        <time>2022-03-24T07:44:22Z</time>
      </trkpt>
      <trkpt lat="44.80926" lon="4.20566">
        <ele>1276</ele>
        <time>2022-03-24T07:44:24Z</time>
      </trkpt>
      <trkpt lat="44.80924" lon="4.2057">
        <ele>1277</ele>
        <time>2022-03-24T07:44:26Z</time>
      </trkpt>
      <trkpt lat="44.80922" lon="4.20574">
        <ele>1277</ele>
        <time>2022-03-24T07:44:28Z</time>
      </trkpt>
      <trkpt lat="44.80921" lon="4.20578">
        <ele>1277</ele>
        <time>2022-03-24T07:44:30Z</time>
      </trkpt>
      <trkpt lat="44.80919" lon="4.20581">
        <ele>1277</ele>
        <time>2022-03-24T07:44:32Z</time>
      </trkpt>
      <trkpt lat="44.80917" lon="4.20585">
        <ele>1277</ele>
        <time>2022-03-24T07:44:34Z</time>
      </trkpt>
      <trkpt lat="44.80915" lon="4.20589">
        <ele>1277</ele>
        <time>2022-03-24T07:44:36Z</time>
      </trkpt>
      <trkpt lat="44.80914" lon="4.20593">
        <ele>1277</ele>
        <time>2022-03-24T07:44:38Z</time>
      </trkpt>
      <trkpt lat="44.80912" lon="4.20597">
        <ele>1278</ele>
        <time>2022-03-24T07:44:40Z</time>
      </trkpt>
      <trkpt lat="44.8091" lon="4.20601">
        <ele>1278</ele>
        <time>2022-03-24T07:44:42Z</time>
      </trkpt>
      <trkpt lat="44.80908" lon="4.20605">
        <ele>1278</ele>
        <time>2022-03-24T07:44:44Z</time>
      </trkpt>
      <trkpt lat="44.80906" lon="4.2061">
        <ele>1279</ele>
        <time>2022-03-24T07:44:46Z</time>
      </trkpt>
      <trkpt lat="44.80904" lon="4.20614">
        <ele>1279</ele>
        <time>2022-03-24T07:44:48Z</time>
      </trkpt>
      <trkpt lat="44.80902" lon="4.20617">
        <ele>1279</ele>
        <time>2022-03-24T07:44:50Z</time>
      </trkpt>
      <trkpt lat="44.809" lon="4.20621">
        <ele>1279</ele>
        <time>2022-03-24T07:44:52Z</time>
      </trkpt>
      <trkpt lat="44.80898" lon="4.20625">
        <ele>1279</ele>
        <time>2022-03-24T07:44:54Z</time>
      </trkpt>
      <trkpt lat="44.80896" lon="4.20628">
        <ele>1280</ele>
        <time>2022-03-24T07:44:56Z</time>
      </trkpt>
      <trkpt lat="44.80894" lon="4.20632">
        <ele>1280</ele>
        <time>2022-03-24T07:44:58Z</time>
      </trkpt>
      <trkpt lat="44.80892" lon="4.20636">
        <ele>1280</ele>
        <time>2022-03-24T07:45:00Z</time>
      </trkpt>
      <trkpt lat="44.80891" lon="4.2064">
        <ele>1281</ele>
        <time>2022-03-24T07:45:02Z</time>
      </trkpt>
      <trkpt lat="44.80889" lon="4.20643">
        <ele>1280</ele>
        <time>2022-03-24T07:45:04Z</time>
      </trkpt>
      <trkpt lat="44.80887" lon="4.20646">
        <ele>1280</ele>
        <time>2022-03-24T07:45:06Z</time>
      </trkpt>
      <trkpt lat="44.80886" lon="4.2065">
        <ele>1280</ele>
        <time>2022-03-24T07:45:08Z</time>
      </trkpt>
      <trkpt lat="44.80884" lon="4.20654">
        <ele>1280</ele>
        <time>2022-03-24T07:45:10Z</time>
      </trkpt>
      <trkpt lat="44.80882" lon="4.20657">
        <ele>1281</ele>
        <time>2022-03-24T07:45:12Z</time>
      </trkpt>
      <trkpt lat="44.80881" lon="4.20661">
        <ele>1281</ele>
        <time>2022-03-24T07:45:14Z</time>
      </trkpt>
      <trkpt lat="44.80879" lon="4.20665">
        <ele>1282</ele>
        <time>2022-03-24T07:45:16Z</time>
      </trkpt>
      <trkpt lat="44.80877" lon="4.20668">
        <ele>1282</ele>
        <time>2022-03-24T07:45:18Z</time>
      </trkpt>
      <trkpt lat="44.80875" lon="4.20673">
        <ele>1282</ele>
        <time>2022-03-24T07:45:21Z</time>
      </trkpt>
      <trkpt lat="44.80874" lon="4.20677">
        <ele>1283</ele>
        <time>2022-03-24T07:45:23Z</time>
      </trkpt>
      <trkpt lat="44.80872" lon="4.20682">
        <ele>1283</ele>
        <time>2022-03-24T07:45:26Z</time>
      </trkpt>
      <trkpt lat="44.8087" lon="4.20685">
        <ele>1283</ele>
        <time>2022-03-24T07:45:28Z</time>
      </trkpt>
      <trkpt lat="44.80868" lon="4.20689">
        <ele>1283</ele>
        <time>2022-03-24T07:45:30Z</time>
      </trkpt>
      <trkpt lat="44.80866" lon="4.20693">
        <ele>1284</ele>
        <time>2022-03-24T07:45:32Z</time>
      </trkpt>
      <trkpt lat="44.80864" lon="4.20697">
        <ele>1284</ele>
        <time>2022-03-24T07:45:34Z</time>
      </trkpt>
      <trkpt lat="44.80863" lon="4.20701">
        <ele>1283</ele>
        <time>2022-03-24T07:45:36Z</time>
      </trkpt>
      <trkpt lat="44.80861" lon="4.20704">
        <ele>1284</ele>
        <time>2022-03-24T07:45:38Z</time>
      </trkpt>
      <trkpt lat="44.80859" lon="4.20708">
        <ele>1284</ele>
        <time>2022-03-24T07:45:40Z</time>
      </trkpt>
      <trkpt lat="44.80857" lon="4.20713">
        <ele>1285</ele>
        <time>2022-03-24T07:45:43Z</time>
      </trkpt>
      <trkpt lat="44.80855" lon="4.20717">
        <ele>1285</ele>
        <time>2022-03-24T07:45:45Z</time>
      </trkpt>
      <trkpt lat="44.80853" lon="4.20721">
        <ele>1285</ele>
        <time>2022-03-24T07:45:47Z</time>
      </trkpt>
      <trkpt lat="44.80851" lon="4.20725">
        <ele>1286</ele>
        <time>2022-03-24T07:45:49Z</time>
      </trkpt>
      <trkpt lat="44.80849" lon="4.20729">
        <ele>1286</ele>
        <time>2022-03-24T07:45:52Z</time>
      </trkpt>
      <trkpt lat="44.80847" lon="4.20733">
        <ele>1286</ele>
        <time>2022-03-24T07:45:54Z</time>
      </trkpt>
      <trkpt lat="44.80845" lon="4.20737">
        <ele>1286</ele>
        <time>2022-03-24T07:45:56Z</time>
      </trkpt>
      <trkpt lat="44.80843" lon="4.20741">
        <ele>1286</ele>
        <time>2022-03-24T07:45:58Z</time>
      </trkpt>
      <trkpt lat="44.80841" lon="4.20745">
        <ele>1287</ele>
        <time>2022-03-24T07:46:00Z</time>
      </trkpt>
      <trkpt lat="44.80839" lon="4.20749">
        <ele>1287</ele>
        <time>2022-03-24T07:46:02Z</time>
      </trkpt>
      <trkpt lat="44.80837" lon="4.20753">
        <ele>1287</ele>
        <time>2022-03-24T07:46:04Z</time>
      </trkpt>
      <trkpt lat="44.80835" lon="4.20757">
        <ele>1288</ele>
        <time>2022-03-24T07:46:06Z</time>
      </trkpt>
      <trkpt lat="44.80834" lon="4.20761">
        <ele>1288</ele>
        <time>2022-03-24T07:46:08Z</time>
      </trkpt>
      <trkpt lat="44.80832" lon="4.20765">
        <ele>1288</ele>
        <time>2022-03-24T07:46:10Z</time>
      </trkpt>
      <trkpt lat="44.8083" lon="4.20769">
        <ele>1287</ele>
        <time>2022-03-24T07:46:12Z</time>
      </trkpt>
      <trkpt lat="44.80828" lon="4.20773">
        <ele>1288</ele>
        <time>2022-03-24T07:46:15Z</time>
      </trkpt>
      <trkpt lat="44.80825" lon="4.20778">
        <ele>1288</ele>
        <time>2022-03-24T07:46:18Z</time>
      </trkpt>
      <trkpt lat="44.80824" lon="4.20781">
        <ele>1288</ele>
        <time>2022-03-24T07:46:20Z</time>
      </trkpt>
      <trkpt lat="44.80822" lon="4.20785">
        <ele>1289</ele>
        <time>2022-03-24T07:46:22Z</time>
      </trkpt>
      <trkpt lat="44.8082" lon="4.20789">
        <ele>1289</ele>
        <time>2022-03-24T07:46:24Z</time>
      </trkpt>
      <trkpt lat="44.80819" lon="4.20793">
        <ele>1289</ele>
        <time>2022-03-24T07:46:27Z</time>
      </trkpt>
      <trkpt lat="44.80817" lon="4.20797">
        <ele>1289</ele>
        <time>2022-03-24T07:46:29Z</time>
      </trkpt>
      <trkpt lat="44.80816" lon="4.20801">
        <ele>1289</ele>
        <time>2022-03-24T07:46:31Z</time>
      </trkpt>
      <trkpt lat="44.80814" lon="4.20805">
        <ele>1289</ele>
        <time>2022-03-24T07:46:33Z</time>
      </trkpt>
      <trkpt lat="44.80813" lon="4.20809">
        <ele>1289</ele>
        <time>2022-03-24T07:46:35Z</time>
      </trkpt>
      <trkpt lat="44.80811" lon="4.20813">
        <ele>1289</ele>
        <time>2022-03-24T07:46:37Z</time>
      </trkpt>
      <trkpt lat="44.8081" lon="4.20817">
        <ele>1289</ele>
        <time>2022-03-24T07:46:39Z</time>
      </trkpt>
      <trkpt lat="44.8081" lon="4.20822">
        <ele>1290</ele>
        <time>2022-03-24T07:46:41Z</time>
      </trkpt>
      <trkpt lat="44.80809" lon="4.20826">
        <ele>1290</ele>
        <time>2022-03-24T07:46:43Z</time>
      </trkpt>
      <trkpt lat="44.80808" lon="4.2083">
        <ele>1289</ele>
        <time>2022-03-24T07:46:45Z</time>
      </trkpt>
      <trkpt lat="44.80807" lon="4.20834">
        <ele>1289</ele>
        <time>2022-03-24T07:46:47Z</time>
      </trkpt>
      <trkpt lat="44.80807" lon="4.20838">
        <ele>1289</ele>
        <time>2022-03-24T07:46:49Z</time>
      </trkpt>
      <trkpt lat="44.80807" lon="4.20843">
        <ele>1289</ele>
        <time>2022-03-24T07:46:51Z</time>
      </trkpt>
      <trkpt lat="44.80807" lon="4.20847">
        <ele>1289</ele>
        <time>2022-03-24T07:46:53Z</time>
      </trkpt>
      <trkpt lat="44.80806" lon="4.20851">
        <ele>1289</ele>
        <time>2022-03-24T07:46:55Z</time>
      </trkpt>
      <trkpt lat="44.80807" lon="4.20856">
        <ele>1290</ele>
        <time>2022-03-24T07:46:57Z</time>
      </trkpt>
      <trkpt lat="44.80807" lon="4.2086">
        <ele>1290</ele>
        <time>2022-03-24T07:46:59Z</time>
      </trkpt>
      <trkpt lat="44.80807" lon="4.20865">
        <ele>1290</ele>
        <time>2022-03-24T07:47:01Z</time>
      </trkpt>
      <trkpt lat="44.80807" lon="4.2087">
        <ele>1290</ele>
        <time>2022-03-24T07:47:03Z</time>
      </trkpt>
      <trkpt lat="44.80807" lon="4.20875">
        <ele>1290</ele>
        <time>2022-03-24T07:47:05Z</time>
      </trkpt>
      <trkpt lat="44.80806" lon="4.20879">
        <ele>1290</ele>
        <time>2022-03-24T07:47:07Z</time>
      </trkpt>
      <trkpt lat="44.80806" lon="4.20884">
        <ele>1290</ele>
        <time>2022-03-24T07:47:09Z</time>
      </trkpt>
      <trkpt lat="44.80806" lon="4.20889">
        <ele>1290</ele>
        <time>2022-03-24T07:47:11Z</time>
      </trkpt>
      <trkpt lat="44.80806" lon="4.20893">
        <ele>1290</ele>
        <time>2022-03-24T07:47:13Z</time>
      </trkpt>
      <trkpt lat="44.80806" lon="4.20898">
        <ele>1290</ele>
        <time>2022-03-24T07:47:15Z</time>
      </trkpt>
      <trkpt lat="44.80805" lon="4.20902">
        <ele>1290</ele>
        <time>2022-03-24T07:47:17Z</time>
      </trkpt>
      <trkpt lat="44.80805" lon="4.20907">
        <ele>1290</ele>
        <time>2022-03-24T07:47:19Z</time>
      </trkpt>
      <trkpt lat="44.80805" lon="4.20911">
        <ele>1290</ele>
        <time>2022-03-24T07:47:21Z</time>
      </trkpt>
      <trkpt lat="44.80804" lon="4.20916">
        <ele>1290</ele>
        <time>2022-03-24T07:47:23Z</time>
      </trkpt>
      <trkpt lat="44.80804" lon="4.20921">
        <ele>1290</ele>
        <time>2022-03-24T07:47:25Z</time>
      </trkpt>
      <trkpt lat="44.80804" lon="4.20926">
        <ele>1290</ele>
        <time>2022-03-24T07:47:27Z</time>
      </trkpt>
      <trkpt lat="44.80803" lon="4.20931">
        <ele>1290</ele>
        <time>2022-03-24T07:47:29Z</time>
      </trkpt>
      <trkpt lat="44.80802" lon="4.20935">
        <ele>1290</ele>
        <time>2022-03-24T07:47:31Z</time>
      </trkpt>
      <trkpt lat="44.80801" lon="4.20939">
        <ele>1290</ele>
        <time>2022-03-24T07:47:33Z</time>
      </trkpt>
      <trkpt lat="44.808" lon="4.20943">
        <ele>1290</ele>
        <time>2022-03-24T07:47:35Z</time>
      </trkpt>
      <trkpt lat="44.808" lon="4.20948">
        <ele>1290</ele>
        <time>2022-03-24T07:47:37Z</time>
      </trkpt>
      <trkpt lat="44.808" lon="4.20952">
        <ele>1291</ele>
        <time>2022-03-24T07:47:39Z</time>
      </trkpt>
      <trkpt lat="44.80799" lon="4.20956">
        <ele>1290</ele>
        <time>2022-03-24T07:47:41Z</time>
      </trkpt>
      <trkpt lat="44.80798" lon="4.2096">
        <ele>1291</ele>
        <time>2022-03-24T07:47:43Z</time>
      </trkpt>
      <trkpt lat="44.80797" lon="4.20964">
        <ele>1291</ele>
        <time>2022-03-24T07:47:45Z</time>
      </trkpt>
      <trkpt lat="44.80795" lon="4.20969">
        <ele>1291</ele>
        <time>2022-03-24T07:47:47Z</time>
      </trkpt>
      <trkpt lat="44.80794" lon="4.20974">
        <ele>1291</ele>
        <time>2022-03-24T07:47:49Z</time>
      </trkpt>
      <trkpt lat="44.80793" lon="4.20978">
        <ele>1291</ele>
        <time>2022-03-24T07:47:51Z</time>
      </trkpt>
      <trkpt lat="44.80791" lon="4.20983">
        <ele>1291</ele>
        <time>2022-03-24T07:47:53Z</time>
      </trkpt>
      <trkpt lat="44.8079" lon="4.20987">
        <ele>1291</ele>
        <time>2022-03-24T07:47:55Z</time>
      </trkpt>
      <trkpt lat="44.80788" lon="4.20991">
        <ele>1291</ele>
        <time>2022-03-24T07:47:57Z</time>
      </trkpt>
      <trkpt lat="44.80787" lon="4.20995">
        <ele>1292</ele>
        <time>2022-03-24T07:47:59Z</time>
      </trkpt>
      <trkpt lat="44.80786" lon="4.20999">
        <ele>1291</ele>
        <time>2022-03-24T07:48:01Z</time>
      </trkpt>
      <trkpt lat="44.80784" lon="4.21002">
        <ele>1292</ele>
        <time>2022-03-24T07:48:03Z</time>
      </trkpt>
      <trkpt lat="44.80782" lon="4.21006">
        <ele>1291</ele>
        <time>2022-03-24T07:48:05Z</time>
      </trkpt>
      <trkpt lat="44.8078" lon="4.2101">
        <ele>1292</ele>
        <time>2022-03-24T07:48:07Z</time>
      </trkpt>
      <trkpt lat="44.80778" lon="4.21014">
        <ele>1292</ele>
        <time>2022-03-24T07:48:09Z</time>
      </trkpt>
      <trkpt lat="44.80776" lon="4.21018">
        <ele>1292</ele>
        <time>2022-03-24T07:48:11Z</time>
      </trkpt>
      <trkpt lat="44.80774" lon="4.21022">
        <ele>1292</ele>
        <time>2022-03-24T07:48:13Z</time>
      </trkpt>
      <trkpt lat="44.80773" lon="4.21025">
        <ele>1292</ele>
        <time>2022-03-24T07:48:15Z</time>
      </trkpt>
      <trkpt lat="44.80771" lon="4.21028">
        <ele>1292</ele>
        <time>2022-03-24T07:48:17Z</time>
      </trkpt>
      <trkpt lat="44.80768" lon="4.21032">
        <ele>1292</ele>
        <time>2022-03-24T07:48:19Z</time>
      </trkpt>
      <trkpt lat="44.80766" lon="4.21036">
        <ele>1292</ele>
        <time>2022-03-24T07:48:21Z</time>
      </trkpt>
      <trkpt lat="44.80764" lon="4.21039">
        <ele>1293</ele>
        <time>2022-03-24T07:48:23Z</time>
      </trkpt>
      <trkpt lat="44.80762" lon="4.21041">
        <ele>1293</ele>
        <time>2022-03-24T07:48:25Z</time>
      </trkpt>
      <trkpt lat="44.8076" lon="4.21045">
        <ele>1293</ele>
        <time>2022-03-24T07:48:27Z</time>
      </trkpt>
      <trkpt lat="44.80757" lon="4.21048">
        <ele>1294</ele>
        <time>2022-03-24T07:48:29Z</time>
      </trkpt>
      <trkpt lat="44.80754" lon="4.2105">
        <ele>1294</ele>
        <time>2022-03-24T07:48:31Z</time>
      </trkpt>
      <trkpt lat="44.80751" lon="4.21051">
        <ele>1294</ele>
        <time>2022-03-24T07:48:33Z</time>
      </trkpt>
      <trkpt lat="44.80748" lon="4.21053">
        <ele>1294</ele>
        <time>2022-03-24T07:48:35Z</time>
      </trkpt>
      <trkpt lat="44.80746" lon="4.21056">
        <ele>1294</ele>
        <time>2022-03-24T07:48:37Z</time>
      </trkpt>
      <trkpt lat="44.80746" lon="4.21058">
        <ele>1295</ele>
        <time>2022-03-24T07:48:47Z</time>
      </trkpt>
      <trkpt lat="44.80749" lon="4.21058">
        <ele>1296</ele>
        <time>2022-03-24T07:48:50Z</time>
      </trkpt>
      <trkpt lat="44.80752" lon="4.21057">
        <ele>1296</ele>
        <time>2022-03-24T07:48:52Z</time>
      </trkpt>
      <trkpt lat="44.80754" lon="4.21057">
        <ele>1296</ele>
        <time>2022-03-24T07:48:54Z</time>
      </trkpt>
      <trkpt lat="44.80757" lon="4.21056">
        <ele>1296</ele>
        <time>2022-03-24T07:48:56Z</time>
      </trkpt>
      <trkpt lat="44.80759" lon="4.21055">
        <ele>1296</ele>
        <time>2022-03-24T07:48:58Z</time>
      </trkpt>
      <trkpt lat="44.80762" lon="4.21053">
        <ele>1296</ele>
        <time>2022-03-24T07:49:00Z</time>
      </trkpt>
      <trkpt lat="44.80765" lon="4.21052">
        <ele>1297</ele>
        <time>2022-03-24T07:49:02Z</time>
      </trkpt>
      <trkpt lat="44.80768" lon="4.21051">
        <ele>1297</ele>
        <time>2022-03-24T07:49:04Z</time>
      </trkpt>
      <trkpt lat="44.80771" lon="4.2105">
        <ele>1297</ele>
        <time>2022-03-24T07:49:06Z</time>
      </trkpt>
      <trkpt lat="44.80774" lon="4.2105">
        <ele>1298</ele>
        <time>2022-03-24T07:49:08Z</time>
      </trkpt>
      <trkpt lat="44.80778" lon="4.2105">
        <ele>1298</ele>
        <time>2022-03-24T07:49:10Z</time>
      </trkpt>
      <trkpt lat="44.80781" lon="4.21049">
        <ele>1298</ele>
        <time>2022-03-24T07:49:12Z</time>
      </trkpt>
      <trkpt lat="44.80784" lon="4.21049">
        <ele>1298</ele>
        <time>2022-03-24T07:49:14Z</time>
      </trkpt>
      <trkpt lat="44.80787" lon="4.21048">
        <ele>1298</ele>
        <time>2022-03-24T07:49:16Z</time>
      </trkpt>
      <trkpt lat="44.80791" lon="4.21046">
        <ele>1299</ele>
        <time>2022-03-24T07:49:19Z</time>
      </trkpt>
      <trkpt lat="44.80794" lon="4.21045">
        <ele>1299</ele>
        <time>2022-03-24T07:49:21Z</time>
      </trkpt>
      <trkpt lat="44.80797" lon="4.21044">
        <ele>1299</ele>
        <time>2022-03-24T07:49:23Z</time>
      </trkpt>
      <trkpt lat="44.808" lon="4.21043">
        <ele>1300</ele>
        <time>2022-03-24T07:49:25Z</time>
      </trkpt>
      <trkpt lat="44.80803" lon="4.21042">
        <ele>1300</ele>
        <time>2022-03-24T07:49:27Z</time>
      </trkpt>
      <trkpt lat="44.80807" lon="4.2104">
        <ele>1300</ele>
        <time>2022-03-24T07:49:29Z</time>
      </trkpt>
      <trkpt lat="44.80811" lon="4.21038">
        <ele>1301</ele>
        <time>2022-03-24T07:49:31Z</time>
      </trkpt>
      <trkpt lat="44.80814" lon="4.21037">
        <ele>1301</ele>
        <time>2022-03-24T07:49:33Z</time>
      </trkpt>
      <trkpt lat="44.80817" lon="4.21035">
        <ele>1301</ele>
        <time>2022-03-24T07:49:35Z</time>
      </trkpt>
      <trkpt lat="44.80821" lon="4.21033">
        <ele>1301</ele>
        <time>2022-03-24T07:49:37Z</time>
      </trkpt>
      <trkpt lat="44.80824" lon="4.21031">
        <ele>1301</ele>
        <time>2022-03-24T07:49:39Z</time>
      </trkpt>
      <trkpt lat="44.80827" lon="4.2103">
        <ele>1302</ele>
        <time>2022-03-24T07:49:41Z</time>
      </trkpt>
      <trkpt lat="44.8083" lon="4.21028">
        <ele>1302</ele>
        <time>2022-03-24T07:49:44Z</time>
      </trkpt>
      <trkpt lat="44.80833" lon="4.21028">
        <ele>1302</ele>
        <time>2022-03-24T07:49:46Z</time>
      </trkpt>
      <trkpt lat="44.80836" lon="4.21029">
        <ele>1303</ele>
        <time>2022-03-24T07:49:49Z</time>
      </trkpt>
      <trkpt lat="44.80837" lon="4.21032">
        <ele>1304</ele>
        <time>2022-03-24T07:49:52Z</time>
      </trkpt>
      <trkpt lat="44.80838" lon="4.21036">
        <ele>1304</ele>
        <time>2022-03-24T07:49:54Z</time>
      </trkpt>
      <trkpt lat="44.80836" lon="4.21039">
        <ele>1304</ele>
        <time>2022-03-24T07:49:56Z</time>
      </trkpt>
      <trkpt lat="44.80835" lon="4.21043">
        <ele>1304</ele>
        <time>2022-03-24T07:49:58Z</time>
      </trkpt>
      <trkpt lat="44.80833" lon="4.21047">
        <ele>1304</ele>
        <time>2022-03-24T07:50:00Z</time>
      </trkpt>
      <trkpt lat="44.80831" lon="4.21051">
        <ele>1304</ele>
        <time>2022-03-24T07:50:02Z</time>
      </trkpt>
      <trkpt lat="44.80828" lon="4.21054">
        <ele>1304</ele>
        <time>2022-03-24T07:50:04Z</time>
      </trkpt>
      <trkpt lat="44.80826" lon="4.21058">
        <ele>1304</ele>
        <time>2022-03-24T07:50:06Z</time>
      </trkpt>
      <trkpt lat="44.80824" lon="4.21061">
        <ele>1303</ele>
        <time>2022-03-24T07:50:08Z</time>
      </trkpt>
      <trkpt lat="44.80822" lon="4.21064">
        <ele>1303</ele>
        <time>2022-03-24T07:50:10Z</time>
      </trkpt>
      <trkpt lat="44.8082" lon="4.21068">
        <ele>1304</ele>
        <time>2022-03-24T07:50:12Z</time>
      </trkpt>
      <trkpt lat="44.80817" lon="4.21071">
        <ele>1304</ele>
        <time>2022-03-24T07:50:14Z</time>
      </trkpt>
      <trkpt lat="44.80815" lon="4.21075">
        <ele>1304</ele>
        <time>2022-03-24T07:50:16Z</time>
      </trkpt>
      <trkpt lat="44.80814" lon="4.21079">
        <ele>1304</ele>
        <time>2022-03-24T07:50:18Z</time>
      </trkpt>
      <trkpt lat="44.80812" lon="4.21082">
        <ele>1304</ele>
        <time>2022-03-24T07:50:20Z</time>
      </trkpt>
      <trkpt lat="44.8081" lon="4.21086">
        <ele>1304</ele>
        <time>2022-03-24T07:50:22Z</time>
      </trkpt>
      <trkpt lat="44.80809" lon="4.2109">
        <ele>1304</ele>
        <time>2022-03-24T07:50:24Z</time>
      </trkpt>
      <trkpt lat="44.80807" lon="4.21093">
        <ele>1304</ele>
        <time>2022-03-24T07:50:26Z</time>
      </trkpt>
      <trkpt lat="44.80805" lon="4.21097">
        <ele>1304</ele>
        <time>2022-03-24T07:50:28Z</time>
      </trkpt>
      <trkpt lat="44.80804" lon="4.211">
        <ele>1304</ele>
        <time>2022-03-24T07:50:30Z</time>
      </trkpt>
      <trkpt lat="44.80802" lon="4.21104">
        <ele>1304</ele>
        <time>2022-03-24T07:50:32Z</time>
      </trkpt>
      <trkpt lat="44.80801" lon="4.21109">
        <ele>1305</ele>
        <time>2022-03-24T07:50:35Z</time>
      </trkpt>
      <trkpt lat="44.80801" lon="4.21114">
        <ele>1304</ele>
        <time>2022-03-24T07:50:37Z</time>
      </trkpt>
      <trkpt lat="44.80802" lon="4.21118">
        <ele>1304</ele>
        <time>2022-03-24T07:50:39Z</time>
      </trkpt>
      <trkpt lat="44.80801" lon="4.21122">
        <ele>1305</ele>
        <time>2022-03-24T07:50:41Z</time>
      </trkpt>
      <trkpt lat="44.808" lon="4.21126">
        <ele>1304</ele>
        <time>2022-03-24T07:50:43Z</time>
      </trkpt>
      <trkpt lat="44.80799" lon="4.2113">
        <ele>1304</ele>
        <time>2022-03-24T07:50:45Z</time>
      </trkpt>
      <trkpt lat="44.80797" lon="4.21135">
        <ele>1304</ele>
        <time>2022-03-24T07:50:47Z</time>
      </trkpt>
      <trkpt lat="44.80796" lon="4.21139">
        <ele>1304</ele>
        <time>2022-03-24T07:50:49Z</time>
      </trkpt>
      <trkpt lat="44.80795" lon="4.21144">
        <ele>1304</ele>
        <time>2022-03-24T07:50:51Z</time>
      </trkpt>
      <trkpt lat="44.80793" lon="4.21149">
        <ele>1304</ele>
        <time>2022-03-24T07:50:54Z</time>
      </trkpt>
      <trkpt lat="44.80792" lon="4.21154">
        <ele>1304</ele>
        <time>2022-03-24T07:50:56Z</time>
      </trkpt>
      <trkpt lat="44.8079" lon="4.21158">
        <ele>1305</ele>
        <time>2022-03-24T07:50:58Z</time>
      </trkpt>
      <trkpt lat="44.80789" lon="4.21162">
        <ele>1304</ele>
        <time>2022-03-24T07:51:00Z</time>
      </trkpt>
      <trkpt lat="44.80788" lon="4.21166">
        <ele>1305</ele>
        <time>2022-03-24T07:51:02Z</time>
      </trkpt>
      <trkpt lat="44.80787" lon="4.21171">
        <ele>1305</ele>
        <time>2022-03-24T07:51:04Z</time>
      </trkpt>
      <trkpt lat="44.80786" lon="4.21175">
        <ele>1304</ele>
        <time>2022-03-24T07:51:06Z</time>
      </trkpt>
      <trkpt lat="44.80785" lon="4.21179">
        <ele>1304</ele>
        <time>2022-03-24T07:51:08Z</time>
      </trkpt>
      <trkpt lat="44.80784" lon="4.21183">
        <ele>1304</ele>
        <time>2022-03-24T07:51:10Z</time>
      </trkpt>
      <trkpt lat="44.80782" lon="4.21187">
        <ele>1304</ele>
        <time>2022-03-24T07:51:12Z</time>
      </trkpt>
      <trkpt lat="44.80781" lon="4.21192">
        <ele>1304</ele>
        <time>2022-03-24T07:51:14Z</time>
      </trkpt>
      <trkpt lat="44.8078" lon="4.21196">
        <ele>1305</ele>
        <time>2022-03-24T07:51:16Z</time>
      </trkpt>
      <trkpt lat="44.80779" lon="4.212">
        <ele>1304</ele>
        <time>2022-03-24T07:51:18Z</time>
      </trkpt>
      <trkpt lat="44.80778" lon="4.21204">
        <ele>1304</ele>
        <time>2022-03-24T07:51:20Z</time>
      </trkpt>
      <trkpt lat="44.80777" lon="4.21208">
        <ele>1304</ele>
        <time>2022-03-24T07:51:22Z</time>
      </trkpt>
      <trkpt lat="44.80775" lon="4.21213">
        <ele>1304</ele>
        <time>2022-03-24T07:51:24Z</time>
      </trkpt>
      <trkpt lat="44.80774" lon="4.21218">
        <ele>1304</ele>
        <time>2022-03-24T07:51:26Z</time>
      </trkpt>
      <trkpt lat="44.80773" lon="4.21222">
        <ele>1305</ele>
        <time>2022-03-24T07:51:28Z</time>
      </trkpt>
      <trkpt lat="44.80772" lon="4.21227">
        <ele>1304</ele>
        <time>2022-03-24T07:51:30Z</time>
      </trkpt>
      <trkpt lat="44.80772" lon="4.21231">
        <ele>1304</ele>
        <time>2022-03-24T07:51:32Z</time>
      </trkpt>
      <trkpt lat="44.80772" lon="4.21235">
        <ele>1304</ele>
        <time>2022-03-24T07:51:45Z</time>
      </trkpt>
      <trkpt lat="44.80774" lon="4.21239">
        <ele>1305</ele>
        <time>2022-03-24T07:51:53Z</time>
      </trkpt>
      <trkpt lat="44.80776" lon="4.21242">
        <ele>1305</ele>
        <time>2022-03-24T07:51:55Z</time>
      </trkpt>
      <trkpt lat="44.80778" lon="4.21244">
        <ele>1305</ele>
        <time>2022-03-24T07:51:57Z</time>
      </trkpt>
      <trkpt lat="44.80782" lon="4.21246">
        <ele>1305</ele>
        <time>2022-03-24T07:52:00Z</time>
      </trkpt>
      <trkpt lat="44.80784" lon="4.21248">
        <ele>1306</ele>
        <time>2022-03-24T07:52:02Z</time>
      </trkpt>
      <trkpt lat="44.80787" lon="4.21249">
        <ele>1306</ele>
        <time>2022-03-24T07:52:05Z</time>
      </trkpt>
      <trkpt lat="44.80791" lon="4.21251">
        <ele>1306</ele>
        <time>2022-03-24T07:52:08Z</time>
      </trkpt>
      <trkpt lat="44.80793" lon="4.21254">
        <ele>1307</ele>
        <time>2022-03-24T07:52:11Z</time>
      </trkpt>
      <trkpt lat="44.80796" lon="4.21257">
        <ele>1307</ele>
        <time>2022-03-24T07:52:14Z</time>
      </trkpt>
      <trkpt lat="44.80799" lon="4.21259">
        <ele>1308</ele>
        <time>2022-03-24T07:52:17Z</time>
      </trkpt>
      <trkpt lat="44.80801" lon="4.21261">
        <ele>1308</ele>
        <time>2022-03-24T07:52:21Z</time>
      </trkpt>
      <trkpt lat="44.80804" lon="4.21264">
        <ele>1309</ele>
        <time>2022-03-24T07:52:25Z</time>
      </trkpt>
      <trkpt lat="44.80808" lon="4.21267">
        <ele>1309</ele>
        <time>2022-03-24T07:52:27Z</time>
      </trkpt>
      <trkpt lat="44.80812" lon="4.21269">
        <ele>1310</ele>
        <time>2022-03-24T07:52:29Z</time>
      </trkpt>
      <trkpt lat="44.80816" lon="4.21272">
        <ele>1311</ele>
        <time>2022-03-24T07:52:31Z</time>
      </trkpt>
      <trkpt lat="44.8082" lon="4.21274">
        <ele>1311</ele>
        <time>2022-03-24T07:52:33Z</time>
      </trkpt>
      <trkpt lat="44.80823" lon="4.21276">
        <ele>1311</ele>
        <time>2022-03-24T07:52:35Z</time>
      </trkpt>
      <trkpt lat="44.80827" lon="4.21278">
        <ele>1312</ele>
        <time>2022-03-24T07:52:37Z</time>
      </trkpt>
      <trkpt lat="44.80831" lon="4.2128">
        <ele>1312</ele>
        <time>2022-03-24T07:52:39Z</time>
      </trkpt>
      <trkpt lat="44.80834" lon="4.21282">
        <ele>1312</ele>
        <time>2022-03-24T07:52:41Z</time>
      </trkpt>
      <trkpt lat="44.80837" lon="4.21284">
        <ele>1313</ele>
        <time>2022-03-24T07:52:43Z</time>
      </trkpt>
      <trkpt lat="44.8084" lon="4.21286">
        <ele>1313</ele>
        <time>2022-03-24T07:52:45Z</time>
      </trkpt>
      <trkpt lat="44.80843" lon="4.21287">
        <ele>1314</ele>
        <time>2022-03-24T07:52:47Z</time>
      </trkpt>
      <trkpt lat="44.80846" lon="4.21289">
        <ele>1314</ele>
        <time>2022-03-24T07:52:50Z</time>
      </trkpt>
      <trkpt lat="44.80849" lon="4.21291">
        <ele>1314</ele>
        <time>2022-03-24T07:52:53Z</time>
      </trkpt>
      <trkpt lat="44.80853" lon="4.21293">
        <ele>1315</ele>
        <time>2022-03-24T07:52:56Z</time>
      </trkpt>
      <trkpt lat="44.80856" lon="4.21296">
        <ele>1316</ele>
        <time>2022-03-24T07:52:59Z</time>
      </trkpt>
      <trkpt lat="44.80859" lon="4.21299">
        <ele>1316</ele>
        <time>2022-03-24T07:53:02Z</time>
      </trkpt>
      <trkpt lat="44.80862" lon="4.21303">
        <ele>1316</ele>
        <time>2022-03-24T07:53:04Z</time>
      </trkpt>
      <trkpt lat="44.80864" lon="4.21306">
        <ele>1317</ele>
        <time>2022-03-24T07:53:06Z</time>
      </trkpt>
      <trkpt lat="44.80867" lon="4.21309">
        <ele>1316</ele>
        <time>2022-03-24T07:53:08Z</time>
      </trkpt>
      <trkpt lat="44.80869" lon="4.21312">
        <ele>1317</ele>
        <time>2022-03-24T07:53:10Z</time>
      </trkpt>
      <trkpt lat="44.80871" lon="4.21315">
        <ele>1317</ele>
        <time>2022-03-24T07:53:12Z</time>
      </trkpt>
      <trkpt lat="44.80873" lon="4.21319">
        <ele>1318</ele>
        <time>2022-03-24T07:53:15Z</time>
      </trkpt>
      <trkpt lat="44.80876" lon="4.21322">
        <ele>1318</ele>
        <time>2022-03-24T07:53:18Z</time>
      </trkpt>
      <trkpt lat="44.80878" lon="4.21325">
        <ele>1318</ele>
        <time>2022-03-24T07:53:20Z</time>
      </trkpt>
      <trkpt lat="44.80881" lon="4.21327">
        <ele>1318</ele>
        <time>2022-03-24T07:53:22Z</time>
      </trkpt>
      <trkpt lat="44.80883" lon="4.21331">
        <ele>1319</ele>
        <time>2022-03-24T07:53:24Z</time>
      </trkpt>
      <trkpt lat="44.80885" lon="4.21334">
        <ele>1319</ele>
        <time>2022-03-24T07:53:26Z</time>
      </trkpt>
      <trkpt lat="44.80888" lon="4.21337">
        <ele>1319</ele>
        <time>2022-03-24T07:53:28Z</time>
      </trkpt>
      <trkpt lat="44.8089" lon="4.21339">
        <ele>1319</ele>
        <time>2022-03-24T07:53:30Z</time>
      </trkpt>
      <trkpt lat="44.80892" lon="4.21342">
        <ele>1320</ele>
        <time>2022-03-24T07:53:32Z</time>
      </trkpt>
      <trkpt lat="44.80894" lon="4.21345">
        <ele>1320</ele>
        <time>2022-03-24T07:53:35Z</time>
      </trkpt>
      <trkpt lat="44.80896" lon="4.21349">
        <ele>1321</ele>
        <time>2022-03-24T07:53:38Z</time>
      </trkpt>
      <trkpt lat="44.80899" lon="4.21353">
        <ele>1321</ele>
        <time>2022-03-24T07:53:42Z</time>
      </trkpt>
      <trkpt lat="44.80901" lon="4.21356">
        <ele>1322</ele>
        <time>2022-03-24T07:53:44Z</time>
      </trkpt>
      <trkpt lat="44.80904" lon="4.21359">
        <ele>1322</ele>
        <time>2022-03-24T07:53:46Z</time>
      </trkpt>
      <trkpt lat="44.80907" lon="4.21362">
        <ele>1323</ele>
        <time>2022-03-24T07:53:49Z</time>
      </trkpt>
      <trkpt lat="44.8091" lon="4.21365">
        <ele>1323</ele>
        <time>2022-03-24T07:53:52Z</time>
      </trkpt>
      <trkpt lat="44.80913" lon="4.21367">
        <ele>1324</ele>
        <time>2022-03-24T07:53:56Z</time>
      </trkpt>
      <trkpt lat="44.80916" lon="4.21367">
        <ele>1325</ele>
        <time>2022-03-24T07:54:00Z</time>
      </trkpt>
      <trkpt lat="44.80919" lon="4.21366">
        <ele>1325</ele>
        <time>2022-03-24T07:54:03Z</time>
      </trkpt>
      <trkpt lat="44.80922" lon="4.21363">
        <ele>1325</ele>
        <time>2022-03-24T07:54:05Z</time>
      </trkpt>
      <trkpt lat="44.80924" lon="4.21361">
        <ele>1325</ele>
        <time>2022-03-24T07:54:07Z</time>
      </trkpt>
      <trkpt lat="44.80927" lon="4.21358">
        <ele>1325</ele>
        <time>2022-03-24T07:54:09Z</time>
      </trkpt>
      <trkpt lat="44.80929" lon="4.21355">
        <ele>1325</ele>
        <time>2022-03-24T07:54:11Z</time>
      </trkpt>
      <trkpt lat="44.80932" lon="4.21354">
        <ele>1326</ele>
        <time>2022-03-24T07:54:16Z</time>
      </trkpt>
      <trkpt lat="44.80934" lon="4.21355">
        <ele>1326</ele>
        <time>2022-03-24T07:54:25Z</time>
      </trkpt>
      <trkpt lat="44.80937" lon="4.21358">
        <ele>1327</ele>
        <time>2022-03-24T07:54:29Z</time>
      </trkpt>
      <trkpt lat="44.80938" lon="4.21361">
        <ele>1327</ele>
        <time>2022-03-24T07:54:38Z</time>
      </trkpt>
      <trkpt lat="44.80939" lon="4.21365">
        <ele>1328</ele>
        <time>2022-03-24T07:54:41Z</time>
      </trkpt>
      <trkpt lat="44.80939" lon="4.21369">
        <ele>1328</ele>
        <time>2022-03-24T07:54:53Z</time>
      </trkpt>
      <trkpt lat="44.80939" lon="4.21373">
        <ele>1329</ele>
        <time>2022-03-24T07:54:57Z</time>
      </trkpt>
      <trkpt lat="44.80939" lon="4.21377">
        <ele>1329</ele>
        <time>2022-03-24T07:55:00Z</time>
      </trkpt>
      <trkpt lat="44.8094" lon="4.21381">
        <ele>1330</ele>
        <time>2022-03-24T07:55:02Z</time>
      </trkpt>
      <trkpt lat="44.80942" lon="4.21385">
        <ele>1331</ele>
        <time>2022-03-24T07:55:05Z</time>
      </trkpt>
      <trkpt lat="44.80944" lon="4.21388">
        <ele>1331</ele>
        <time>2022-03-24T07:55:07Z</time>
      </trkpt>
      <trkpt lat="44.80944" lon="4.21393">
        <ele>1331</ele>
        <time>2022-03-24T07:55:10Z</time>
      </trkpt>
      <trkpt lat="44.80945" lon="4.21397">
        <ele>1331</ele>
        <time>2022-03-24T07:55:13Z</time>
      </trkpt>
      <trkpt lat="44.80945" lon="4.21402">
        <ele>1332</ele>
        <time>2022-03-24T07:55:16Z</time>
      </trkpt>
      <trkpt lat="44.80945" lon="4.21407">
        <ele>1333</ele>
        <time>2022-03-24T07:55:19Z</time>
      </trkpt>
      <trkpt lat="44.80945" lon="4.21411">
        <ele>1333</ele>
        <time>2022-03-24T07:55:21Z</time>
      </trkpt>
      <trkpt lat="44.80945" lon="4.21415">
        <ele>1334</ele>
        <time>2022-03-24T07:55:24Z</time>
      </trkpt>
      <trkpt lat="44.80947" lon="4.21417">
        <ele>1334</ele>
        <time>2022-03-24T07:55:27Z</time>
      </trkpt>
      <trkpt lat="44.8095" lon="4.21419">
        <ele>1334</ele>
        <time>2022-03-24T07:55:30Z</time>
      </trkpt>
      <trkpt lat="44.80953" lon="4.21421">
        <ele>1335</ele>
        <time>2022-03-24T07:55:33Z</time>
      </trkpt>
      <trkpt lat="44.80956" lon="4.21421">
        <ele>1336</ele>
        <time>2022-03-24T07:55:36Z</time>
      </trkpt>
      <trkpt lat="44.80959" lon="4.21419">
        <ele>1337</ele>
        <time>2022-03-24T07:55:39Z</time>
      </trkpt>
      <trkpt lat="44.80962" lon="4.21418">
        <ele>1337</ele>
        <time>2022-03-24T07:55:42Z</time>
      </trkpt>
      <trkpt lat="44.80965" lon="4.21417">
        <ele>1337</ele>
        <time>2022-03-24T07:55:45Z</time>
      </trkpt>
      <trkpt lat="44.80968" lon="4.21416">
        <ele>1338</ele>
        <time>2022-03-24T07:55:48Z</time>
      </trkpt>
      <trkpt lat="44.80971" lon="4.21416">
        <ele>1339</ele>
        <time>2022-03-24T07:55:51Z</time>
      </trkpt>
      <trkpt lat="44.80974" lon="4.21417">
        <ele>1339</ele>
        <time>2022-03-24T07:55:57Z</time>
      </trkpt>
      <trkpt lat="44.80977" lon="4.21418">
        <ele>1340</ele>
        <time>2022-03-24T07:56:00Z</time>
      </trkpt>
      <trkpt lat="44.8098" lon="4.2142">
        <ele>1340</ele>
        <time>2022-03-24T07:56:03Z</time>
      </trkpt>
      <trkpt lat="44.80983" lon="4.21422">
        <ele>1341</ele>
        <time>2022-03-24T07:56:06Z</time>
      </trkpt>
      <trkpt lat="44.80986" lon="4.21424">
        <ele>1341</ele>
        <time>2022-03-24T07:56:09Z</time>
      </trkpt>
      <trkpt lat="44.80989" lon="4.21427">
        <ele>1342</ele>
        <time>2022-03-24T07:56:12Z</time>
      </trkpt>
      <trkpt lat="44.80992" lon="4.2143">
        <ele>1342</ele>
        <time>2022-03-24T07:56:15Z</time>
      </trkpt>
      <trkpt lat="44.80995" lon="4.21432">
        <ele>1343</ele>
        <time>2022-03-24T07:56:18Z</time>
      </trkpt>
      <trkpt lat="44.80998" lon="4.21434">
        <ele>1343</ele>
        <time>2022-03-24T07:56:21Z</time>
      </trkpt>
      <trkpt lat="44.81001" lon="4.21437">
        <ele>1344</ele>
        <time>2022-03-24T07:56:24Z</time>
      </trkpt>
      <trkpt lat="44.81003" lon="4.21441">
        <ele>1345</ele>
        <time>2022-03-24T07:56:28Z</time>
      </trkpt>
      <trkpt lat="44.81006" lon="4.21444">
        <ele>1346</ele>
        <time>2022-03-24T07:56:32Z</time>
      </trkpt>
      <trkpt lat="44.81008" lon="4.21446">
        <ele>1346</ele>
        <time>2022-03-24T07:56:35Z</time>
      </trkpt>
      <trkpt lat="44.81011" lon="4.21449">
        <ele>1347</ele>
        <time>2022-03-24T07:56:38Z</time>
      </trkpt>
      <trkpt lat="44.81014" lon="4.21452">
        <ele>1348</ele>
        <time>2022-03-24T07:56:41Z</time>
      </trkpt>
      <trkpt lat="44.81016" lon="4.21455">
        <ele>1348</ele>
        <time>2022-03-24T07:56:44Z</time>
      </trkpt>
      <trkpt lat="44.81019" lon="4.21458">
        <ele>1349</ele>
        <time>2022-03-24T07:56:47Z</time>
      </trkpt>
      <trkpt lat="44.81022" lon="4.2146">
        <ele>1349</ele>
        <time>2022-03-24T07:56:50Z</time>
      </trkpt>
      <trkpt lat="44.81025" lon="4.21463">
        <ele>1350</ele>
        <time>2022-03-24T07:56:53Z</time>
      </trkpt>
      <trkpt lat="44.81028" lon="4.21466">
        <ele>1351</ele>
        <time>2022-03-24T07:56:56Z</time>
      </trkpt>
      <trkpt lat="44.81031" lon="4.21468">
        <ele>1351</ele>
        <time>2022-03-24T07:56:59Z</time>
      </trkpt>
      <trkpt lat="44.81033" lon="4.2147">
        <ele>1352</ele>
        <time>2022-03-24T07:57:02Z</time>
      </trkpt>
      <trkpt lat="44.81036" lon="4.21469">
        <ele>1352</ele>
        <time>2022-03-24T07:57:05Z</time>
      </trkpt>
      <trkpt lat="44.81039" lon="4.21468">
        <ele>1353</ele>
        <time>2022-03-24T07:57:09Z</time>
      </trkpt>
      <trkpt lat="44.81042" lon="4.21469">
        <ele>1353</ele>
        <time>2022-03-24T07:57:13Z</time>
      </trkpt>
      <trkpt lat="44.81046" lon="4.21471">
        <ele>1354</ele>
        <time>2022-03-24T07:57:16Z</time>
      </trkpt>
      <trkpt lat="44.81049" lon="4.21474">
        <ele>1354</ele>
        <time>2022-03-24T07:57:19Z</time>
      </trkpt>
      <trkpt lat="44.81052" lon="4.21476">
        <ele>1355</ele>
        <time>2022-03-24T07:57:22Z</time>
      </trkpt>
      <trkpt lat="44.81054" lon="4.21478">
        <ele>1355</ele>
        <time>2022-03-24T07:57:24Z</time>
      </trkpt>
      <trkpt lat="44.81057" lon="4.21481">
        <ele>1356</ele>
        <time>2022-03-24T07:57:27Z</time>
      </trkpt>
      <trkpt lat="44.81059" lon="4.21484">
        <ele>1356</ele>
        <time>2022-03-24T07:57:30Z</time>
      </trkpt>
      <trkpt lat="44.81062" lon="4.21487">
        <ele>1357</ele>
        <time>2022-03-24T07:57:33Z</time>
      </trkpt>
      <trkpt lat="44.81064" lon="4.21489">
        <ele>1358</ele>
        <time>2022-03-24T07:57:36Z</time>
      </trkpt>
      <trkpt lat="44.81066" lon="4.21492">
        <ele>1359</ele>
        <time>2022-03-24T07:57:39Z</time>
      </trkpt>
      <trkpt lat="44.81068" lon="4.21496">
        <ele>1359</ele>
        <time>2022-03-24T07:57:42Z</time>
      </trkpt>
      <trkpt lat="44.8107" lon="4.215">
        <ele>1360</ele>
        <time>2022-03-24T07:57:45Z</time>
      </trkpt>
      <trkpt lat="44.81071" lon="4.21503">
        <ele>1360</ele>
        <time>2022-03-24T07:57:49Z</time>
      </trkpt>
      <trkpt lat="44.81071" lon="4.21507">
        <ele>1360</ele>
        <time>2022-03-24T07:57:53Z</time>
      </trkpt>
      <trkpt lat="44.81071" lon="4.21511">
        <ele>1361</ele>
        <time>2022-03-24T07:57:56Z</time>
      </trkpt>
      <trkpt lat="44.81073" lon="4.21514">
        <ele>1361</ele>
        <time>2022-03-24T07:58:00Z</time>
      </trkpt>
      <trkpt lat="44.81076" lon="4.21515">
        <ele>1362</ele>
        <time>2022-03-24T07:58:04Z</time>
      </trkpt>
      <trkpt lat="44.81078" lon="4.21518">
        <ele>1363</ele>
        <time>2022-03-24T07:58:07Z</time>
      </trkpt>
      <trkpt lat="44.8108" lon="4.2152">
        <ele>1363</ele>
        <time>2022-03-24T07:58:17Z</time>
      </trkpt>
      <trkpt lat="44.81083" lon="4.21521">
        <ele>1363</ele>
        <time>2022-03-24T07:58:20Z</time>
      </trkpt>
      <trkpt lat="44.81086" lon="4.21522">
        <ele>1363</ele>
        <time>2022-03-24T07:58:24Z</time>
      </trkpt>
      <trkpt lat="44.81089" lon="4.21522">
        <ele>1363</ele>
        <time>2022-03-24T07:58:26Z</time>
      </trkpt>
      <trkpt lat="44.81092" lon="4.21523">
        <ele>1364</ele>
        <time>2022-03-24T07:58:29Z</time>
      </trkpt>
      <trkpt lat="44.81095" lon="4.21525">
        <ele>1364</ele>
        <time>2022-03-24T07:58:34Z</time>
      </trkpt>
      <trkpt lat="44.81097" lon="4.21528">
        <ele>1365</ele>
        <time>2022-03-24T07:58:37Z</time>
      </trkpt>
      <trkpt lat="44.81099" lon="4.21532">
        <ele>1365</ele>
        <time>2022-03-24T07:58:41Z</time>
      </trkpt>
      <trkpt lat="44.811" lon="4.21536">
        <ele>1365</ele>
        <time>2022-03-24T07:58:43Z</time>
      </trkpt>
      <trkpt lat="44.81101" lon="4.2154">
        <ele>1366</ele>
        <time>2022-03-24T07:58:46Z</time>
      </trkpt>
      <trkpt lat="44.81104" lon="4.21543">
        <ele>1367</ele>
        <time>2022-03-24T07:58:51Z</time>
      </trkpt>
      <trkpt lat="44.81107" lon="4.21545">
        <ele>1367</ele>
        <time>2022-03-24T07:58:53Z</time>
      </trkpt>
      <trkpt lat="44.81109" lon="4.21547">
        <ele>1368</ele>
        <time>2022-03-24T07:58:56Z</time>
      </trkpt>
      <trkpt lat="44.81112" lon="4.21549">
        <ele>1369</ele>
        <time>2022-03-24T07:58:58Z</time>
      </trkpt>
      <trkpt lat="44.81115" lon="4.21551">
        <ele>1369</ele>
        <time>2022-03-24T07:59:02Z</time>
      </trkpt>
      <trkpt lat="44.81117" lon="4.21554">
        <ele>1370</ele>
        <time>2022-03-24T07:59:05Z</time>
      </trkpt>
      <trkpt lat="44.8112" lon="4.21555">
        <ele>1371</ele>
        <time>2022-03-24T07:59:09Z</time>
      </trkpt>
      <trkpt lat="44.81123" lon="4.21556">
        <ele>1372</ele>
        <time>2022-03-24T07:59:13Z</time>
      </trkpt>
      <trkpt lat="44.81127" lon="4.21556">
        <ele>1372</ele>
        <time>2022-03-24T07:59:17Z</time>
      </trkpt>
      <trkpt lat="44.81131" lon="4.21557">
        <ele>1373</ele>
        <time>2022-03-24T07:59:20Z</time>
      </trkpt>
      <trkpt lat="44.81134" lon="4.21559">
        <ele>1373</ele>
        <time>2022-03-24T07:59:23Z</time>
      </trkpt>
      <trkpt lat="44.81137" lon="4.21562">
        <ele>1373</ele>
        <time>2022-03-24T07:59:26Z</time>
      </trkpt>
      <trkpt lat="44.8114" lon="4.21564">
        <ele>1374</ele>
        <time>2022-03-24T07:59:29Z</time>
      </trkpt>
      <trkpt lat="44.81143" lon="4.21567">
        <ele>1375</ele>
        <time>2022-03-24T07:59:33Z</time>
      </trkpt>
      <trkpt lat="44.81144" lon="4.2157">
        <ele>1376</ele>
        <time>2022-03-24T07:59:40Z</time>
      </trkpt>
      <trkpt lat="44.81146" lon="4.21573">
        <ele>1376</ele>
        <time>2022-03-24T07:59:43Z</time>
      </trkpt>
      <trkpt lat="44.81148" lon="4.21576">
        <ele>1377</ele>
        <time>2022-03-24T07:59:46Z</time>
      </trkpt>
      <trkpt lat="44.8115" lon="4.2158">
        <ele>1377</ele>
        <time>2022-03-24T07:59:49Z</time>
      </trkpt>
      <trkpt lat="44.81153" lon="4.21583">
        <ele>1378</ele>
        <time>2022-03-24T07:59:53Z</time>
      </trkpt>
      <trkpt lat="44.81156" lon="4.21586">
        <ele>1379</ele>
        <time>2022-03-24T07:59:56Z</time>
      </trkpt>
      <trkpt lat="44.81158" lon="4.21587">
        <ele>1379</ele>
        <time>2022-03-24T08:00:01Z</time>
      </trkpt>
      <trkpt lat="44.81161" lon="4.21588">
        <ele>1380</ele>
        <time>2022-03-24T08:00:04Z</time>
      </trkpt>
      <trkpt lat="44.81165" lon="4.21588">
        <ele>1381</ele>
        <time>2022-03-24T08:00:07Z</time>
      </trkpt>
      <trkpt lat="44.81167" lon="4.21586">
        <ele>1381</ele>
        <time>2022-03-24T08:00:09Z</time>
      </trkpt>
      <trkpt lat="44.8117" lon="4.21584">
        <ele>1382</ele>
        <time>2022-03-24T08:00:12Z</time>
      </trkpt>
      <trkpt lat="44.81173" lon="4.21583">
        <ele>1382</ele>
        <time>2022-03-24T08:00:15Z</time>
      </trkpt>
      <trkpt lat="44.81176" lon="4.21583">
        <ele>1383</ele>
        <time>2022-03-24T08:00:18Z</time>
      </trkpt>
      <trkpt lat="44.81179" lon="4.21583">
        <ele>1383</ele>
        <time>2022-03-24T08:00:21Z</time>
      </trkpt>
      <trkpt lat="44.81182" lon="4.21584">
        <ele>1383</ele>
        <time>2022-03-24T08:00:23Z</time>
      </trkpt>
      <trkpt lat="44.81185" lon="4.21586">
        <ele>1384</ele>
        <time>2022-03-24T08:00:25Z</time>
      </trkpt>
      <trkpt lat="44.81188" lon="4.21588">
        <ele>1384</ele>
        <time>2022-03-24T08:00:28Z</time>
      </trkpt>
      <trkpt lat="44.81192" lon="4.21589">
        <ele>1385</ele>
        <time>2022-03-24T08:00:31Z</time>
      </trkpt>
      <trkpt lat="44.81195" lon="4.21589">
        <ele>1385</ele>
        <time>2022-03-24T08:00:34Z</time>
      </trkpt>
      <trkpt lat="44.81198" lon="4.21589">
        <ele>1386</ele>
        <time>2022-03-24T08:00:37Z</time>
      </trkpt>
      <trkpt lat="44.81201" lon="4.21591">
        <ele>1386</ele>
        <time>2022-03-24T08:00:41Z</time>
      </trkpt>
      <trkpt lat="44.81204" lon="4.21593">
        <ele>1387</ele>
        <time>2022-03-24T08:00:44Z</time>
      </trkpt>
      <trkpt lat="44.81207" lon="4.21596">
        <ele>1388</ele>
        <time>2022-03-24T08:00:47Z</time>
      </trkpt>
      <trkpt lat="44.81209" lon="4.21598">
        <ele>1388</ele>
        <time>2022-03-24T08:00:51Z</time>
      </trkpt>
      <trkpt lat="44.81212" lon="4.21599">
        <ele>1388</ele>
        <time>2022-03-24T08:00:54Z</time>
      </trkpt>
      <trkpt lat="44.81215" lon="4.21597">
        <ele>1389</ele>
        <time>2022-03-24T08:00:57Z</time>
      </trkpt>
      <trkpt lat="44.81219" lon="4.21597">
        <ele>1389</ele>
        <time>2022-03-24T08:01:01Z</time>
      </trkpt>
      <trkpt lat="44.81223" lon="4.21597">
        <ele>1390</ele>
        <time>2022-03-24T08:01:04Z</time>
      </trkpt>
      <trkpt lat="44.81226" lon="4.21598">
        <ele>1390</ele>
        <time>2022-03-24T08:01:07Z</time>
      </trkpt>
      <trkpt lat="44.81229" lon="4.21599">
        <ele>1391</ele>
        <time>2022-03-24T08:01:32Z</time>
      </trkpt>
      <trkpt lat="44.81232" lon="4.216">
        <ele>1392</ele>
        <time>2022-03-24T08:01:36Z</time>
      </trkpt>
      <trkpt lat="44.81235" lon="4.216">
        <ele>1392</ele>
        <time>2022-03-24T08:01:39Z</time>
      </trkpt>
      <trkpt lat="44.81238" lon="4.21597">
        <ele>1392</ele>
        <time>2022-03-24T08:01:43Z</time>
      </trkpt>
      <trkpt lat="44.8124" lon="4.21594">
        <ele>1393</ele>
        <time>2022-03-24T08:01:46Z</time>
      </trkpt>
      <trkpt lat="44.81243" lon="4.21593">
        <ele>1394</ele>
        <time>2022-03-24T08:01:48Z</time>
      </trkpt>
      <trkpt lat="44.81246" lon="4.21592">
        <ele>1394</ele>
        <time>2022-03-24T08:01:50Z</time>
      </trkpt>
      <trkpt lat="44.81249" lon="4.21594">
        <ele>1394</ele>
        <time>2022-03-24T08:01:52Z</time>
      </trkpt>
      <trkpt lat="44.81252" lon="4.21595">
        <ele>1395</ele>
        <time>2022-03-24T08:01:55Z</time>
      </trkpt>
      <trkpt lat="44.81255" lon="4.21596">
        <ele>1395</ele>
        <time>2022-03-24T08:01:58Z</time>
      </trkpt>
      <trkpt lat="44.81258" lon="4.21598">
        <ele>1396</ele>
        <time>2022-03-24T08:02:02Z</time>
      </trkpt>
      <trkpt lat="44.81261" lon="4.21599">
        <ele>1396</ele>
        <time>2022-03-24T08:02:05Z</time>
      </trkpt>
      <trkpt lat="44.81264" lon="4.21599">
        <ele>1397</ele>
        <time>2022-03-24T08:02:07Z</time>
      </trkpt>
      <trkpt lat="44.81267" lon="4.21599">
        <ele>1397</ele>
        <time>2022-03-24T08:02:10Z</time>
      </trkpt>
      <trkpt lat="44.81271" lon="4.21599">
        <ele>1398</ele>
        <time>2022-03-24T08:02:13Z</time>
      </trkpt>
      <trkpt lat="44.81274" lon="4.21599">
        <ele>1398</ele>
        <time>2022-03-24T08:02:16Z</time>
      </trkpt>
      <trkpt lat="44.81278" lon="4.21598">
        <ele>1399</ele>
        <time>2022-03-24T08:02:19Z</time>
      </trkpt>
      <trkpt lat="44.81281" lon="4.21597">
        <ele>1399</ele>
        <time>2022-03-24T08:02:21Z</time>
      </trkpt>
      <trkpt lat="44.81283" lon="4.21596">
        <ele>1399</ele>
        <time>2022-03-24T08:02:23Z</time>
      </trkpt>
      <trkpt lat="44.81286" lon="4.21594">
        <ele>1399</ele>
        <time>2022-03-24T08:02:25Z</time>
      </trkpt>
      <trkpt lat="44.81289" lon="4.21593">
        <ele>1399</ele>
        <time>2022-03-24T08:02:28Z</time>
      </trkpt>
      <trkpt lat="44.81292" lon="4.2159">
        <ele>1400</ele>
        <time>2022-03-24T08:02:31Z</time>
      </trkpt>
      <trkpt lat="44.81295" lon="4.21588">
        <ele>1400</ele>
        <time>2022-03-24T08:02:35Z</time>
      </trkpt>
      <trkpt lat="44.81298" lon="4.21586">
        <ele>1400</ele>
        <time>2022-03-24T08:02:38Z</time>
      </trkpt>
      <trkpt lat="44.81301" lon="4.21586">
        <ele>1400</ele>
        <time>2022-03-24T08:02:41Z</time>
      </trkpt>
      <trkpt lat="44.81305" lon="4.21587">
        <ele>1401</ele>
        <time>2022-03-24T08:02:44Z</time>
      </trkpt>
      <trkpt lat="44.81308" lon="4.21587">
        <ele>1401</ele>
        <time>2022-03-24T08:02:46Z</time>
      </trkpt>
      <trkpt lat="44.81312" lon="4.21588">
        <ele>1401</ele>
        <time>2022-03-24T08:02:49Z</time>
      </trkpt>
      <trkpt lat="44.81315" lon="4.21587">
        <ele>1402</ele>
        <time>2022-03-24T08:03:06Z</time>
      </trkpt>
      <trkpt lat="44.81318" lon="4.21586">
        <ele>1402</ele>
        <time>2022-03-24T08:03:09Z</time>
      </trkpt>
      <trkpt lat="44.81317" lon="4.21586">
        <ele>1402</ele>
        <time>2022-03-24T08:03:15Z</time>
      </trkpt>
      <trkpt lat="44.81314" lon="4.21586">
        <ele>1401</ele>
        <time>2022-03-24T08:03:18Z</time>
      </trkpt>
      <trkpt lat="44.81311" lon="4.21586">
        <ele>1401</ele>
        <time>2022-03-24T08:03:21Z</time>
      </trkpt>
      <trkpt lat="44.81307" lon="4.21586">
        <ele>1401</ele>
        <time>2022-03-24T08:03:24Z</time>
      </trkpt>
      <trkpt lat="44.81303" lon="4.21586">
        <ele>1400</ele>
        <time>2022-03-24T08:03:27Z</time>
      </trkpt>
      <trkpt lat="44.813" lon="4.21587">
        <ele>1401</ele>
        <time>2022-03-24T08:03:30Z</time>
      </trkpt>
      <trkpt lat="44.81298" lon="4.2159">
        <ele>1401</ele>
        <time>2022-03-24T08:03:34Z</time>
      </trkpt>
      <trkpt lat="44.81298" lon="4.21594">
        <ele>1401</ele>
        <time>2022-03-24T08:03:37Z</time>
      </trkpt>
      <trkpt lat="44.81296" lon="4.216">
        <ele>1401</ele>
        <time>2022-03-24T08:03:40Z</time>
      </trkpt>
      <trkpt lat="44.81295" lon="4.21605">
        <ele>1402</ele>
        <time>2022-03-24T08:03:42Z</time>
      </trkpt>
      <trkpt lat="44.81294" lon="4.2161">
        <ele>1402</ele>
        <time>2022-03-24T08:03:45Z</time>
      </trkpt>
      <trkpt lat="44.81293" lon="4.21614">
        <ele>1403</ele>
        <time>2022-03-24T08:03:53Z</time>
      </trkpt>
      <trkpt lat="44.8129" lon="4.21616">
        <ele>1403</ele>
        <time>2022-03-24T08:03:55Z</time>
      </trkpt>
      <trkpt lat="44.81291" lon="4.21615">
        <ele>1402</ele>
        <time>2022-03-24T08:04:02Z</time>
      </trkpt>
      <trkpt lat="44.81293" lon="4.21615">
        <ele>1403</ele>
        <time>2022-03-24T08:04:05Z</time>
      </trkpt>
      <trkpt lat="44.81296" lon="4.21615">
        <ele>1403</ele>
        <time>2022-03-24T08:04:07Z</time>
      </trkpt>
      <trkpt lat="44.81299" lon="4.21615">
        <ele>1403</ele>
        <time>2022-03-24T08:04:10Z</time>
      </trkpt>
      <trkpt lat="44.81302" lon="4.21615">
        <ele>1403</ele>
        <time>2022-03-24T08:04:13Z</time>
      </trkpt>
      <trkpt lat="44.81305" lon="4.21616">
        <ele>1404</ele>
        <time>2022-03-24T08:04:16Z</time>
      </trkpt>
      <trkpt lat="44.81307" lon="4.21619">
        <ele>1404</ele>
        <time>2022-03-24T08:04:20Z</time>
      </trkpt>
      <trkpt lat="44.8131" lon="4.21621">
        <ele>1405</ele>
        <time>2022-03-24T08:04:23Z</time>
      </trkpt>
      <trkpt lat="44.81313" lon="4.21623">
        <ele>1405</ele>
        <time>2022-03-24T08:04:26Z</time>
      </trkpt>
      <trkpt lat="44.81316" lon="4.21623">
        <ele>1406</ele>
        <time>2022-03-24T08:04:29Z</time>
      </trkpt>
      <trkpt lat="44.8132" lon="4.21622">
        <ele>1406</ele>
        <time>2022-03-24T08:04:32Z</time>
      </trkpt>
      <trkpt lat="44.81324" lon="4.21621">
        <ele>1406</ele>
        <time>2022-03-24T08:04:35Z</time>
      </trkpt>
      <trkpt lat="44.81327" lon="4.21621">
        <ele>1406</ele>
        <time>2022-03-24T08:04:38Z</time>
      </trkpt>
      <trkpt lat="44.8133" lon="4.21621">
        <ele>1407</ele>
        <time>2022-03-24T08:04:41Z</time>
      </trkpt>
      <trkpt lat="44.81333" lon="4.21622">
        <ele>1408</ele>
        <time>2022-03-24T08:04:45Z</time>
      </trkpt>
      <trkpt lat="44.81337" lon="4.21621">
        <ele>1408</ele>
        <time>2022-03-24T08:04:48Z</time>
      </trkpt>
      <trkpt lat="44.81341" lon="4.21622">
        <ele>1409</ele>
        <time>2022-03-24T08:04:51Z</time>
      </trkpt>
      <trkpt lat="44.81344" lon="4.21622">
        <ele>1409</ele>
        <time>2022-03-24T08:04:54Z</time>
      </trkpt>
      <trkpt lat="44.81347" lon="4.21622">
        <ele>1409</ele>
        <time>2022-03-24T08:04:57Z</time>
      </trkpt>
      <trkpt lat="44.81351" lon="4.21621">
        <ele>1410</ele>
        <time>2022-03-24T08:05:00Z</time>
      </trkpt>
      <trkpt lat="44.81354" lon="4.21621">
        <ele>1410</ele>
        <time>2022-03-24T08:05:03Z</time>
      </trkpt>
      <trkpt lat="44.81358" lon="4.2162">
        <ele>1410</ele>
        <time>2022-03-24T08:05:06Z</time>
      </trkpt>
      <trkpt lat="44.81362" lon="4.21619">
        <ele>1410</ele>
        <time>2022-03-24T08:05:09Z</time>
      </trkpt>
      <trkpt lat="44.81365" lon="4.21619">
        <ele>1410</ele>
        <time>2022-03-24T08:05:11Z</time>
      </trkpt>
      <trkpt lat="44.81369" lon="4.21619">
        <ele>1411</ele>
        <time>2022-03-24T08:05:14Z</time>
      </trkpt>
      <trkpt lat="44.81372" lon="4.21619">
        <ele>1411</ele>
        <time>2022-03-24T08:05:17Z</time>
      </trkpt>
      <trkpt lat="44.81375" lon="4.21617">
        <ele>1411</ele>
        <time>2022-03-24T08:05:20Z</time>
      </trkpt>
      <trkpt lat="44.81379" lon="4.21616">
        <ele>1411</ele>
        <time>2022-03-24T08:05:23Z</time>
      </trkpt>
      <trkpt lat="44.81383" lon="4.21615">
        <ele>1411</ele>
        <time>2022-03-24T08:05:26Z</time>
      </trkpt>
      <trkpt lat="44.81386" lon="4.21615">
        <ele>1412</ele>
        <time>2022-03-24T08:05:29Z</time>
      </trkpt>
      <trkpt lat="44.81389" lon="4.21615">
        <ele>1412</ele>
        <time>2022-03-24T08:05:32Z</time>
      </trkpt>
      <trkpt lat="44.81393" lon="4.21613">
        <ele>1412</ele>
        <time>2022-03-24T08:05:35Z</time>
      </trkpt>
      <trkpt lat="44.81395" lon="4.21611">
        <ele>1412</ele>
        <time>2022-03-24T08:05:37Z</time>
      </trkpt>
      <trkpt lat="44.81398" lon="4.21608">
        <ele>1412</ele>
        <time>2022-03-24T08:05:39Z</time>
      </trkpt>
      <trkpt lat="44.81402" lon="4.21606">
        <ele>1412</ele>
        <time>2022-03-24T08:05:42Z</time>
      </trkpt>
      <trkpt lat="44.81405" lon="4.21605">
        <ele>1412</ele>
        <time>2022-03-24T08:05:44Z</time>
      </trkpt>
      <trkpt lat="44.81408" lon="4.21604">
        <ele>1413</ele>
        <time>2022-03-24T08:05:46Z</time>
      </trkpt>
      <trkpt lat="44.81411" lon="4.21603">
        <ele>1413</ele>
        <time>2022-03-24T08:05:49Z</time>
      </trkpt>
      <trkpt lat="44.81414" lon="4.216">
        <ele>1412</ele>
        <time>2022-03-24T08:05:52Z</time>
      </trkpt>
      <trkpt lat="44.81417" lon="4.21597">
        <ele>1412</ele>
        <time>2022-03-24T08:05:54Z</time>
      </trkpt>
      <trkpt lat="44.81419" lon="4.21595">
        <ele>1413</ele>
        <time>2022-03-24T08:05:56Z</time>
      </trkpt>
      <trkpt lat="44.81422" lon="4.21594">
        <ele>1413</ele>
        <time>2022-03-24T08:05:58Z</time>
      </trkpt>
      <trkpt lat="44.81425" lon="4.21592">
        <ele>1413</ele>
        <time>2022-03-24T08:06:01Z</time>
      </trkpt>
      <trkpt lat="44.81429" lon="4.21591">
        <ele>1413</ele>
        <time>2022-03-24T08:06:04Z</time>
      </trkpt>
      <trkpt lat="44.81432" lon="4.21591">
        <ele>1414</ele>
        <time>2022-03-24T08:06:07Z</time>
      </trkpt>
      <trkpt lat="44.81436" lon="4.21591">
        <ele>1414</ele>
        <time>2022-03-24T08:06:10Z</time>
      </trkpt>
      <trkpt lat="44.81439" lon="4.21591">
        <ele>1415</ele>
        <time>2022-03-24T08:06:12Z</time>
      </trkpt>
      <trkpt lat="44.81442" lon="4.2159">
        <ele>1415</ele>
        <time>2022-03-24T08:06:15Z</time>
      </trkpt>
      <trkpt lat="44.81446" lon="4.21589">
        <ele>1415</ele>
        <time>2022-03-24T08:06:18Z</time>
      </trkpt>
      <trkpt lat="44.8145" lon="4.21589">
        <ele>1416</ele>
        <time>2022-03-24T08:06:21Z</time>
      </trkpt>
      <trkpt lat="44.81454" lon="4.21589">
        <ele>1416</ele>
        <time>2022-03-24T08:06:24Z</time>
      </trkpt>
      <trkpt lat="44.81458" lon="4.2159">
        <ele>1416</ele>
        <time>2022-03-24T08:06:27Z</time>
      </trkpt>
      <trkpt lat="44.81462" lon="4.2159">
        <ele>1416</ele>
        <time>2022-03-24T08:06:38Z</time>
      </trkpt>
      <trkpt lat="44.81465" lon="4.2159">
        <ele>1416</ele>
        <time>2022-03-24T08:06:40Z</time>
      </trkpt>
      <trkpt lat="44.81468" lon="4.2159">
        <ele>1417</ele>
        <time>2022-03-24T08:06:42Z</time>
      </trkpt>
      <trkpt lat="44.81471" lon="4.21589">
        <ele>1417</ele>
        <time>2022-03-24T08:06:44Z</time>
      </trkpt>
      <trkpt lat="44.81475" lon="4.21589">
        <ele>1417</ele>
        <time>2022-03-24T08:06:46Z</time>
      </trkpt>
      <trkpt lat="44.81477" lon="4.2159">
        <ele>1417</ele>
        <time>2022-03-24T08:06:50Z</time>
      </trkpt>
      <trkpt lat="44.81481" lon="4.2159">
        <ele>1417</ele>
        <time>2022-03-24T08:06:53Z</time>
      </trkpt>
      <trkpt lat="44.81484" lon="4.2159">
        <ele>1418</ele>
        <time>2022-03-24T08:06:56Z</time>
      </trkpt>
      <trkpt lat="44.81488" lon="4.2159">
        <ele>1418</ele>
        <time>2022-03-24T08:06:58Z</time>
      </trkpt>
      <trkpt lat="44.81491" lon="4.2159">
        <ele>1419</ele>
        <time>2022-03-24T08:07:00Z</time>
      </trkpt>
      <trkpt lat="44.81495" lon="4.2159">
        <ele>1419</ele>
        <time>2022-03-24T08:07:04Z</time>
      </trkpt>
      <trkpt lat="44.81498" lon="4.2159">
        <ele>1419</ele>
        <time>2022-03-24T08:07:06Z</time>
      </trkpt>
      <trkpt lat="44.815" lon="4.21588">
        <ele>1419</ele>
        <time>2022-03-24T08:07:15Z</time>
      </trkpt>
      <trkpt lat="44.81502" lon="4.21589">
        <ele>1420</ele>
        <time>2022-03-24T08:07:19Z</time>
      </trkpt>
      <trkpt lat="44.81505" lon="4.2159">
        <ele>1420</ele>
        <time>2022-03-24T08:07:22Z</time>
      </trkpt>
      <trkpt lat="44.81508" lon="4.21591">
        <ele>1420</ele>
        <time>2022-03-24T08:07:24Z</time>
      </trkpt>
      <trkpt lat="44.81511" lon="4.21591">
        <ele>1421</ele>
        <time>2022-03-24T08:07:27Z</time>
      </trkpt>
      <trkpt lat="44.81514" lon="4.21591">
        <ele>1421</ele>
        <time>2022-03-24T08:07:30Z</time>
      </trkpt>
      <trkpt lat="44.81517" lon="4.21591">
        <ele>1421</ele>
        <time>2022-03-24T08:07:33Z</time>
      </trkpt>
      <trkpt lat="44.8152" lon="4.21592">
        <ele>1421</ele>
        <time>2022-03-24T08:07:36Z</time>
      </trkpt>
      <trkpt lat="44.81524" lon="4.21592">
        <ele>1422</ele>
        <time>2022-03-24T08:07:39Z</time>
      </trkpt>
      <trkpt lat="44.81527" lon="4.21592">
        <ele>1422</ele>
        <time>2022-03-24T08:07:41Z</time>
      </trkpt>
      <trkpt lat="44.81531" lon="4.21592">
        <ele>1423</ele>
        <time>2022-03-24T08:07:44Z</time>
      </trkpt>
      <trkpt lat="44.81534" lon="4.21593">
        <ele>1423</ele>
        <time>2022-03-24T08:07:48Z</time>
      </trkpt>
      <trkpt lat="44.81537" lon="4.21594">
        <ele>1423</ele>
        <time>2022-03-24T08:07:58Z</time>
      </trkpt>
      <trkpt lat="44.8154" lon="4.21596">
        <ele>1424</ele>
        <time>2022-03-24T08:08:01Z</time>
      </trkpt>
      <trkpt lat="44.81543" lon="4.21597">
        <ele>1424</ele>
        <time>2022-03-24T08:08:04Z</time>
      </trkpt>
      <trkpt lat="44.81546" lon="4.21598">
        <ele>1425</ele>
        <time>2022-03-24T08:08:06Z</time>
      </trkpt>
      <trkpt lat="44.81549" lon="4.21599">
        <ele>1425</ele>
        <time>2022-03-24T08:08:08Z</time>
      </trkpt>
      <trkpt lat="44.81552" lon="4.216">
        <ele>1426</ele>
        <time>2022-03-24T08:08:10Z</time>
      </trkpt>
      <trkpt lat="44.81555" lon="4.216">
        <ele>1426</ele>
        <time>2022-03-24T08:08:12Z</time>
      </trkpt>
      <trkpt lat="44.81558" lon="4.216">
        <ele>1426</ele>
        <time>2022-03-24T08:08:16Z</time>
      </trkpt>
      <trkpt lat="44.81562" lon="4.21599">
        <ele>1427</ele>
        <time>2022-03-24T08:08:18Z</time>
      </trkpt>
      <trkpt lat="44.81565" lon="4.21599">
        <ele>1427</ele>
        <time>2022-03-24T08:08:20Z</time>
      </trkpt>
      <trkpt lat="44.81568" lon="4.21598">
        <ele>1428</ele>
        <time>2022-03-24T08:08:22Z</time>
      </trkpt>
      <trkpt lat="44.81571" lon="4.21598">
        <ele>1428</ele>
        <time>2022-03-24T08:08:24Z</time>
      </trkpt>
      <trkpt lat="44.81574" lon="4.21598">
        <ele>1428</ele>
        <time>2022-03-24T08:08:26Z</time>
      </trkpt>
      <trkpt lat="44.81577" lon="4.21599">
        <ele>1428</ele>
        <time>2022-03-24T08:08:28Z</time>
      </trkpt>
      <trkpt lat="44.8158" lon="4.21599">
        <ele>1428</ele>
        <time>2022-03-24T08:08:30Z</time>
      </trkpt>
      <trkpt lat="44.81584" lon="4.216">
        <ele>1429</ele>
        <time>2022-03-24T08:08:33Z</time>
      </trkpt>
      <trkpt lat="44.81587" lon="4.21601">
        <ele>1429</ele>
        <time>2022-03-24T08:08:36Z</time>
      </trkpt>
      <trkpt lat="44.81591" lon="4.21601">
        <ele>1429</ele>
        <time>2022-03-24T08:08:38Z</time>
      </trkpt>
      <trkpt lat="44.81594" lon="4.21602">
        <ele>1429</ele>
        <time>2022-03-24T08:08:41Z</time>
      </trkpt>
      <trkpt lat="44.81598" lon="4.21604">
        <ele>1430</ele>
        <time>2022-03-24T08:08:44Z</time>
      </trkpt>
      <trkpt lat="44.81601" lon="4.21604">
        <ele>1430</ele>
        <time>2022-03-24T08:08:47Z</time>
      </trkpt>
      <trkpt lat="44.81605" lon="4.21605">
        <ele>1431</ele>
        <time>2022-03-24T08:08:50Z</time>
      </trkpt>
      <trkpt lat="44.81608" lon="4.21605">
        <ele>1431</ele>
        <time>2022-03-24T08:08:54Z</time>
      </trkpt>
      <trkpt lat="44.81611" lon="4.21605">
        <ele>1431</ele>
        <time>2022-03-24T08:08:57Z</time>
      </trkpt>
      <trkpt lat="44.81614" lon="4.21605">
        <ele>1432</ele>
        <time>2022-03-24T08:09:00Z</time>
      </trkpt>
      <trkpt lat="44.81618" lon="4.21606">
        <ele>1432</ele>
        <time>2022-03-24T08:09:03Z</time>
      </trkpt>
      <trkpt lat="44.81622" lon="4.21606">
        <ele>1432</ele>
        <time>2022-03-24T08:09:05Z</time>
      </trkpt>
      <trkpt lat="44.81625" lon="4.21607">
        <ele>1433</ele>
        <time>2022-03-24T08:09:08Z</time>
      </trkpt>
      <trkpt lat="44.81628" lon="4.21608">
        <ele>1433</ele>
        <time>2022-03-24T08:09:11Z</time>
      </trkpt>
      <trkpt lat="44.81632" lon="4.21609">
        <ele>1433</ele>
        <time>2022-03-24T08:09:14Z</time>
      </trkpt>
      <trkpt lat="44.81635" lon="4.2161">
        <ele>1433</ele>
        <time>2022-03-24T08:09:19Z</time>
      </trkpt>
      <trkpt lat="44.81638" lon="4.21611">
        <ele>1434</ele>
        <time>2022-03-24T08:09:28Z</time>
      </trkpt>
      <trkpt lat="44.81642" lon="4.21612">
        <ele>1434</ele>
        <time>2022-03-24T08:09:31Z</time>
      </trkpt>
      <trkpt lat="44.81645" lon="4.21612">
        <ele>1434</ele>
        <time>2022-03-24T08:09:33Z</time>
      </trkpt>
      <trkpt lat="44.81649" lon="4.21612">
        <ele>1434</ele>
        <time>2022-03-24T08:09:35Z</time>
      </trkpt>
      <trkpt lat="44.81652" lon="4.21611">
        <ele>1434</ele>
        <time>2022-03-24T08:09:37Z</time>
      </trkpt>
      <trkpt lat="44.81655" lon="4.21612">
        <ele>1434</ele>
        <time>2022-03-24T08:09:40Z</time>
      </trkpt>
      <trkpt lat="44.81658" lon="4.21614">
        <ele>1434</ele>
        <time>2022-03-24T08:09:43Z</time>
      </trkpt>
      <trkpt lat="44.81661" lon="4.21614">
        <ele>1434</ele>
        <time>2022-03-24T08:09:47Z</time>
      </trkpt>
      <trkpt lat="44.8166" lon="4.21615">
        <ele>1435</ele>
        <time>2022-03-24T08:10:30Z</time>
      </trkpt>
      <trkpt lat="44.81658" lon="4.21616">
        <ele>1435</ele>
        <time>2022-03-24T08:10:33Z</time>
      </trkpt>
      <trkpt lat="44.81656" lon="4.21618">
        <ele>1435</ele>
        <time>2022-03-24T08:10:36Z</time>
      </trkpt>
      <trkpt lat="44.81653" lon="4.21619">
        <ele>1435</ele>
        <time>2022-03-24T08:10:38Z</time>
      </trkpt>
      <trkpt lat="44.81649" lon="4.21619">
        <ele>1435</ele>
        <time>2022-03-24T08:10:40Z</time>
      </trkpt>
      <trkpt lat="44.81646" lon="4.21619">
        <ele>1434</ele>
        <time>2022-03-24T08:10:42Z</time>
      </trkpt>
      <trkpt lat="44.81643" lon="4.21618">
        <ele>1434</ele>
        <time>2022-03-24T08:10:44Z</time>
      </trkpt>
      <trkpt lat="44.81639" lon="4.21618">
        <ele>1434</ele>
        <time>2022-03-24T08:10:46Z</time>
      </trkpt>
      <trkpt lat="44.81636" lon="4.21617">
        <ele>1434</ele>
        <time>2022-03-24T08:10:49Z</time>
      </trkpt>
      <trkpt lat="44.81633" lon="4.21618">
        <ele>1434</ele>
        <time>2022-03-24T08:10:52Z</time>
      </trkpt>
      <trkpt lat="44.8163" lon="4.21618">
        <ele>1434</ele>
        <time>2022-03-24T08:10:54Z</time>
      </trkpt>
      <trkpt lat="44.81627" lon="4.21618">
        <ele>1434</ele>
        <time>2022-03-24T08:10:56Z</time>
      </trkpt>
      <trkpt lat="44.81624" lon="4.2162">
        <ele>1433</ele>
        <time>2022-03-24T08:10:58Z</time>
      </trkpt>
      <trkpt lat="44.81621" lon="4.21621">
        <ele>1433</ele>
        <time>2022-03-24T08:11:00Z</time>
      </trkpt>
      <trkpt lat="44.81618" lon="4.21622">
        <ele>1433</ele>
        <time>2022-03-24T08:11:03Z</time>
      </trkpt>
      <trkpt lat="44.81615" lon="4.21623">
        <ele>1433</ele>
        <time>2022-03-24T08:11:05Z</time>
      </trkpt>
      <trkpt lat="44.81611" lon="4.21624">
        <ele>1432</ele>
        <time>2022-03-24T08:11:07Z</time>
      </trkpt>
      <trkpt lat="44.81608" lon="4.21625">
        <ele>1432</ele>
        <time>2022-03-24T08:11:09Z</time>
      </trkpt>
      <trkpt lat="44.81604" lon="4.21625">
        <ele>1432</ele>
        <time>2022-03-24T08:11:11Z</time>
      </trkpt>
      <trkpt lat="44.81601" lon="4.21627">
        <ele>1432</ele>
        <time>2022-03-24T08:11:14Z</time>
      </trkpt>
      <trkpt lat="44.81597" lon="4.21629">
        <ele>1432</ele>
        <time>2022-03-24T08:11:17Z</time>
      </trkpt>
      <trkpt lat="44.81594" lon="4.2163">
        <ele>1431</ele>
        <time>2022-03-24T08:11:19Z</time>
      </trkpt>
      <trkpt lat="44.8159" lon="4.21632">
        <ele>1431</ele>
        <time>2022-03-24T08:11:22Z</time>
      </trkpt>
      <trkpt lat="44.81587" lon="4.21634">
        <ele>1431</ele>
        <time>2022-03-24T08:11:25Z</time>
      </trkpt>
      <trkpt lat="44.81583" lon="4.21635">
        <ele>1431</ele>
        <time>2022-03-24T08:11:27Z</time>
      </trkpt>
      <trkpt lat="44.8158" lon="4.21636">
        <ele>1432</ele>
        <time>2022-03-24T08:11:29Z</time>
      </trkpt>
      <trkpt lat="44.81578" lon="4.21637">
        <ele>1432</ele>
        <time>2022-03-24T08:11:31Z</time>
      </trkpt>
      <trkpt lat="44.81575" lon="4.21639">
        <ele>1432</ele>
        <time>2022-03-24T08:11:33Z</time>
      </trkpt>
      <trkpt lat="44.81572" lon="4.21642">
        <ele>1432</ele>
        <time>2022-03-24T08:11:36Z</time>
      </trkpt>
      <trkpt lat="44.81569" lon="4.21644">
        <ele>1431</ele>
        <time>2022-03-24T08:11:39Z</time>
      </trkpt>
      <trkpt lat="44.81567" lon="4.21648">
        <ele>1431</ele>
        <time>2022-03-24T08:11:42Z</time>
      </trkpt>
      <trkpt lat="44.81565" lon="4.21651">
        <ele>1432</ele>
        <time>2022-03-24T08:11:44Z</time>
      </trkpt>
      <trkpt lat="44.81563" lon="4.21655">
        <ele>1432</ele>
        <time>2022-03-24T08:11:46Z</time>
      </trkpt>
      <trkpt lat="44.81562" lon="4.21659">
        <ele>1432</ele>
        <time>2022-03-24T08:11:48Z</time>
      </trkpt>
      <trkpt lat="44.8156" lon="4.21663">
        <ele>1432</ele>
        <time>2022-03-24T08:11:51Z</time>
      </trkpt>
      <trkpt lat="44.81558" lon="4.21667">
        <ele>1432</ele>
        <time>2022-03-24T08:11:54Z</time>
      </trkpt>
      <trkpt lat="44.81556" lon="4.21671">
        <ele>1433</ele>
        <time>2022-03-24T08:11:57Z</time>
      </trkpt>
      <trkpt lat="44.81553" lon="4.21675">
        <ele>1433</ele>
        <time>2022-03-24T08:12:00Z</time>
      </trkpt>
      <trkpt lat="44.81551" lon="4.21678">
        <ele>1433</ele>
        <time>2022-03-24T08:12:04Z</time>
      </trkpt>
      <trkpt lat="44.81548" lon="4.21681">
        <ele>1433</ele>
        <time>2022-03-24T08:12:15Z</time>
      </trkpt>
      <trkpt lat="44.81546" lon="4.21683">
        <ele>1433</ele>
        <time>2022-03-24T08:12:17Z</time>
      </trkpt>
      <trkpt lat="44.81544" lon="4.21686">
        <ele>1432</ele>
        <time>2022-03-24T08:12:19Z</time>
      </trkpt>
      <trkpt lat="44.81542" lon="4.21689">
        <ele>1433</ele>
        <time>2022-03-24T08:12:21Z</time>
      </trkpt>
      <trkpt lat="44.8154" lon="4.21693">
        <ele>1433</ele>
        <time>2022-03-24T08:12:23Z</time>
      </trkpt>
      <trkpt lat="44.81538" lon="4.21697">
        <ele>1432</ele>
        <time>2022-03-24T08:12:25Z</time>
      </trkpt>
      <trkpt lat="44.81535" lon="4.217">
        <ele>1432</ele>
        <time>2022-03-24T08:12:27Z</time>
      </trkpt>
      <trkpt lat="44.81533" lon="4.21703">
        <ele>1432</ele>
        <time>2022-03-24T08:12:29Z</time>
      </trkpt>
      <trkpt lat="44.8153" lon="4.21704">
        <ele>1432</ele>
        <time>2022-03-24T08:12:31Z</time>
      </trkpt>
      <trkpt lat="44.81527" lon="4.21704">
        <ele>1431</ele>
        <time>2022-03-24T08:12:33Z</time>
      </trkpt>
      <trkpt lat="44.81523" lon="4.21703">
        <ele>1431</ele>
        <time>2022-03-24T08:12:36Z</time>
      </trkpt>
      <trkpt lat="44.8152" lon="4.217">
        <ele>1431</ele>
        <time>2022-03-24T08:12:38Z</time>
      </trkpt>
      <trkpt lat="44.81517" lon="4.21699">
        <ele>1430</ele>
        <time>2022-03-24T08:12:40Z</time>
      </trkpt>
      <trkpt lat="44.81513" lon="4.21698">
        <ele>1430</ele>
        <time>2022-03-24T08:12:42Z</time>
      </trkpt>
      <trkpt lat="44.8151" lon="4.21698">
        <ele>1430</ele>
        <time>2022-03-24T08:12:44Z</time>
      </trkpt>
      <trkpt lat="44.81507" lon="4.21698">
        <ele>1430</ele>
        <time>2022-03-24T08:12:46Z</time>
      </trkpt>
      <trkpt lat="44.81504" lon="4.21699">
        <ele>1429</ele>
        <time>2022-03-24T08:12:48Z</time>
      </trkpt>
      <trkpt lat="44.81501" lon="4.217">
        <ele>1430</ele>
        <time>2022-03-24T08:12:50Z</time>
      </trkpt>
      <trkpt lat="44.81498" lon="4.21703">
        <ele>1430</ele>
        <time>2022-03-24T08:12:53Z</time>
      </trkpt>
      <trkpt lat="44.81495" lon="4.21705">
        <ele>1430</ele>
        <time>2022-03-24T08:12:55Z</time>
      </trkpt>
      <trkpt lat="44.81493" lon="4.21708">
        <ele>1430</ele>
        <time>2022-03-24T08:12:57Z</time>
      </trkpt>
      <trkpt lat="44.81491" lon="4.21713">
        <ele>1430</ele>
        <time>2022-03-24T08:13:00Z</time>
      </trkpt>
      <trkpt lat="44.81489" lon="4.21716">
        <ele>1431</ele>
        <time>2022-03-24T08:13:02Z</time>
      </trkpt>
      <trkpt lat="44.81487" lon="4.2172">
        <ele>1431</ele>
        <time>2022-03-24T08:13:04Z</time>
      </trkpt>
      <trkpt lat="44.81486" lon="4.21724">
        <ele>1431</ele>
        <time>2022-03-24T08:13:06Z</time>
      </trkpt>
      <trkpt lat="44.81485" lon="4.21728">
        <ele>1431</ele>
        <time>2022-03-24T08:13:08Z</time>
      </trkpt>
      <trkpt lat="44.81484" lon="4.21733">
        <ele>1432</ele>
        <time>2022-03-24T08:13:10Z</time>
      </trkpt>
      <trkpt lat="44.81482" lon="4.21737">
        <ele>1432</ele>
        <time>2022-03-24T08:13:12Z</time>
      </trkpt>
      <trkpt lat="44.81482" lon="4.21741">
        <ele>1432</ele>
        <time>2022-03-24T08:13:14Z</time>
      </trkpt>
      <trkpt lat="44.81481" lon="4.21745">
        <ele>1432</ele>
        <time>2022-03-24T08:13:16Z</time>
      </trkpt>
      <trkpt lat="44.8148" lon="4.2175">
        <ele>1432</ele>
        <time>2022-03-24T08:13:18Z</time>
      </trkpt>
      <trkpt lat="44.8148" lon="4.21754">
        <ele>1433</ele>
        <time>2022-03-24T08:13:20Z</time>
      </trkpt>
      <trkpt lat="44.81479" lon="4.21758">
        <ele>1433</ele>
        <time>2022-03-24T08:13:22Z</time>
      </trkpt>
      <trkpt lat="44.8148" lon="4.21763">
        <ele>1433</ele>
        <time>2022-03-24T08:13:25Z</time>
      </trkpt>
      <trkpt lat="44.81481" lon="4.21767">
        <ele>1434</ele>
        <time>2022-03-24T08:13:28Z</time>
      </trkpt>
      <trkpt lat="44.81482" lon="4.21772">
        <ele>1434</ele>
        <time>2022-03-24T08:13:31Z</time>
      </trkpt>
      <trkpt lat="44.81483" lon="4.21777">
        <ele>1434</ele>
        <time>2022-03-24T08:13:34Z</time>
      </trkpt>
      <trkpt lat="44.81485" lon="4.21781">
        <ele>1435</ele>
        <time>2022-03-24T08:13:36Z</time>
      </trkpt>
      <trkpt lat="44.81486" lon="4.21785">
        <ele>1435</ele>
        <time>2022-03-24T08:13:40Z</time>
      </trkpt>
      <trkpt lat="44.81488" lon="4.21788">
        <ele>1436</ele>
        <time>2022-03-24T08:13:43Z</time>
      </trkpt>
      <trkpt lat="44.8149" lon="4.21793">
        <ele>1436</ele>
        <time>2022-03-24T08:13:46Z</time>
      </trkpt>
      <trkpt lat="44.81492" lon="4.21796">
        <ele>1436</ele>
        <time>2022-03-24T08:13:48Z</time>
      </trkpt>
      <trkpt lat="44.81494" lon="4.218">
        <ele>1437</ele>
        <time>2022-03-24T08:13:50Z</time>
      </trkpt>
      <trkpt lat="44.81495" lon="4.21804">
        <ele>1437</ele>
        <time>2022-03-24T08:13:52Z</time>
      </trkpt>
      <trkpt lat="44.81496" lon="4.21808">
        <ele>1438</ele>
        <time>2022-03-24T08:13:55Z</time>
      </trkpt>
      <trkpt lat="44.81496" lon="4.21813">
        <ele>1438</ele>
        <time>2022-03-24T08:13:58Z</time>
      </trkpt>
      <trkpt lat="44.81496" lon="4.21818">
        <ele>1438</ele>
        <time>2022-03-24T08:14:00Z</time>
      </trkpt>
      <trkpt lat="44.81497" lon="4.21823">
        <ele>1439</ele>
        <time>2022-03-24T08:14:02Z</time>
      </trkpt>
      <trkpt lat="44.81497" lon="4.21828">
        <ele>1439</ele>
        <time>2022-03-24T08:14:05Z</time>
      </trkpt>
      <trkpt lat="44.81497" lon="4.21832">
        <ele>1439</ele>
        <time>2022-03-24T08:14:07Z</time>
      </trkpt>
      <trkpt lat="44.81498" lon="4.21836">
        <ele>1440</ele>
        <time>2022-03-24T08:14:09Z</time>
      </trkpt>
      <trkpt lat="44.81498" lon="4.21841">
        <ele>1440</ele>
        <time>2022-03-24T08:14:12Z</time>
      </trkpt>
      <trkpt lat="44.81498" lon="4.21846">
        <ele>1441</ele>
        <time>2022-03-24T08:14:15Z</time>
      </trkpt>
      <trkpt lat="44.81499" lon="4.21851">
        <ele>1441</ele>
        <time>2022-03-24T08:14:18Z</time>
      </trkpt>
      <trkpt lat="44.81499" lon="4.21856">
        <ele>1442</ele>
        <time>2022-03-24T08:14:21Z</time>
      </trkpt>
      <trkpt lat="44.81499" lon="4.21861">
        <ele>1442</ele>
        <time>2022-03-24T08:14:24Z</time>
      </trkpt>
      <trkpt lat="44.815" lon="4.21865">
        <ele>1443</ele>
        <time>2022-03-24T08:14:27Z</time>
      </trkpt>
      <trkpt lat="44.81501" lon="4.21869">
        <ele>1443</ele>
        <time>2022-03-24T08:14:30Z</time>
      </trkpt>
      <trkpt lat="44.81502" lon="4.21874">
        <ele>1444</ele>
        <time>2022-03-24T08:14:34Z</time>
      </trkpt>
      <trkpt lat="44.81503" lon="4.21878">
        <ele>1444</ele>
        <time>2022-03-24T08:14:38Z</time>
      </trkpt>
      <trkpt lat="44.81503" lon="4.21882">
        <ele>1444</ele>
        <time>2022-03-24T08:14:45Z</time>
      </trkpt>
      <trkpt lat="44.81502" lon="4.21885">
        <ele>1444</ele>
        <time>2022-03-24T08:14:47Z</time>
      </trkpt>
      <trkpt lat="44.815" lon="4.21889">
        <ele>1444</ele>
        <time>2022-03-24T08:14:49Z</time>
      </trkpt>
      <trkpt lat="44.81498" lon="4.21892">
        <ele>1444</ele>
        <time>2022-03-24T08:14:51Z</time>
      </trkpt>
      <trkpt lat="44.81496" lon="4.21896">
        <ele>1443</ele>
        <time>2022-03-24T08:14:53Z</time>
      </trkpt>
      <trkpt lat="44.81494" lon="4.21899">
        <ele>1443</ele>
        <time>2022-03-24T08:14:56Z</time>
      </trkpt>
      <trkpt lat="44.81492" lon="4.21903">
        <ele>1443</ele>
        <time>2022-03-24T08:14:58Z</time>
      </trkpt>
      <trkpt lat="44.8149" lon="4.21905">
        <ele>1442</ele>
        <time>2022-03-24T08:15:00Z</time>
      </trkpt>
      <trkpt lat="44.81487" lon="4.21908">
        <ele>1442</ele>
        <time>2022-03-24T08:15:02Z</time>
      </trkpt>
      <trkpt lat="44.81485" lon="4.21912">
        <ele>1442</ele>
        <time>2022-03-24T08:15:04Z</time>
      </trkpt>
      <trkpt lat="44.81483" lon="4.21916">
        <ele>1442</ele>
        <time>2022-03-24T08:15:06Z</time>
      </trkpt>
      <trkpt lat="44.81481" lon="4.21919">
        <ele>1442</ele>
        <time>2022-03-24T08:15:08Z</time>
      </trkpt>
      <trkpt lat="44.81479" lon="4.21924">
        <ele>1441</ele>
        <time>2022-03-24T08:15:11Z</time>
      </trkpt>
      <trkpt lat="44.81477" lon="4.21927">
        <ele>1441</ele>
        <time>2022-03-24T08:15:13Z</time>
      </trkpt>
      <trkpt lat="44.81475" lon="4.21931">
        <ele>1441</ele>
        <time>2022-03-24T08:15:16Z</time>
      </trkpt>
      <trkpt lat="44.81472" lon="4.21935">
        <ele>1441</ele>
        <time>2022-03-24T08:15:19Z</time>
      </trkpt>
      <trkpt lat="44.8147" lon="4.21939">
        <ele>1441</ele>
        <time>2022-03-24T08:15:21Z</time>
      </trkpt>
      <trkpt lat="44.81467" lon="4.21943">
        <ele>1441</ele>
        <time>2022-03-24T08:15:23Z</time>
      </trkpt>
      <trkpt lat="44.81466" lon="4.21947">
        <ele>1441</ele>
        <time>2022-03-24T08:15:25Z</time>
      </trkpt>
      <trkpt lat="44.81465" lon="4.2195">
        <ele>1441</ele>
        <time>2022-03-24T08:15:27Z</time>
      </trkpt>
      <trkpt lat="44.81464" lon="4.21954">
        <ele>1441</ele>
        <time>2022-03-24T08:15:29Z</time>
      </trkpt>
      <trkpt lat="44.81463" lon="4.21959">
        <ele>1441</ele>
        <time>2022-03-24T08:15:32Z</time>
      </trkpt>
      <trkpt lat="44.81462" lon="4.21962">
        <ele>1441</ele>
        <time>2022-03-24T08:15:34Z</time>
      </trkpt>
      <trkpt lat="44.8146" lon="4.21967">
        <ele>1440</ele>
        <time>2022-03-24T08:15:37Z</time>
      </trkpt>
      <trkpt lat="44.81459" lon="4.21972">
        <ele>1440</ele>
        <time>2022-03-24T08:15:42Z</time>
      </trkpt>
      <trkpt lat="44.81457" lon="4.21976">
        <ele>1440</ele>
        <time>2022-03-24T08:15:45Z</time>
      </trkpt>
      <trkpt lat="44.81456" lon="4.2198">
        <ele>1440</ele>
        <time>2022-03-24T08:15:47Z</time>
      </trkpt>
      <trkpt lat="44.81454" lon="4.21983">
        <ele>1439</ele>
        <time>2022-03-24T08:15:49Z</time>
      </trkpt>
      <trkpt lat="44.81452" lon="4.21987">
        <ele>1440</ele>
        <time>2022-03-24T08:15:51Z</time>
      </trkpt>
      <trkpt lat="44.8145" lon="4.21991">
        <ele>1440</ele>
        <time>2022-03-24T08:15:54Z</time>
      </trkpt>
      <trkpt lat="44.81449" lon="4.21995">
        <ele>1439</ele>
        <time>2022-03-24T08:15:56Z</time>
      </trkpt>
      <trkpt lat="44.81447" lon="4.21999">
        <ele>1439</ele>
        <time>2022-03-24T08:15:58Z</time>
      </trkpt>
      <trkpt lat="44.81445" lon="4.22002">
        <ele>1439</ele>
        <time>2022-03-24T08:16:00Z</time>
      </trkpt>
      <trkpt lat="44.81443" lon="4.22006">
        <ele>1440</ele>
        <time>2022-03-24T08:16:02Z</time>
      </trkpt>
      <trkpt lat="44.81442" lon="4.22011">
        <ele>1440</ele>
        <time>2022-03-24T08:16:04Z</time>
      </trkpt>
      <trkpt lat="44.81441" lon="4.22015">
        <ele>1439</ele>
        <time>2022-03-24T08:16:07Z</time>
      </trkpt>
      <trkpt lat="44.8144" lon="4.22018">
        <ele>1439</ele>
        <time>2022-03-24T08:16:09Z</time>
      </trkpt>
      <trkpt lat="44.81439" lon="4.22022">
        <ele>1440</ele>
        <time>2022-03-24T08:16:11Z</time>
      </trkpt>
      <trkpt lat="44.81437" lon="4.22026">
        <ele>1440</ele>
        <time>2022-03-24T08:16:13Z</time>
      </trkpt>
      <trkpt lat="44.81436" lon="4.2203">
        <ele>1440</ele>
        <time>2022-03-24T08:16:16Z</time>
      </trkpt>
      <trkpt lat="44.81435" lon="4.22035">
        <ele>1440</ele>
        <time>2022-03-24T08:16:18Z</time>
      </trkpt>
      <trkpt lat="44.81434" lon="4.2204">
        <ele>1440</ele>
        <time>2022-03-24T08:16:21Z</time>
      </trkpt>
      <trkpt lat="44.81435" lon="4.22045">
        <ele>1440</ele>
        <time>2022-03-24T08:16:24Z</time>
      </trkpt>
      <trkpt lat="44.81434" lon="4.2205">
        <ele>1440</ele>
        <time>2022-03-24T08:16:27Z</time>
      </trkpt>
      <trkpt lat="44.81433" lon="4.22054">
        <ele>1440</ele>
        <time>2022-03-24T08:16:30Z</time>
      </trkpt>
      <trkpt lat="44.81432" lon="4.22059">
        <ele>1440</ele>
        <time>2022-03-24T08:16:33Z</time>
      </trkpt>
      <trkpt lat="44.81431" lon="4.22062">
        <ele>1439</ele>
        <time>2022-03-24T08:16:35Z</time>
      </trkpt>
      <trkpt lat="44.81431" lon="4.22067">
        <ele>1439</ele>
        <time>2022-03-24T08:16:38Z</time>
      </trkpt>
      <trkpt lat="44.8143" lon="4.22072">
        <ele>1439</ele>
        <time>2022-03-24T08:16:40Z</time>
      </trkpt>
      <trkpt lat="44.81429" lon="4.22078">
        <ele>1439</ele>
        <time>2022-03-24T08:16:42Z</time>
      </trkpt>
      <trkpt lat="44.81428" lon="4.22084">
        <ele>1439</ele>
        <time>2022-03-24T08:16:44Z</time>
      </trkpt>
      <trkpt lat="44.81426" lon="4.22089">
        <ele>1439</ele>
        <time>2022-03-24T08:16:46Z</time>
      </trkpt>
      <trkpt lat="44.81424" lon="4.22093">
        <ele>1439</ele>
        <time>2022-03-24T08:16:48Z</time>
      </trkpt>
      <trkpt lat="44.81423" lon="4.22097">
        <ele>1438</ele>
        <time>2022-03-24T08:16:51Z</time>
      </trkpt>
      <trkpt lat="44.81421" lon="4.22102">
        <ele>1438</ele>
        <time>2022-03-24T08:16:53Z</time>
      </trkpt>
      <trkpt lat="44.8142" lon="4.22107">
        <ele>1438</ele>
        <time>2022-03-24T08:16:55Z</time>
      </trkpt>
      <trkpt lat="44.81418" lon="4.2211">
        <ele>1438</ele>
        <time>2022-03-24T08:16:57Z</time>
      </trkpt>
      <trkpt lat="44.81417" lon="4.22115">
        <ele>1437</ele>
        <time>2022-03-24T08:17:00Z</time>
      </trkpt>
      <trkpt lat="44.81416" lon="4.22119">
        <ele>1436</ele>
        <time>2022-03-24T08:17:03Z</time>
      </trkpt>
      <trkpt lat="44.81416" lon="4.22124">
        <ele>1435</ele>
        <time>2022-03-24T08:17:06Z</time>
      </trkpt>
      <trkpt lat="44.81415" lon="4.22128">
        <ele>1435</ele>
        <time>2022-03-24T08:17:08Z</time>
      </trkpt>
      <trkpt lat="44.81415" lon="4.22133">
        <ele>1434</ele>
        <time>2022-03-24T08:17:10Z</time>
      </trkpt>
      <trkpt lat="44.81414" lon="4.22137">
        <ele>1434</ele>
        <time>2022-03-24T08:17:12Z</time>
      </trkpt>
      <trkpt lat="44.81413" lon="4.2214">
        <ele>1434</ele>
        <time>2022-03-24T08:17:14Z</time>
      </trkpt>
      <trkpt lat="44.81411" lon="4.22144">
        <ele>1434</ele>
        <time>2022-03-24T08:17:16Z</time>
      </trkpt>
      <trkpt lat="44.8141" lon="4.22148">
        <ele>1434</ele>
        <time>2022-03-24T08:17:18Z</time>
      </trkpt>
      <trkpt lat="44.81409" lon="4.22152">
        <ele>1434</ele>
        <time>2022-03-24T08:17:20Z</time>
      </trkpt>
      <trkpt lat="44.81408" lon="4.22156">
        <ele>1434</ele>
        <time>2022-03-24T08:17:22Z</time>
      </trkpt>
      <trkpt lat="44.81407" lon="4.22161">
        <ele>1434</ele>
        <time>2022-03-24T08:17:25Z</time>
      </trkpt>
      <trkpt lat="44.81407" lon="4.22166">
        <ele>1434</ele>
        <time>2022-03-24T08:17:27Z</time>
      </trkpt>
      <trkpt lat="44.81406" lon="4.22171">
        <ele>1434</ele>
        <time>2022-03-24T08:17:29Z</time>
      </trkpt>
      <trkpt lat="44.81405" lon="4.22176">
        <ele>1433</ele>
        <time>2022-03-24T08:17:31Z</time>
      </trkpt>
      <trkpt lat="44.81403" lon="4.22181">
        <ele>1433</ele>
        <time>2022-03-24T08:17:33Z</time>
      </trkpt>
      <trkpt lat="44.81402" lon="4.22186">
        <ele>1433</ele>
        <time>2022-03-24T08:17:35Z</time>
      </trkpt>
      <trkpt lat="44.81401" lon="4.22191">
        <ele>1433</ele>
        <time>2022-03-24T08:17:37Z</time>
      </trkpt>
      <trkpt lat="44.814" lon="4.22196">
        <ele>1433</ele>
        <time>2022-03-24T08:17:40Z</time>
      </trkpt>
      <trkpt lat="44.814" lon="4.22201">
        <ele>1432</ele>
        <time>2022-03-24T08:17:42Z</time>
      </trkpt>
      <trkpt lat="44.814" lon="4.22205">
        <ele>1432</ele>
        <time>2022-03-24T08:17:44Z</time>
      </trkpt>
      <trkpt lat="44.81401" lon="4.22209">
        <ele>1431</ele>
        <time>2022-03-24T08:17:46Z</time>
      </trkpt>
      <trkpt lat="44.81402" lon="4.22214">
        <ele>1432</ele>
        <time>2022-03-24T08:17:49Z</time>
      </trkpt>
      <trkpt lat="44.81403" lon="4.22219">
        <ele>1432</ele>
        <time>2022-03-24T08:17:51Z</time>
      </trkpt>
      <trkpt lat="44.81404" lon="4.22223">
        <ele>1431</ele>
        <time>2022-03-24T08:17:53Z</time>
      </trkpt>
      <trkpt lat="44.81406" lon="4.22227">
        <ele>1431</ele>
        <time>2022-03-24T08:17:56Z</time>
      </trkpt>
      <trkpt lat="44.81409" lon="4.22231">
        <ele>1431</ele>
        <time>2022-03-24T08:17:58Z</time>
      </trkpt>
      <trkpt lat="44.81411" lon="4.22234">
        <ele>1431</ele>
        <time>2022-03-24T08:18:00Z</time>
      </trkpt>
      <trkpt lat="44.81413" lon="4.22237">
        <ele>1431</ele>
        <time>2022-03-24T08:18:02Z</time>
      </trkpt>
      <trkpt lat="44.81415" lon="4.22241">
        <ele>1431</ele>
        <time>2022-03-24T08:18:05Z</time>
      </trkpt>
      <trkpt lat="44.81417" lon="4.22244">
        <ele>1431</ele>
        <time>2022-03-24T08:18:08Z</time>
      </trkpt>
      <trkpt lat="44.81419" lon="4.22248">
        <ele>1431</ele>
        <time>2022-03-24T08:18:10Z</time>
      </trkpt>
      <trkpt lat="44.81421" lon="4.22253">
        <ele>1431</ele>
        <time>2022-03-24T08:18:13Z</time>
      </trkpt>
      <trkpt lat="44.81423" lon="4.22257">
        <ele>1431</ele>
        <time>2022-03-24T08:18:15Z</time>
      </trkpt>
      <trkpt lat="44.81425" lon="4.2226">
        <ele>1430</ele>
        <time>2022-03-24T08:18:17Z</time>
      </trkpt>
      <trkpt lat="44.81427" lon="4.22264">
        <ele>1430</ele>
        <time>2022-03-24T08:18:19Z</time>
      </trkpt>
      <trkpt lat="44.81429" lon="4.22268">
        <ele>1430</ele>
        <time>2022-03-24T08:18:21Z</time>
      </trkpt>
      <trkpt lat="44.81431" lon="4.22271">
        <ele>1430</ele>
        <time>2022-03-24T08:18:23Z</time>
      </trkpt>
      <trkpt lat="44.81433" lon="4.22274">
        <ele>1430</ele>
        <time>2022-03-24T08:18:25Z</time>
      </trkpt>
      <trkpt lat="44.81436" lon="4.22277">
        <ele>1431</ele>
        <time>2022-03-24T08:18:28Z</time>
      </trkpt>
      <trkpt lat="44.81439" lon="4.22279">
        <ele>1431</ele>
        <time>2022-03-24T08:18:30Z</time>
      </trkpt>
      <trkpt lat="44.81442" lon="4.2228">
        <ele>1432</ele>
        <time>2022-03-24T08:18:32Z</time>
      </trkpt>
      <trkpt lat="44.81445" lon="4.22283">
        <ele>1432</ele>
        <time>2022-03-24T08:18:35Z</time>
      </trkpt>
      <trkpt lat="44.81448" lon="4.22285">
        <ele>1432</ele>
        <time>2022-03-24T08:18:38Z</time>
      </trkpt>
      <trkpt lat="44.8145" lon="4.22288">
        <ele>1433</ele>
        <time>2022-03-24T08:18:40Z</time>
      </trkpt>
      <trkpt lat="44.81452" lon="4.22292">
        <ele>1432</ele>
        <time>2022-03-24T08:18:43Z</time>
      </trkpt>
      <trkpt lat="44.81454" lon="4.22297">
        <ele>1433</ele>
        <time>2022-03-24T08:18:45Z</time>
      </trkpt>
      <trkpt lat="44.81457" lon="4.22301">
        <ele>1433</ele>
        <time>2022-03-24T08:18:47Z</time>
      </trkpt>
      <trkpt lat="44.81459" lon="4.22305">
        <ele>1433</ele>
        <time>2022-03-24T08:18:49Z</time>
      </trkpt>
      <trkpt lat="44.81461" lon="4.22308">
        <ele>1433</ele>
        <time>2022-03-24T08:18:51Z</time>
      </trkpt>
      <trkpt lat="44.81462" lon="4.22312">
        <ele>1433</ele>
        <time>2022-03-24T08:18:53Z</time>
      </trkpt>
      <trkpt lat="44.81464" lon="4.22315">
        <ele>1433</ele>
        <time>2022-03-24T08:18:55Z</time>
      </trkpt>
      <trkpt lat="44.81466" lon="4.22318">
        <ele>1433</ele>
        <time>2022-03-24T08:18:57Z</time>
      </trkpt>
      <trkpt lat="44.81469" lon="4.22321">
        <ele>1432</ele>
        <time>2022-03-24T08:19:00Z</time>
      </trkpt>
      <trkpt lat="44.81472" lon="4.22324">
        <ele>1432</ele>
        <time>2022-03-24T08:19:02Z</time>
      </trkpt>
      <trkpt lat="44.81474" lon="4.22327">
        <ele>1432</ele>
        <time>2022-03-24T08:19:04Z</time>
      </trkpt>
      <trkpt lat="44.81477" lon="4.22331">
        <ele>1432</ele>
        <time>2022-03-24T08:19:07Z</time>
      </trkpt>
      <trkpt lat="44.8148" lon="4.22335">
        <ele>1433</ele>
        <time>2022-03-24T08:19:10Z</time>
      </trkpt>
      <trkpt lat="44.81482" lon="4.22338">
        <ele>1433</ele>
        <time>2022-03-24T08:19:12Z</time>
      </trkpt>
      <trkpt lat="44.81484" lon="4.22341">
        <ele>1433</ele>
        <time>2022-03-24T08:19:15Z</time>
      </trkpt>
      <trkpt lat="44.81487" lon="4.22345">
        <ele>1433</ele>
        <time>2022-03-24T08:19:18Z</time>
      </trkpt>
      <trkpt lat="44.8149" lon="4.22349">
        <ele>1432</ele>
        <time>2022-03-24T08:19:21Z</time>
      </trkpt>
      <trkpt lat="44.81492" lon="4.22352">
        <ele>1432</ele>
        <time>2022-03-24T08:19:23Z</time>
      </trkpt>
      <trkpt lat="44.81494" lon="4.22355">
        <ele>1432</ele>
        <time>2022-03-24T08:19:26Z</time>
      </trkpt>
      <trkpt lat="44.81497" lon="4.22358">
        <ele>1432</ele>
        <time>2022-03-24T08:19:29Z</time>
      </trkpt>
      <trkpt lat="44.81499" lon="4.22362">
        <ele>1432</ele>
        <time>2022-03-24T08:19:32Z</time>
      </trkpt>
      <trkpt lat="44.81501" lon="4.22365">
        <ele>1432</ele>
        <time>2022-03-24T08:19:36Z</time>
      </trkpt>
      <trkpt lat="44.81504" lon="4.22367">
        <ele>1433</ele>
        <time>2022-03-24T08:19:45Z</time>
      </trkpt>
      <trkpt lat="44.81506" lon="4.22368">
        <ele>1433</ele>
        <time>2022-03-24T08:20:53Z</time>
      </trkpt>
    </trkseg>
  </trk>
</gpx>